Provisional Data: Yellow Breeches Creek near Lisburn, PA


Please select a monitoring station.
Please select start date.
Please select start date.

Toggle Unit: C/F Toggle Unit: C/F
Sample Time Temperature (C) Temperature (F) Specific Conductivity (mS/cm) pH   Turbidity (NTU+) DO (mg/L)
9/6/2021 12:00:00 AM 17.65 63.77 0.232 7.68 39.68 8.75
9/6/2021 12:15:00 AM 17.65 63.77 0.231 7.68 21.23 8.72
9/6/2021 12:30:00 AM 17.64 63.752 0.232 7.67 18.67 8.7
9/6/2021 12:45:00 AM 17.63 63.734 0.232 7.67 17.89 8.72
9/6/2021 1:00:00 AM 17.62 63.716 0.233 7.67 16.77 8.71
9/6/2021 1:15:00 AM 17.6 63.68 0.223 7.66 17.77 8.71
9/6/2021 1:30:00 AM 17.59 63.662 0.228 7.66 22.02 8.71
9/6/2021 1:45:00 AM 17.57 63.626 0.228 7.66 20.14 8.72
9/6/2021 2:00:00 AM 17.55 63.59 0.226 7.66 26.65 8.71
9/6/2021 2:15:00 AM 17.54 63.572 0.228 7.66 20.86 8.7
9/6/2021 2:30:00 AM 17.52 63.536 0.194 7.66 20.06 8.7
9/6/2021 2:45:00 AM 17.51 63.518 0.223 7.65 19.7 8.7
9/6/2021 3:00:00 AM 17.49 63.482 0.23 7.66 19.98 8.7
9/6/2021 3:15:00 AM 17.49 63.482 0.232 7.65 18.76 8.69
9/6/2021 3:30:00 AM 17.48 63.464 0.224 7.65 20.11 8.69
9/6/2021 3:45:00 AM 17.47 63.446 0.226 7.65 17.89 8.69
9/6/2021 4:00:00 AM 17.46 63.428 0.233 7.65 22.9 8.69
9/6/2021 4:15:00 AM 17.45 63.41 0.231 7.65 18.13 8.69
9/6/2021 4:30:00 AM 17.43 63.374 0.23 7.64 25.99 8.68
9/6/2021 4:45:00 AM 17.41 63.338 0.23 7.65 24.04 8.7
9/6/2021 5:00:00 AM 17.4 63.32 0.229 7.64 20.73 8.69
9/6/2021 5:15:00 AM 17.38 63.284 0.23 7.65 23.88 8.68
9/6/2021 5:30:00 AM 17.36 63.248 0.225 7.65 21.14 8.73
9/6/2021 5:45:00 AM 17.34 63.212 0.21 7.65 23.62 8.7
9/6/2021 6:00:00 AM 17.33 63.194 0.229 7.64 78.09 8.72
9/6/2021 6:15:00 AM 17.31 63.158 0.222 7.64 18.3 8.66
9/6/2021 6:30:00 AM 17.29 63.122 0.218 7.64 24.7 8.64
9/6/2021 6:45:00 AM 17.27 63.086 0.218 7.63 24.97 8.64
9/6/2021 7:00:00 AM 17.25 63.05 0.214 7.65 22.47 8.59
9/6/2021 7:15:00 AM 17.22 62.996 0.232 7.65 21.3 8.73
9/6/2021 7:30:00 AM 17.2 62.96 0.23 7.64 17.73 8.67
9/6/2021 7:45:00 AM 17.17 62.906 0.229 7.64 21.63 8.72
9/6/2021 8:00:00 AM 17.15 62.87 0.227 7.65 25.47 8.72
9/6/2021 8:15:00 AM 17.14 62.852 0.23 7.65 20.87 8.75
9/6/2021 8:30:00 AM 17.13 62.834 0.229 7.65 25.03 8.78
9/6/2021 8:45:00 AM 17.13 62.834 0.225 7.65 20.28 8.78
9/6/2021 9:00:00 AM 17.16 62.888 0.23 7.66 24.13 8.8
9/6/2021 9:15:00 AM 17.21 62.978 0.232 7.67 20.27 8.83
9/6/2021 9:30:00 AM 17.27 63.086 0.233 7.67 23.96 8.86
9/6/2021 9:45:00 AM 17.31 63.158 0.224 7.67 21.53 8.88
9/6/2021 10:00:00 AM 17.36 63.248 0.234 7.67 20.32 8.86
9/6/2021 10:15:00 AM 17.39 63.302 0.221 7.67 20.58 8.87
9/6/2021 10:30:00 AM 17.45 63.41 0.231 7.69 20.86 8.91
9/6/2021 10:45:00 AM 17.49 63.482 0.23 7.7 22.31 8.91
9/6/2021 11:00:00 AM 17.55 63.59 0.232 7.71 30.79 8.9
9/6/2021 11:15:00 AM 17.61 63.698 0.231 7.71 24.26 8.96
9/6/2021 11:30:00 AM 17.67 63.806 0.231 7.72 22.67 8.99
9/6/2021 11:45:00 AM 17.74 63.932 0.231 7.73 22.46 8.96
9/6/2021 12:00:00 PM 17.81 64.058 0.231 7.73 23.18 9.02
9/6/2021 12:15:00 PM 17.88 64.184 0.233 7.74 23.6 9.03
9/6/2021 12:30:00 PM 17.95 64.31 0.215 7.74 25.62 8.96
9/6/2021 12:45:00 PM 18.04 64.472 0.209 7.75 26.1 9.03
9/6/2021 1:00:00 PM 18.1 64.58 0.232 7.75 27.48 9.05
9/6/2021 1:15:00 PM 18.19 64.742 0.232 7.76 28.11 9.08
9/6/2021 1:30:00 PM 18.26 64.868 0.213 7.76 41.33 9.11
9/6/2021 1:45:00 PM 18.36 65.048 0.224 7.76 23.4 9.11
9/6/2021 2:00:00 PM 18.43 65.174 0.225 7.66 28.24 9.08
9/6/2021 2:15:00 PM 18.49 65.282 0.228 7.76 20.89 9.13
9/6/2021 2:30:00 PM 18.54 65.372 0.227 7.77 19.78 9.13
9/6/2021 2:45:00 PM 18.57 65.426 0.229 7.78 14.47 9.13
9/6/2021 3:00:00 PM 18.59 65.462 0.23 7.78 17.46 9.1
9/6/2021 3:15:00 PM 18.6 65.48 0.23 7.78 16.07 9.1
9/6/2021 3:30:00 PM 18.61 65.498 0.228 7.79 14.51 9.1
9/6/2021 3:45:00 PM 18.62 65.516 0.236 7.79 17.51 9.11
9/6/2021 4:00:00 PM 18.64 65.552 0.235 7.79 13.35 9.09
9/6/2021 4:15:00 PM 18.66 65.588 0.235 7.8 15.22 9.08
9/6/2021 4:30:00 PM 18.68 65.624 0.235 7.81 15.37 9.1
9/6/2021 4:45:00 PM 18.7 65.66 0.229 7.8 15.45 9.09
9/6/2021 5:00:00 PM 18.74 65.732 0.231 7.81 16.2 9.04
9/6/2021 5:15:00 PM 18.77 65.786 0.234 7.81 15.54 9.02
9/6/2021 5:30:00 PM 18.79 65.82201 0.233 7.82 18.64 9.05
9/6/2021 5:45:00 PM 18.81 65.858 0.234 7.81 22.43 9.02
9/6/2021 6:00:00 PM 18.85 65.93 0.233 7.82 17.41 9.03
9/6/2021 6:15:00 PM 18.88 65.984 0.236 7.82 20.34 9.02
9/6/2021 6:30:00 PM 18.91 66.038 0.238 7.82 24.12 8.99
9/6/2021 6:45:00 PM 18.93 66.074 0.239 7.82 22.75 8.91
9/6/2021 7:00:00 PM 18.95 66.11 0.239 7.81 18.7 8.97
9/6/2021 7:15:00 PM 18.95 66.11 0.239 7.81 18.69 8.71
9/6/2021 7:30:00 PM 18.95 66.11 0.237 7.82 21.65 8.9
9/6/2021 7:45:00 PM 18.93 66.074 0.236 7.82 19.42 8.84
9/6/2021 8:00:00 PM 18.91 66.038 0.233 7.81 27.89 8.82
9/6/2021 8:15:00 PM 18.88 65.984 0.233 7.8 236 8.77
9/6/2021 8:30:00 PM 18.86 65.948 0.228 7.81 47.28 8.81
9/6/2021 8:45:00 PM 18.83 65.894 0.236 7.8 47.11 8.73
9/6/2021 9:00:00 PM 18.79 65.82201 0.235 7.78 14.68 8.76
9/6/2021 9:15:00 PM 18.76 65.768 0.235 7.8 15.27 8.71
9/6/2021 9:30:00 PM 18.73 65.714 0.24 7.78 15.81 8.69
9/6/2021 9:45:00 PM 18.7 65.66 0.241 7.79 14.87 8.66
9/6/2021 10:00:00 PM 18.68 65.624 0.243 7.78 19.06 8.63
9/6/2021 10:15:00 PM 18.65 65.57 0.243 7.76 18.61 8.64
9/6/2021 10:30:00 PM 18.62 65.516 0.242 7.76 15.39 8.62
9/6/2021 10:45:00 PM 18.59 65.462 0.241 7.76 17.91 8.6
9/6/2021 11:00:00 PM 18.56 65.408 0.241 7.76 18.34 8.58
9/6/2021 11:15:00 PM 18.53 65.354 0.239 7.77 17.46 8.61
9/6/2021 11:30:00 PM 18.49 65.282 0.239 7.77 15.64 8.58
9/6/2021 11:45:00 PM 18.46 65.228 0.238 7.77 20.95 8.58
9/7/2021 12:00:00 AM 18.42 65.156 0.238 7.77 22.52 8.59
9/7/2021 12:15:00 AM 18.38 65.084 0.236 7.76 24.43 8.6
9/7/2021 12:30:00 AM 18.35 65.03 0.24 7.76 20.51 8.57
9/7/2021 12:45:00 AM 18.3 64.94 0.242 7.76 25.41 8.59
9/7/2021 1:00:00 AM 18.26 64.868 0.244 7.76 23.94 8.57
9/7/2021 1:15:00 AM 18.22 64.796 0.244 7.75 27.98 8.57
9/7/2021 1:30:00 AM 18.17 64.706 0.243 7.75 28.85 8.57
9/7/2021 1:45:00 AM 18.12 64.616 0.243 7.75 26.87 8.55
9/7/2021 2:00:00 AM 18.06 64.508 0.242 7.74 29.24 8.55
9/7/2021 2:15:00 AM 18.02 64.436 0.241 7.74 21.87 8.52
9/7/2021 2:30:00 AM 17.97 64.346 0.241 7.73 28.45 8.56
9/7/2021 2:45:00 AM 17.91 64.238 0.24 7.73 25.51 8.58
9/7/2021 3:00:00 AM 17.87 64.166 0.239 7.71 20.12 8.58
9/7/2021 3:15:00 AM 17.82 64.076 0.24 7.65 23.95 8.6
9/7/2021 3:30:00 AM 17.77 63.986 0.241 7.72 20.01 8.63
9/7/2021 3:45:00 AM 17.73 63.914 0.243 7.72 19.18 8.61
9/7/2021 4:00:00 AM 17.68 63.824 0.245 7.71 16.45 8.61
9/7/2021 4:15:00 AM 17.63 63.734 0.245 7.71 26.24 8.6
9/7/2021 4:30:00 AM 17.59 63.662 0.245 7.72 22.79 8.6
9/7/2021 4:45:00 AM 17.54 63.572 0.244 7.71 23.29 8.63
9/7/2021 5:00:00 AM 17.5 63.5 0.243 7.71 24.79 8.65
9/7/2021 5:15:00 AM 17.46 63.428 0.242 7.71 23.61 8.65
9/7/2021 5:30:00 AM 17.41 63.338 0.242 7.7 26.3 8.65
9/7/2021 5:45:00 AM 17.37 63.266 0.241 7.69 18.94 8.63
9/7/2021 6:00:00 AM 17.33 63.194 0.241 7.7 24.31 8.65
9/7/2021 6:15:00 AM 17.29 63.122 0.241 7.7 26.51 8.66
9/7/2021 6:30:00 AM 17.25 63.05 0.242 7.71 13.48 8.61
9/7/2021 6:45:00 AM 17.21 62.978 0.244 7.7 23.24 8.66
9/7/2021 7:00:00 AM 17.18 62.924 0.233 7.69 21.47 8.68
9/7/2021 7:15:00 AM 17.15 62.87 0.247 7.7 22.17 8.7
9/7/2021 7:30:00 AM 17.12 62.816 0.247 7.69 28.45 8.71
9/7/2021 7:45:00 AM 17.09 62.762 0.247 7.69 19.42 8.71
9/7/2021 8:00:00 AM 17.06 62.708 0.246 7.69 57.76 8.68
9/7/2021 8:15:00 AM 17.04 62.672 0.245 7.7 26.26 8.68
9/7/2021 8:30:00 AM 17.03 62.654 0.244 7.69 22.41 8.77
9/7/2021 8:45:00 AM 17.02 62.636 0.244 7.71 36.81 8.81
9/7/2021 9:00:00 AM 17.05 62.69 0.243 7.71 17.24 8.85
9/7/2021 9:15:00 AM 17.1 62.78 0.244 7.71 22.46 8.88
9/7/2021 9:30:00 AM 17.17 62.906 0.244 7.72 23.29 8.91
9/7/2021 9:45:00 AM 17.23 63.014 0.245 7.72 22.25 8.92
9/7/2021 10:00:00 AM 17.27 63.086 0.247 7.73 21.36 8.95
9/7/2021 10:15:00 AM 17.32 63.176 0.248 7.72 24.16 8.98
9/7/2021 10:30:00 AM 17.37 63.266 0.249 7.73 19.69 8.99
9/7/2021 10:45:00 AM 17.41 63.338 0.248 7.73 36.97 9.02
9/7/2021 11:00:00 AM 17.48 63.464 0.248 7.74 20.81 9.02
9/7/2021 11:15:00 AM 17.53 63.554 0.247 7.75 21.3 9.07
9/7/2021 11:30:00 AM 17.62 63.716 0.247 7.75 18.08 9.06
9/7/2021 11:45:00 AM 17.68 63.824 0.247 7.75 22.72 9.09
9/7/2021 12:00:00 PM 17.77 63.986 0.247 7.76 22.08 9.03
9/7/2021 12:15:00 PM 17.83 64.094 0.241 7.76 18.43 9.07
9/7/2021 12:30:00 PM 17.92 64.256 0.247 7.77 16.41 9.1
9/7/2021 12:45:00 PM 18 64.4 0.248 7.77 28.29 9.14
9/7/2021 1:00:00 PM 18.08 64.544 0.249 7.78 19.94 9.17
9/7/2021 1:15:00 PM 18.16 64.688 0.25 7.79 17.78 9.13
9/7/2021 1:30:00 PM 18.24 64.832 0.251 7.8 16.87 9.14
9/7/2021 1:45:00 PM 18.35 65.03 0.251 7.79 18.5 9.15
9/7/2021 2:00:00 PM 18.44 65.192 0.25 7.8 20.36 9.16
9/7/2021 2:15:00 PM 18.51 65.318 0.251 7.81 24.73 9.28
9/7/2021 2:30:00 PM 18.6 65.48 0.25 7.82 30.53 9.29
9/7/2021 2:45:00 PM 18.68 65.624 0.25 7.82 35.96 9.23
9/7/2021 3:00:00 PM 18.75 65.75 0.25 7.83 22.74 9.3
9/7/2021 3:15:00 PM 18.81 65.858 0.25 7.84 23.33 9.3
9/7/2021 3:30:00 PM 18.85 65.93 0.251 7.84 21.71 9.29
9/7/2021 3:45:00 PM 18.89 66.002 0.252 7.84 18.54 9.29
9/7/2021 4:00:00 PM 18.93 66.074 0.252 7.86 13.53 9.31
9/7/2021 4:15:00 PM 18.96 66.128 0.254 7.85 21.97 9.26
9/7/2021 4:30:00 PM 19 66.2 0.255 7.86 35.04 9.31
9/7/2021 4:45:00 PM 19.06 66.308 0.256 7.87 39.52 9.25
9/7/2021 5:00:00 PM 19.1 66.38 0.255 7.87 16.15 9.26
9/7/2021 5:15:00 PM 19.12 66.416 0.255 7.87 30.56 9.27
9/7/2021 5:30:00 PM 19.14 66.452 0.255 7.88 32.59 9.23
9/7/2021 5:45:00 PM 19.14 66.452 0.233 7.88 21.62 9.22
9/7/2021 6:00:00 PM 19.12 66.416 0.254 7.87 41.18 9.16
9/7/2021 6:15:00 PM 19.11 66.398 0.254 7.89 35.92 9.15
9/7/2021 6:30:00 PM 19.1 66.38 0.254 7.88 35.67 9.14
9/7/2021 6:45:00 PM 19.1 66.38 0.255 7.88 30.79 9.15
9/7/2021 7:00:00 PM 19.1 66.38 0.257 7.89 29.17 9.12
9/7/2021 7:15:00 PM 19.11 66.398 0.26 7.88 25.17 9.06
9/7/2021 7:30:00 PM 19.11 66.398 0.262 7.88 26.46 9.06
9/7/2021 7:45:00 PM 19.1 66.38 0.264 7.88 31 9.01
9/7/2021 8:00:00 PM 19.09 66.362 0.262 7.87 39.13 8.96
9/7/2021 8:15:00 PM 19.08 66.344 0.261 7.87 22.27 8.93
9/7/2021 8:30:00 PM 19.06 66.308 0.261 7.86 22.45 8.87
9/7/2021 8:45:00 PM 19.05 66.29 0.259 7.86 22.34 8.85
9/7/2021 9:00:00 PM 19.03 66.254 0.259 7.85 22.43 8.83
9/7/2021 9:15:00 PM 19.01 66.218 0.258 7.85 20.15 8.79
9/7/2021 9:30:00 PM 18.99 66.182 0.258 7.85 19.18 8.77
9/7/2021 9:45:00 PM 18.98 66.164 0.258 7.85 44.03 8.77
9/7/2021 10:00:00 PM 18.96 66.128 0.26 7.85 18.77 8.73
9/7/2021 10:15:00 PM 18.96 66.128 0.262 7.85 22.81 8.7
9/7/2021 10:30:00 PM 18.94 66.092 0.265 7.84 31.98 8.66
9/7/2021 10:45:00 PM 18.93 66.074 0.266 7.84 23.02 8.63
9/7/2021 11:00:00 PM 18.91 66.038 0.267 7.83 29.62 8.58
9/7/2021 11:15:00 PM 18.89 66.002 0.266 7.84 29.03 8.6
9/7/2021 11:30:00 PM 18.87 65.966 0.265 7.83 31.28 8.56
9/7/2021 11:45:00 PM 18.84 65.912 0.263 7.82 31.32 8.57
9/8/2021 12:00:00 AM 18.8 65.84 0.256 7.82 25.98 8.56
9/8/2021 12:15:00 AM 18.77 65.786 0.261 7.83 22.85 8.54
9/8/2021 12:30:00 AM 18.74 65.732 0.261 7.83 21.23 8.57
9/8/2021 12:45:00 AM 18.7 65.66 0.261 7.82 28.89 8.51
9/8/2021 1:00:00 AM 18.66 65.588 0.262 7.83 28.07 8.52
9/8/2021 1:15:00 AM 18.64 65.552 0.263 7.83 20.93 8.55
9/8/2021 1:30:00 AM 18.6 65.48 0.265 7.82 47.53 8.51
9/8/2021 1:45:00 AM 18.56 65.408 0.262 7.81 23.74 8.49
9/8/2021 2:00:00 AM 18.52 65.336 0.266 7.8 18.83 8.53
9/8/2021 2:15:00 AM 18.47 65.246 0.266 7.8 18.74 8.53
9/8/2021 2:30:00 AM 18.43 65.174 0.265 7.8 13.06 8.5
9/8/2021 2:45:00 AM 18.38 65.084 0.26 7.8 17.17 8.56
9/8/2021 3:00:00 AM 18.33 64.994 0.262 7.8 15.52 8.54
9/8/2021 3:15:00 AM 18.29 64.922 0.262 7.8 15.94 8.55
9/8/2021 3:30:00 AM 18.25 64.85 0.26 7.81 14.59 8.56
9/8/2021 3:45:00 AM 18.21 64.778 0.261 7.8 17.97 8.55
9/8/2021 4:00:00 AM 18.16 64.688 0.261 7.8 18.1 8.57
9/8/2021 4:15:00 AM 18.12 64.616 0.256 7.79 20.8 8.58
9/8/2021 4:30:00 AM 18.09 64.562 0.266 7.8 18.11 8.56
9/8/2021 4:45:00 AM 18.05 64.49 0.265 7.79 17.67 8.56
9/8/2021 5:00:00 AM 18.02 64.436 0.267 7.78 15.3 8.59
9/8/2021 5:15:00 AM 17.99 64.382 0.266 7.78 20.96 8.56
9/8/2021 5:30:00 AM 17.95 64.31 0.265 7.79 39.42 8.6
9/8/2021 5:45:00 AM 17.93 64.274 0.265 7.79 18.39 8.58
9/8/2021 6:00:00 AM 17.89 64.202 0.256 7.8 22.83 8.61
9/8/2021 6:15:00 AM 17.87 64.166 0.263 7.79 25.18 8.52
9/8/2021 6:30:00 AM 17.84 64.112 0.262 7.79 16.4 8.57
9/8/2021 6:45:00 AM 17.81 64.058 0.262 7.78 39.76 8.57
9/8/2021 7:00:00 AM 17.79 64.022 0.263 7.78 22.16 8.61
9/8/2021 7:15:00 AM 17.77 63.986 0.265 7.77 19.8 8.58
9/8/2021 7:30:00 AM 17.74 63.932 0.267 7.78 23.53 8.6
9/8/2021 7:45:00 AM 17.72 63.896 0.269 7.78 23.31 8.57
9/8/2021 8:00:00 AM 17.71 63.878 0.268 7.78 17.81 8.59
9/8/2021 8:15:00 AM 17.69 63.842 0.268 7.78 4974 8.6
9/8/2021 8:30:00 AM 17.68 63.824 0.267 7.78 3076 8.62
9/8/2021 8:45:00 AM 17.68 63.824 0.267 7.78 27.59 8.65
9/8/2021 9:00:00 AM 17.71 63.878 0.265 7.77 51.81 8.7
9/8/2021 9:15:00 AM 17.77 63.986 0.265 7.77 16.76 8.73
9/8/2021 9:30:00 AM 17.85 64.13 0.265 7.78 22.21 8.73
9/8/2021 9:45:00 AM 17.88 64.184 0.264 7.79 15.2 8.8
9/8/2021 10:00:00 AM 17.9 64.22 0.264 7.79 15.2 8.78
9/8/2021 10:15:00 AM 17.96 64.328 0.264 7.8 10.81 8.84
9/8/2021 10:30:00 AM 18.03 64.454 0.266 7.79 12.91 8.88
9/8/2021 10:45:00 AM 18.09 64.562 0.267 7.8 14.33 8.89
9/8/2021 11:00:00 AM 18.16 64.688 0.268 7.8 12.68 8.88
9/8/2021 11:15:00 AM 18.23 64.814 0.267 7.81 11.79 8.9
9/8/2021 11:30:00 AM 18.32 64.976 0.268 7.81 14.98 8.98
9/8/2021 11:45:00 AM 18.41 65.138 0.266 7.82 17.97 8.99
9/8/2021 12:00:00 PM 18.49 65.282 0.266 7.83 12.57 9.02
9/8/2021 12:15:00 PM 18.56 65.408 0.265 7.84 11.48 9.03
9/8/2021 12:30:00 PM 18.65 65.57 0.265 7.84 20.86 9.06
9/8/2021 12:45:00 PM 18.75 65.75 0.265 7.85 11.33 9.09
9/8/2021 1:00:00 PM 18.83 65.894 0.265 7.86 12.65 9.07
9/8/2021 1:15:00 PM 18.92 66.056 0.265 7.87 18.14 9.14
9/8/2021 1:30:00 PM 19 66.2 0.266 7.87 20.04 9.11
9/8/2021 1:45:00 PM 19.08 66.344 0.267 7.88 12.12 9.1
9/8/2021 2:00:00 PM 19.15 66.47 0.267 7.88 14.5 9.15
9/8/2021 2:15:00 PM 19.26 66.668 0.267 7.88 17.53 9.14
9/8/2021 2:30:00 PM 19.36 66.848 0.267 7.89 15.23 9.18
9/8/2021 2:45:00 PM 19.45 67.01 0.267 7.9 13.28 9.15
9/8/2021 3:00:00 PM 19.51 67.118 0.267 7.9 19.18 9.17
9/8/2021 3:15:00 PM 19.58 67.244 0.267 7.91 15.26 9.16
9/8/2021 3:30:00 PM 19.65 67.37 0.266 7.92 17.59 9.17
9/8/2021 3:45:00 PM 19.71 67.478 0.266 7.93 16.81 9.16
9/8/2021 4:00:00 PM 19.76 67.568 0.266 7.93 21.53 9.17
9/8/2021 4:15:00 PM 19.81 67.658 0.266 7.93 9.61 9.19
9/8/2021 4:30:00 PM 19.86 67.748 0.266 7.94 16.92 9.17
9/8/2021 4:45:00 PM 19.92 67.856 0.265 7.95 11.85 9.13
9/8/2021 5:00:00 PM 19.94 67.892 0.266 7.96 13.9 9.15
9/8/2021 5:15:00 PM 19.96 67.92799 0.266 7.95 13.46 9.07
9/8/2021 5:30:00 PM 19.97 67.946 0.266 7.95 15.29 9.08
9/8/2021 5:45:00 PM 19.98 67.964 0.266 7.95 13.8 9.07
9/8/2021 6:00:00 PM 19.99 67.982 0.267 7.95 27.67 9.04
9/8/2021 6:15:00 PM 19.99 67.982 0.266 7.96 17.3 9.06
9/8/2021 6:30:00 PM 19.99 67.982 0.266 7.96 10.09 9.03
9/8/2021 6:45:00 PM 19.97 67.946 0.266 7.96 7.68 8.95
9/8/2021 7:00:00 PM 19.95 67.91 0.267 7.95 10.88 8.96
9/8/2021 7:15:00 PM 19.94 67.892 0.268 7.95 8.81 8.92
9/8/2021 7:30:00 PM 19.91 67.838 0.272 7.95 14.25 8.87
9/8/2021 7:45:00 PM 19.89 67.802 0.275 7.94 19.19 8.79
9/8/2021 8:00:00 PM 19.88 67.784 0.277 7.93 5.89 8.77
9/8/2021 8:15:00 PM 19.87 67.766 0.278 7.91 7.13 8.73
9/8/2021 8:30:00 PM 19.86 67.748 0.278 7.92 8.09 8.69
9/8/2021 8:45:00 PM 19.84 67.712 0.276 7.91 12.54 8.67
9/8/2021 9:00:00 PM 19.82 67.676 0.274 7.91 13.94 8.63
9/8/2021 9:15:00 PM 19.81 67.658 0.273 7.9 10.81 8.58
9/8/2021 9:30:00 PM 19.78 67.604 0.269 7.9 24.93 8.57
9/8/2021 9:45:00 PM 19.77 67.586 0.262 7.9 4973 8.56
9/8/2021 10:00:00 PM 19.78 67.604 0.265 7.89 43.33 8.49
9/8/2021 10:15:00 PM 19.79 67.622 0.266 7.88 28.72 8.39
9/8/2021 10:30:00 PM 19.78 67.604 0.265 7.88 43.81 8.4
9/8/2021 10:45:00 PM 19.78 67.604 0.263 7.89 47.62 8.35
9/8/2021 11:00:00 PM 19.8 67.64 0.261 7.89 32.31 8.38
9/8/2021 11:15:00 PM 19.79 67.622 0.257 7.87 65.05 8.31
9/8/2021 11:30:00 PM 19.78 67.604 0.25 7.84 176.5 8.2
9/8/2021 11:45:00 PM 19.77 67.586 0.244 7.81 154.1 8.18
9/9/2021 12:00:00 AM 19.76 67.568 0.239 7.81 94.77 8.13
9/9/2021 12:15:00 AM 19.73 67.514 0.238 7.8 101.9 8.13
9/9/2021 12:30:00 AM 19.7 67.46 0.241 7.8 53.95 8.13
9/9/2021 12:45:00 AM 19.65 67.37 0.246 7.79 64.33 8.15
9/9/2021 1:00:00 AM 19.62 67.316 0.25 7.8 61.68 8.14
9/9/2021 1:15:00 AM 19.6 67.28 0.252 7.8 55.03 8.18
9/9/2021 1:30:00 AM 19.56 67.208 0.252 7.81 69.43 8.19
9/9/2021 1:45:00 AM 19.53 67.154 0.25 7.81 44.42 8.21
9/9/2021 2:00:00 AM 19.5 67.1 0.247 7.82 35.71 8.2
9/9/2021 2:15:00 AM 19.47 67.046 0.243 7.82 177.1 8.18
9/9/2021 2:30:00 AM 19.46 67.028 0.241 7.81 73.72 8.14
9/9/2021 2:45:00 AM 19.44 66.992 0.241 7.79 51.11 8.09
9/9/2021 3:00:00 AM 19.44 66.992 0.24 7.78 53.99 8.06
9/9/2021 3:15:00 AM 19.45 67.01 0.239 7.77 43.96 8.03
9/9/2021 3:30:00 AM 19.47 67.046 0.238 7.75 42.28 7.99
9/9/2021 3:45:00 AM 19.49 67.082 0.237 7.75 64.8 8
9/9/2021 4:00:00 AM 19.5 67.1 0.236 7.73 68.03 7.92
9/9/2021 4:15:00 AM 19.51 67.118 0.235 7.72 53.17 7.94
9/9/2021 4:30:00 AM 19.51 67.118 0.235 7.71 83.29 7.9
9/9/2021 4:45:00 AM 19.52 67.136 0.235 7.7 69.44 7.87
9/9/2021 5:00:00 AM 19.52 67.136 0.235 7.69 97.43 7.84
9/9/2021 5:15:00 AM 19.52 67.136 0.235 7.69 51.49 7.86
9/9/2021 5:30:00 AM 19.53 67.154 0.236 7.69 84.22 7.83
9/9/2021 5:45:00 AM 19.53 67.154 0.236 7.68 78.11 7.79
9/9/2021 6:00:00 AM 19.53 67.154 0.236 7.67 209.6 7.8
9/9/2021 6:15:00 AM 19.52 67.136 0.234 7.67 258 7.77
9/9/2021 6:30:00 AM 19.51 67.118 0.231 7.66 78.59 7.78
9/9/2021 6:45:00 AM 19.49 67.082 0.228 7.66 71.01 7.81
9/9/2021 7:00:00 AM 19.46 67.028 0.226 7.66 58.41 7.67
9/9/2021 7:15:00 AM 19.43 66.974 0.225 7.66 97.07 7.82
9/9/2021 7:30:00 AM 19.39 66.902 0.224 7.66 94.35 7.87
9/9/2021 7:45:00 AM 19.36 66.848 0.223 7.66 48.27 7.87
9/9/2021 8:00:00 AM 19.32 66.776 0.224 7.66 50.98 7.89
9/9/2021 8:15:00 AM 19.29 66.722 0.225 7.67 191.6 7.93
9/9/2021 8:30:00 AM 19.25 66.65 0.227 7.67 55.57 7.95
9/9/2021 8:45:00 AM 19.22 66.596 0.23 7.68 36.31 7.97
9/9/2021 9:00:00 AM 19.19 66.542 0.232 7.68 96.95 8
9/9/2021 9:15:00 AM 19.17 66.506 0.233 7.69 58.71 8.02
9/9/2021 9:30:00 AM 19.14 66.452 0.233 7.69 54.29 8.05
9/9/2021 9:45:00 AM 19.11 66.398 0.233 7.69 75.42 8.09
9/9/2021 10:00:00 AM 19.09 66.362 0.233 7.7 96.15 8.13
9/9/2021 10:15:00 AM 19.06 66.308 0.234 7.71 67.35 8.1
9/9/2021 10:30:00 AM 19.04 66.272 0.234 7.72 35.92 8.04
9/9/2021 10:45:00 AM 19.02 66.236 0.235 7.73 62.36 8.16
9/9/2021 11:00:00 AM 19 66.2 0.235 7.73 60.74 8.22
9/9/2021 11:15:00 AM 19 66.2 0.236 7.73 39.73 8.21
9/9/2021 11:30:00 AM 18.99 66.182 0.237 7.73 32.6 8.26
9/9/2021 11:45:00 AM 18.98 66.164 0.237 7.73 24.01 8.23
9/9/2021 12:00:00 PM 18.98 66.164 0.236 7.74 67.53 8.29
9/9/2021 12:15:00 PM 18.98 66.164 0.235 7.73 25.11 8.28
9/9/2021 12:30:00 PM 18.99 66.182 0.234 7.74 51.34 8.28
9/9/2021 12:45:00 PM 18.99 66.182 0.233 7.74 43.45 8.3
9/9/2021 1:00:00 PM 19 66.2 0.232 7.74 18.13 8.29
9/9/2021 1:15:00 PM 19.02 66.236 0.232 7.73 51.33 8.26
9/9/2021 1:30:00 PM 19.04 66.272 0.231 7.75 61.84 8.22
9/9/2021 1:45:00 PM 19.04 66.272 0.231 7.74 46.06 8.17
9/9/2021 2:00:00 PM 19.05 66.29 0.23 7.74 222.3 8.12
9/9/2021 2:15:00 PM 19.05 66.29 0.231 7.74 73.55 8.04
9/9/2021 2:30:00 PM 19.06 66.308 0.232 7.74 145.6 7.99
9/9/2021 2:45:00 PM 19.08 66.344 0.232 7.73 232.5 7.98
9/9/2021 3:00:00 PM 19.11 66.398 0.23 7.74 69.06 7.95
9/9/2021 3:15:00 PM 19.14 66.452 0.228 7.73 71.18 7.95
9/9/2021 3:30:00 PM 19.19 66.542 0.225 7.74 87.87 7.93
9/9/2021 3:45:00 PM 19.23 66.614 0.222 7.73 190.1 7.93
9/9/2021 4:00:00 PM 19.25 66.65 0.219 7.73 97.79 7.92
9/9/2021 4:15:00 PM 19.28 66.704 0.217 7.73 391.8 7.95
9/9/2021 4:30:00 PM 19.33 66.794 0.214 7.73 807.9 8.02
9/9/2021 4:45:00 PM 19.35 66.83 0.213 7.72 217.5 8.07
9/9/2021 5:00:00 PM 19.33 66.794 0.212 7.71 34.27 8.08
9/9/2021 5:15:00 PM 19.3 66.74 0.212 7.7 37.65 8.06
9/9/2021 5:30:00 PM 19.27 66.686 0.214 7.7 40.98 8.08
9/9/2021 5:45:00 PM 19.25 66.65 0.216 7.69 27.66 8.08
9/9/2021 6:00:00 PM 19.23 66.614 0.216 7.69 74.32 8.14
9/9/2021 6:15:00 PM 19.2 66.56 0.215 7.7 28.28 8.18
9/9/2021 6:30:00 PM 19.16 66.488 0.213 7.69 56.4 8.16
9/9/2021 6:45:00 PM 19.11 66.398 0.21 7.69 24.55 8.18
9/9/2021 7:00:00 PM 19.07 66.326 0.209 7.69 46.75 8.21
9/9/2021 7:15:00 PM 19.04 66.272 0.208 7.68 139.1 8.21
9/9/2021 7:30:00 PM 19.01 66.218 0.206 7.68 311.6 8.17
9/9/2021 7:45:00 PM 18.99 66.182 0.206 7.68 851.6 8.19
9/9/2021 8:00:00 PM 18.98 66.164 0.205 7.68 61.89 8.21
9/9/2021 8:15:00 PM 18.96 66.128 0.206 7.68 129.4 8.18
9/9/2021 8:30:00 PM 18.95 66.11 0.208 7.67 69.45 8.23
9/9/2021 8:45:00 PM 18.93 66.074 0.211 7.68 61.4 8.23
9/9/2021 9:00:00 PM 18.91 66.038 0.213 7.68 51.21 8.23
9/9/2021 9:15:00 PM 18.89 66.002 0.212 7.67 77.32 8.27
9/9/2021 9:30:00 PM 18.86 65.948 0.211 7.67 65.18 8.27
9/9/2021 9:45:00 PM 18.82 65.876 0.209 7.67 82.08 8.26
9/9/2021 10:00:00 PM 18.78 65.804 0.207 7.67 118.1 8.29
9/9/2021 10:15:00 PM 18.74 65.732 0.206 7.67 384.1 8.27
9/9/2021 10:30:00 PM 18.69 65.642 0.205 7.67 137 8.3
9/9/2021 10:45:00 PM 18.64 65.552 0.204 7.68 206.5 8.28
9/9/2021 11:00:00 PM 18.6 65.48 0.204 7.66 282.6 8.29
9/9/2021 11:15:00 PM 18.55 65.39 0.204 7.68 171.1 8.31
9/9/2021 11:30:00 PM 18.51 65.318 0.205 7.68 399.6 8.28
9/9/2021 11:45:00 PM 18.46 65.228 0.207 7.66 258.8 8.28
9/10/2021 12:00:00 AM 18.42 65.156 0.208 7.67 198.9 8.24
9/10/2021 12:15:00 AM 18.38 65.084 0.209 7.66 257.3 8.3
9/10/2021 12:30:00 AM 18.33 64.994 0.209 7.67 215.8 8.04
9/10/2021 12:45:00 AM 18.28 64.904 0.208 7.65 428.7 8.23
9/10/2021 1:00:00 AM 18.23 64.814 0.207 7.67 244 8.34
9/10/2021 1:15:00 AM 18.18 64.724 0.207 7.66 284.7 8.35
9/10/2021 1:30:00 AM 18.13 64.634 0.206 7.66 338 8.35
9/10/2021 1:45:00 AM 18.08 64.544 0.207 7.66 229.7 8.38
9/10/2021 2:00:00 AM 18.03 64.454 0.208 7.65 244.1 8.36
9/10/2021 2:15:00 AM 17.98 64.364 0.21 7.65 246.6 8.41
9/10/2021 2:30:00 AM 17.94 64.292 0.21 7.66 247.8 8.4
9/10/2021 2:45:00 AM 17.89 64.202 0.213 7.66 283 8.43
9/10/2021 3:00:00 AM 17.85 64.13 0.216 7.66 266.5 8.45
9/10/2021 3:15:00 AM 17.82 64.076 0.218 7.66 301.2 8.44
9/10/2021 3:30:00 AM 17.77 63.986 0.217 7.66 280.8 8.44
9/10/2021 3:45:00 AM 17.73 63.914 0.217 7.66 277.4 8.45
9/10/2021 4:00:00 AM 17.68 63.824 0.216 7.66 328.1 8.47
9/10/2021 4:15:00 AM 17.64 63.752 0.215 7.67 366.1 8.45
9/10/2021 4:30:00 AM 17.59 63.662 0.213 7.67 384.8 8.42
9/10/2021 4:45:00 AM 17.55 63.59 0.213 7.66 353.4 8.46
9/10/2021 5:00:00 AM 17.51 63.518 0.213 7.66 339 8.49
9/10/2021 5:15:00 AM 17.47 63.446 0.212 7.67 329.8 8.5
9/10/2021 5:30:00 AM 17.43 63.374 0.213 7.66 930 8.49
9/10/2021 5:45:00 AM 17.39 63.302 0.214 7.66 2573 8.51
9/10/2021 6:00:00 AM 17.35 63.23 0.216 7.66 2049 8.47
9/10/2021 6:15:00 AM 17.32 63.176 0.219 7.66 4974 8.55
9/10/2021 6:30:00 AM 17.29 63.122 0.221 7.67 4974 8.56
9/10/2021 6:45:00 AM 17.26 63.068 0.22 7.66 4974 8.57
9/10/2021 7:00:00 AM 17.23 63.014 0.22 7.66 1008 8.57
9/10/2021 7:15:00 AM 17.19 62.942 0.221 7.65 4633 8.59
9/10/2021 7:30:00 AM 17.16 62.888 0.219 7.66 52.26 8.57
9/10/2021 7:45:00 AM 17.13 62.834 0.218 7.66 66.97 8.62
9/10/2021 8:00:00 AM 17.1 62.78 0.218 7.67 54.54 8.56
9/10/2021 8:15:00 AM 17.08 62.744 0.218 7.66 57.75 8.6
9/10/2021 8:30:00 AM 17.05 62.69 0.218 7.67 52.38 8.65
9/10/2021 8:45:00 AM 17.04 62.672 0.218 7.66 55.15 8.68
9/10/2021 9:00:00 AM 17.06 62.708 0.22 7.66 58.2 8.71
9/10/2021 9:15:00 AM 17.09 62.762 0.222 7.66 65.77 8.74
9/10/2021 9:30:00 AM 17.14 62.852 0.224 7.66 61.26 8.73
9/10/2021 9:45:00 AM 17.17 62.906 0.225 7.66 116.8 8.75
9/10/2021 10:00:00 AM 17.18 62.924 0.224 7.66 106.9 8.81
9/10/2021 10:15:00 AM 17.21 62.978 0.224 7.67 131.7 8.84
9/10/2021 10:30:00 AM 17.25 63.05 0.224 7.68 361.3 8.86
9/10/2021 10:45:00 AM 17.27 63.086 0.223 7.68 1338 8.87
9/10/2021 11:00:00 AM 17.31 63.158 0.223 7.68 634.7 8.92
9/10/2021 11:15:00 AM 17.35 63.23 0.223 7.69 868.9 8.88
9/10/2021 11:30:00 AM 17.4 63.32 0.223 7.7 757.6 8.97
9/10/2021 11:45:00 AM 17.45 63.41 0.223 7.69 566.7 9
9/10/2021 12:00:00 PM 17.5 63.5 0.224 7.69 574.1 8.98
9/10/2021 12:15:00 PM 17.56 63.608 0.225 7.7 48.03 9.03
9/10/2021 12:30:00 PM 17.61 63.698 0.227 7.71 51.18 9.06
9/10/2021 12:45:00 PM 17.68 63.824 0.227 7.71 61.21 9.05
9/10/2021 1:00:00 PM 17.74 63.932 0.228 7.72 54.23 9.09
9/10/2021 1:15:00 PM 17.79 64.022 0.228 7.72 58.71 9.12
9/10/2021 1:30:00 PM 17.84 64.112 0.228 7.73 88.13 9.14
9/10/2021 1:45:00 PM 17.87 64.166 0.229 7.72 93.56 9.15
9/10/2021 2:00:00 PM 17.91 64.238 0.228 7.73 122.1 9.19
9/10/2021 2:15:00 PM 17.93 64.274 0.229 7.73 119.7 9.17
9/10/2021 2:30:00 PM 17.94 64.292 0.229 7.74 141.8 9.21
9/10/2021 2:45:00 PM 17.96 64.328 0.227 7.74 147 9.22
9/10/2021 3:00:00 PM 18.02 64.436 0.229 7.75 164.2 9.21
9/10/2021 3:15:00 PM 18.09 64.562 0.23 7.75 4974 9.26
9/10/2021 3:30:00 PM 18.16 64.688 0.232 7.76 4974 9.19
9/10/2021 3:45:00 PM 18.23 64.814 0.233 7.76 4974 9.22
9/10/2021 4:00:00 PM 18.26 64.868 0.233 7.76 144.4 9.22
9/10/2021 4:15:00 PM 18.29 64.922 0.234 7.76 138 9.21
9/10/2021 4:30:00 PM 18.31 64.958 0.234 7.78 107.9 9.24
9/10/2021 4:45:00 PM 18.32 64.976 0.234 7.78 354.8 9.22
9/10/2021 5:00:00 PM 18.34 65.012 0.233 7.79 291.9 9.28
9/10/2021 5:15:00 PM 18.34 65.012 0.233 7.79 361.3 9.28
9/10/2021 5:30:00 PM 18.33 64.994 0.232 7.79 506.4 9.28
9/10/2021 5:45:00 PM 18.32 64.976 0.233 7.8 2707 9.26
9/10/2021 6:00:00 PM 18.3 64.94 0.233 7.8 326.8 9.24
9/10/2021 6:15:00 PM 18.29 64.922 0.234 7.8 311.2 9.26
9/10/2021 6:30:00 PM 18.28 64.904 0.236 7.79 1480 9.22
9/10/2021 6:45:00 PM 18.27 64.886 0.24 7.8 548.3 9.19
9/10/2021 7:00:00 PM 18.26 64.868 0.24 7.8 244.3 9.17
9/10/2021 7:15:00 PM 18.24 64.832 0.241 7.8 238.9 9.14
9/10/2021 7:30:00 PM 18.21 64.778 0.241 7.79 220.1 9.09
9/10/2021 7:45:00 PM 18.19 64.742 0.24 7.8 216.3 9.1
9/10/2021 8:00:00 PM 18.16 64.688 0.239 7.81 186.1 9.05
9/10/2021 8:15:00 PM 18.14 64.652 0.238 7.8 158.9 8.95
9/10/2021 8:30:00 PM 18.11 64.598 0.238 7.8 614.6 8.99
9/10/2021 8:45:00 PM 18.08 64.544 0.238 7.81 530.3 8.93
9/10/2021 9:00:00 PM 18.06 64.508 0.238 7.79 426.6 8.73
9/10/2021 9:15:00 PM 18.04 64.472 0.239 7.79 428.6 8.87
9/10/2021 9:30:00 PM 18.02 64.436 0.241 7.78 368.9 8.86
9/10/2021 9:45:00 PM 18 64.4 0.244 7.79 382 8.87
9/10/2021 10:00:00 PM 17.97 64.346 0.246 7.78 88.98 8.78
9/10/2021 10:15:00 PM 17.95 64.31 0.247 7.77 100.3 8.75
9/10/2021 10:30:00 PM 17.92 64.256 0.247 7.78 127.1 8.71
9/10/2021 10:45:00 PM 17.89 64.202 0.246 7.78 120.2 8.7
9/10/2021 11:00:00 PM 17.85 64.13 0.245 7.77 118.6 8.68
9/10/2021 11:15:00 PM 17.81 64.058 0.244 7.76 150.5 8.58
9/10/2021 11:30:00 PM 17.77 63.986 0.244 7.75 515.1 8.68
9/10/2021 11:45:00 PM 17.73 63.914 0.243 7.76 121.7 8.75
9/11/2021 12:00:00 AM 17.68 63.824 0.243 7.75 621.7 8.74
9/11/2021 12:15:00 AM 17.64 63.752 0.243 7.75 119.1 8.69
9/11/2021 12:30:00 AM 17.6 63.68 0.244 7.73 125.1 8.69
9/11/2021 12:45:00 AM 17.55 63.59 0.245 7.74 50.73 8.72
9/11/2021 1:00:00 AM 17.51 63.518 0.248 7.74 103.8 8.67
9/11/2021 1:15:00 AM 17.47 63.446 0.249 7.74 47.25 8.74
9/11/2021 1:30:00 AM 17.42 63.356 0.249 7.74 43.95 8.73
9/11/2021 1:45:00 AM 17.37 63.266 0.25 7.73 65.57 8.7
9/11/2021 2:00:00 AM 17.31 63.158 0.249 7.73 45.74 8.72
9/11/2021 2:15:00 AM 17.27 63.086 0.25 7.72 58.92 8.73
9/11/2021 2:30:00 AM 17.21 62.978 0.249 7.73 54.8 8.68
9/11/2021 2:45:00 AM 17.16 62.888 0.249 7.73 50.28 8.76
9/11/2021 3:00:00 AM 17.11 62.798 0.25 7.73 325.9 8.74
9/11/2021 3:15:00 AM 17.05 62.69 0.25 7.73 46.71 8.75
9/11/2021 3:30:00 AM 17 62.6 0.251 7.73 58.31 8.74
9/11/2021 3:45:00 AM 16.96 62.528 0.252 7.73 60.09 8.75
9/11/2021 4:00:00 AM 16.9 62.42 0.254 7.72 71.5 8.72
9/11/2021 4:15:00 AM 16.86 62.348 0.255 7.72 61.11 8.73
9/11/2021 4:30:00 AM 16.81 62.258 0.255 7.71 520.1 8.78
9/11/2021 4:45:00 AM 16.77 62.186 0.255 7.71 82.15 8.76
9/11/2021 5:00:00 AM 16.72 62.096 0.254 7.71 486.2 8.77
9/11/2021 5:15:00 AM 16.66 61.988 0.253 7.71 324.2 8.78
9/11/2021 5:30:00 AM 16.61 61.898 0.252 7.72 63.39 8.78
9/11/2021 5:45:00 AM 16.57 61.826 0.251 7.72 50.12 8.79
9/11/2021 6:00:00 AM 16.52 61.736 0.25 7.71 48.97 8.81
9/11/2021 6:15:00 AM 16.48 61.664 0.249 7.71 450.3 8.83
9/11/2021 6:30:00 AM 16.43 61.574 0.25 7.71 47.56 8.83
9/11/2021 6:45:00 AM 16.39 61.502 0.25 7.71 51.59 8.79
9/11/2021 7:00:00 AM 16.34 61.412 0.252 7.71 51.34 8.82
9/11/2021 7:15:00 AM 16.31 61.358 0.253 7.71 49.14 8.84
9/11/2021 7:30:00 AM 16.28 61.304 0.255 7.7 52.31 8.83
9/11/2021 7:45:00 AM 16.24 61.232 0.255 7.71 62.43 8.88
9/11/2021 8:00:00 AM 16.21 61.178 0.254 7.71 123.1 8.9
9/11/2021 8:15:00 AM 16.19 61.142 0.254 7.71 63.37 8.89
9/11/2021 8:30:00 AM 16.17 61.106 0.253 7.71 63.1 8.9
9/11/2021 8:45:00 AM 16.17 61.106 0.252 7.71 87.09 8.93
9/11/2021 9:00:00 AM 16.19 61.142 0.252 7.72 92.18 8.95
9/11/2021 9:15:00 AM 16.25 61.25 0.251 7.71 46.76 8.92
9/11/2021 9:30:00 AM 16.31 61.358 0.251 7.72 59.35 9
9/11/2021 9:45:00 AM 16.34 61.412 0.252 7.72 43.45 9.08
9/11/2021 10:00:00 AM 16.4 61.52 0.253 7.73 86.01 9.11
9/11/2021 10:15:00 AM 16.44 61.592 0.255 7.72 406.9 9.14
9/11/2021 10:30:00 AM 16.48 61.664 0.256 7.73 248 9.19
9/11/2021 10:45:00 AM 16.55 61.79 0.256 7.74 46.63 9.21
9/11/2021 11:00:00 AM 16.6 61.88 0.256 7.74 159.6 9.28
9/11/2021 11:15:00 AM 16.65 61.97 0.256 7.75 70.33 9.31
9/11/2021 11:30:00 AM 16.7 62.06 0.255 7.76 50.19 9.34
9/11/2021 11:45:00 AM 16.75 62.15 0.255 7.77 59.47 9.42
9/11/2021 12:00:00 PM 16.81 62.258 0.255 7.77 44.06 9.42
9/11/2021 12:15:00 PM 16.86 62.348 0.255 7.78 42.65 9.42
9/11/2021 12:30:00 PM 16.91 62.438 0.255 7.79 47.92 9.48
9/11/2021 12:45:00 PM 16.94 62.492 0.256 7.8 204.1 9.5
9/11/2021 1:00:00 PM 17.01 62.618 0.256 7.8 902.1 9.54
9/11/2021 1:15:00 PM 17.07 62.726 0.257 7.81 78.32 9.53
9/11/2021 1:30:00 PM 17.17 62.906 0.258 7.81 41.32 9.6
9/11/2021 1:45:00 PM 17.23 63.014 0.258 7.82 165.1 9.61
9/11/2021 2:00:00 PM 17.27 63.086 0.259 7.82 61.98 9.65
9/11/2021 2:15:00 PM 17.29 63.122 0.259 7.83 45.23 9.66
9/11/2021 2:30:00 PM 17.32 63.176 0.259 7.84 43.52 9.64
9/11/2021 2:45:00 PM 17.36 63.248 0.259 7.84 44.06 9.67
9/11/2021 3:00:00 PM 17.41 63.338 0.258 7.85 244.1 9.68
9/11/2021 3:15:00 PM 17.47 63.446 0.258 7.85 322.4 9.64
9/11/2021 3:30:00 PM 17.52 63.536 0.258 7.85 46.79 9.64
9/11/2021 3:45:00 PM 17.57 63.626 0.258 7.86 54.11 9.59
9/11/2021 4:00:00 PM 17.61 63.698 0.259 7.87 42.61 9.59
9/11/2021 4:15:00 PM 17.65 63.77 0.259 7.87 56.97 9.66
9/11/2021 4:30:00 PM 17.7 63.86 0.26 7.88 46.64 9.62
9/11/2021 4:45:00 PM 17.74 63.932 0.26 7.88 41.3 9.66
9/11/2021 5:00:00 PM 17.79 64.022 0.261 7.88 40.68 9.69
9/11/2021 5:15:00 PM 17.81 64.058 0.261 7.89 37.27 9.65
9/11/2021 5:30:00 PM 17.81 64.058 0.261 7.89 161.8 9.63
9/11/2021 5:45:00 PM 17.8 64.04 0.261 7.89 60.07 9.57
9/11/2021 6:00:00 PM 17.78 64.004 0.261 7.89 58.87 9.54
9/11/2021 6:15:00 PM 17.77 63.986 0.26 7.89 114.6 9.58
9/11/2021 6:30:00 PM 17.76 63.968 0.26 7.89 179.7 9.55
9/11/2021 6:45:00 PM 17.76 63.968 0.26 7.9 92.14 9.52
9/11/2021 7:00:00 PM 17.75 63.95 0.261 7.9 152.5 9.53
9/11/2021 7:15:00 PM 17.74 63.932 0.263 7.9 45.31 9.48
9/11/2021 7:30:00 PM 17.73 63.914 0.264 7.89 64.22 9.43
9/11/2021 7:45:00 PM 17.72 63.896 0.266 7.88 88.18 9.39
9/11/2021 8:00:00 PM 17.7 63.86 0.266 7.89 174.6 9.35
9/11/2021 8:15:00 PM 17.69 63.842 0.267 7.89 62.62 9.33
9/11/2021 8:30:00 PM 17.67 63.806 0.266 7.88 65.84 9.29
9/11/2021 8:45:00 PM 17.66 63.788 0.266 7.89 71.5 9.23
9/11/2021 9:00:00 PM 17.63 63.734 0.266 7.88 80.72 9.2
9/11/2021 9:15:00 PM 17.61 63.698 0.265 7.88 55.66 9.18
9/11/2021 9:30:00 PM 17.59 63.662 0.264 7.88 49.42 9.13
9/11/2021 9:45:00 PM 17.57 63.626 0.265 7.87 55.19 9.08
9/11/2021 10:00:00 PM 17.56 63.608 0.265 7.86 56.79 9.04
9/11/2021 10:15:00 PM 17.55 63.59 0.267 7.86 64.27 9.01
9/11/2021 10:30:00 PM 17.53 63.554 0.269 7.85 48.23 8.99
9/11/2021 10:45:00 PM 17.52 63.536 0.271 7.84 51.42 8.97
9/11/2021 11:00:00 PM 17.51 63.518 0.272 7.83 74.97 8.95
9/11/2021 11:15:00 PM 17.51 63.518 0.271 7.84 43.25 8.94
9/11/2021 11:30:00 PM 17.5 63.5 0.271 7.83 76.83 8.92
9/11/2021 11:45:00 PM 17.5 63.5 0.27 7.83 56.66 8.91
9/12/2021 12:00:00 AM 17.49 63.482 0.268 7.82 72.51 8.9
9/12/2021 12:15:00 AM 17.47 63.446 0.268 7.82 127.1 8.84
9/12/2021 12:30:00 AM 17.45 63.41 0.267 7.83 4974 8.86
9/12/2021 12:45:00 AM 17.44 63.392 0.267 7.82 64.28 8.82
9/12/2021 1:00:00 AM 17.42 63.356 0.267 7.82 44.99 8.83
9/12/2021 1:15:00 AM 17.39 63.302 0.269 7.82 62.93 8.82
9/12/2021 1:30:00 AM 17.37 63.266 0.27 7.81 85.48 8.82
9/12/2021 1:45:00 AM 17.34 63.212 0.271 7.81 105.1 8.82
9/12/2021 2:00:00 AM 17.32 63.176 0.272 7.81 128.5 8.78
9/12/2021 2:15:00 AM 17.29 63.122 0.272 7.8 103 8.79
9/12/2021 2:30:00 AM 17.26 63.068 0.271 7.8 146.9 8.82
9/12/2021 2:45:00 AM 17.22 62.996 0.271 7.79 219.7 8.77
9/12/2021 3:00:00 AM 17.19 62.942 0.27 7.79 222.8 8.79
9/12/2021 3:15:00 AM 17.15 62.87 0.269 7.79 111.9 8.77
9/12/2021 3:30:00 AM 17.11 62.798 0.268 7.79 65.7 8.81
9/12/2021 3:45:00 AM 17.07 62.726 0.268 7.79 49.45 8.81
9/12/2021 4:00:00 AM 17.03 62.654 0.268 7.79 49.8 8.81
9/12/2021 4:15:00 AM 17 62.6 0.271 7.79 39.95 8.78
9/12/2021 4:30:00 AM 16.96 62.528 0.27 7.78 4699 8.79
9/12/2021 4:45:00 AM 16.93 62.474 0.271 7.78 4974 8.78
9/12/2021 5:00:00 AM 16.89 62.402 0.272 7.78 4974 8.76
9/12/2021 5:15:00 AM 16.87 62.366 0.271 7.77 287.6 8.78
9/12/2021 5:30:00 AM 16.83 62.294 0.271 7.77 47.5 8.78
9/12/2021 5:45:00 AM 16.79 62.222 0.271 7.77 37.38 8.84
9/12/2021 6:00:00 AM 16.76 62.168 0.265 7.77 57.2 8.82
9/12/2021 6:15:00 AM 16.73 62.114 0.269 7.77 205 8.83
9/12/2021 6:30:00 AM 16.7 62.06 0.268 7.77 60.54 8.84
9/12/2021 6:45:00 AM 16.67 62.006 0.269 7.77 456.3 8.83
9/12/2021 7:00:00 AM 16.65 61.97 0.268 7.77 579.3 8.87
9/12/2021 7:15:00 AM 16.63 61.934 0.269 7.77 52.01 8.88
9/12/2021 7:30:00 AM 16.62 61.916 0.27 7.77 44.56 8.85
9/12/2021 7:45:00 AM 16.61 61.898 0.272 7.77 106 8.86
9/12/2021 8:00:00 AM 16.6 61.88 0.272 7.77 116.4 8.86
9/12/2021 8:15:00 AM 16.61 61.898 0.272 7.77 186.9 8.89
9/12/2021 8:30:00 AM 16.62 61.916 0.272 7.77 422.8 8.94
9/12/2021 8:45:00 AM 16.63 61.934 0.271 7.77 78.68 8.97
9/12/2021 9:00:00 AM 16.64 61.952 0.27 7.77 455.2 8.95
9/12/2021 9:15:00 AM 16.66 61.988 0.27 7.78 39.54 9.01
9/12/2021 9:30:00 AM 16.7 62.06 0.268 7.78 41.05 8.99
9/12/2021 9:45:00 AM 16.78 62.204 0.269 7.79 183 9.08
9/12/2021 10:00:00 AM 16.83 62.294 0.269 7.8 722.4 9.11
9/12/2021 10:15:00 AM 16.87 62.366 0.269 7.8 36.77 9.14
9/12/2021 10:30:00 AM 16.93 62.474 0.272 7.81 36.02 9.2
9/12/2021 10:45:00 AM 16.99 62.582 0.273 7.8 55.46 9.25
9/12/2021 11:00:00 AM 17.06 62.708 0.274 7.82 37.49 9.31
9/12/2021 11:15:00 AM 17.14 62.852 0.274 7.82 43.77 9.36
9/12/2021 11:30:00 AM 17.22 62.996 0.274 7.83 162.7 9.37
9/12/2021 11:45:00 AM 17.27 63.086 0.273 7.84 131.7 9.41
9/12/2021 12:00:00 PM 17.34 63.212 0.273 7.86 66.47 9.48
9/12/2021 12:15:00 PM 17.39 63.302 0.272 7.86 59.73 9.49
9/12/2021 12:30:00 PM 17.44 63.392 0.272 7.87 237.4 9.36
9/12/2021 12:45:00 PM 17.47 63.446 0.272 7.88 50.51 9.46
9/12/2021 1:00:00 PM 17.52 63.536 0.272 7.88 50.96 9.54
9/12/2021 1:15:00 PM 17.59 63.662 0.272 7.9 61.96 9.58
9/12/2021 1:30:00 PM 17.68 63.824 0.273 7.9 315 9.64
9/12/2021 1:45:00 PM 17.77 63.986 0.274 7.91 44.36 9.66
9/12/2021 2:00:00 PM 17.87 64.166 0.274 7.92 39.67 9.67
9/12/2021 2:15:00 PM 17.96 64.328 0.276 7.93 121.7 9.68
9/12/2021 2:30:00 PM 18.06 64.508 0.276 7.94 323.3 9.63
9/12/2021 2:45:00 PM 18.13 64.634 0.276 7.95 315.2 9.75
9/12/2021 3:00:00 PM 18.21 64.778 0.276 7.95 560.9 9.77
9/12/2021 3:15:00 PM 18.29 64.922 0.276 7.96 706.9 9.78
9/12/2021 3:30:00 PM 18.36 65.048 0.273 7.98 33.97 9.68
9/12/2021 3:45:00 PM 18.43 65.174 0.273 7.98 33.93 9.78
9/12/2021 4:00:00 PM 18.49 65.282 0.274 7.99 219.9 9.81
9/12/2021 4:15:00 PM 18.55 65.39 0.274 8 136.8 9.82
9/12/2021 4:30:00 PM 18.61 65.498 0.275 8 1336 9.77
9/12/2021 4:45:00 PM 18.66 65.588 0.275 8.01 47.32 9.77
9/12/2021 5:00:00 PM 18.69 65.642 0.276 8.01 258.8 9.78
9/12/2021 5:15:00 PM 18.72 65.696 0.276 8.01 180.4 9.74
9/12/2021 5:30:00 PM 18.73 65.714 0.276 8.02 43.82 9.7
9/12/2021 5:45:00 PM 18.74 65.732 0.276 8.01 329.4 9.69
9/12/2021 6:00:00 PM 18.74 65.732 0.276 8.02 182.1 9.66
9/12/2021 6:15:00 PM 18.74 65.732 0.276 8.02 48.04 9.62
9/12/2021 6:30:00 PM 18.74 65.732 0.276 8.03 272.5 9.62
9/12/2021 6:45:00 PM 18.73 65.714 0.276 8.02 131.3 9.56
9/12/2021 7:00:00 PM 18.73 65.714 0.276 8.02 26.5 9.49
9/12/2021 7:15:00 PM 18.72 65.696 0.276 8.01 86.12 9.45
9/12/2021 7:30:00 PM 18.71 65.67799 0.277 8.01 252.9 9.42
9/12/2021 7:45:00 PM 18.7 65.66 0.279 8 66.79 9.33
9/12/2021 8:00:00 PM 18.69 65.642 0.28 7.99 270.1 9.27
9/12/2021 8:15:00 PM 18.68 65.624 0.281 7.99 33.92 9.19
9/12/2021 8:30:00 PM 18.68 65.624 0.281 7.98 49.57 9.14
9/12/2021 8:45:00 PM 18.67 65.606 0.28 7.97 36.54 9.12
9/12/2021 9:00:00 PM 18.67 65.606 0.28 7.96 113.6 9.04
9/12/2021 9:15:00 PM 18.66 65.588 0.279 7.95 139.5 8.98
9/12/2021 9:30:00 PM 18.66 65.588 0.278 7.95 160.3 8.94
9/12/2021 9:45:00 PM 18.66 65.588 0.278 7.95 113.5 8.89
9/12/2021 10:00:00 PM 18.66 65.588 0.278 7.94 211.9 8.86
9/12/2021 10:15:00 PM 18.66 65.588 0.278 7.93 299.2 8.8
9/12/2021 10:30:00 PM 18.67 65.606 0.28 7.92 399.8 8.76
9/12/2021 10:45:00 PM 18.68 65.624 0.281 7.92 248.9 8.75
9/12/2021 11:00:00 PM 18.68 65.624 0.282 7.91 209 8.7
9/12/2021 11:15:00 PM 18.68 65.624 0.283 7.9 205 8.51
9/12/2021 11:30:00 PM 18.69 65.642 0.283 7.9 206.8 8.49
9/12/2021 11:45:00 PM 18.68 65.624 0.282 7.89 453.9 8.61
9/13/2021 12:00:00 AM 18.68 65.624 0.28 7.89 2962 8.63
9/13/2021 12:15:00 AM 18.67 65.606 0.278 7.89 52.2 8.62
9/13/2021 12:30:00 AM 18.65 65.57 0.279 7.88 25.55 8.57
9/13/2021 12:45:00 AM 18.64 65.552 0.278 7.87 20.53 8.62
9/13/2021 1:00:00 AM 18.62 65.516 0.278 7.87 48.75 8.56
9/13/2021 1:15:00 AM 18.6 65.48 0.278 7.87 144.4 8.57
9/13/2021 1:30:00 AM 18.57 65.426 0.28 7.86 27.57 8.52
9/13/2021 1:45:00 AM 18.56 65.408 0.281 7.86 456.8 8.55
9/13/2021 2:00:00 AM 18.54 65.372 0.283 7.85 29.88 8.5
9/13/2021 2:15:00 AM 18.51 65.318 0.283 7.84 551 8.51
9/13/2021 2:30:00 AM 18.49 65.282 0.283 7.85 835.3 8.5
9/13/2021 2:45:00 AM 18.47 65.246 0.283 7.84 25.09 8.48
9/13/2021 3:00:00 AM 18.44 65.192 0.282 7.84 69.12 8.48
9/13/2021 3:15:00 AM 18.4 65.12 0.281 7.83 483.9 8.47
9/13/2021 3:30:00 AM 18.37 65.066 0.278 7.82 23.66 8.5
9/13/2021 3:45:00 AM 18.34 65.012 0.279 7.82 20.85 8.5
9/13/2021 4:00:00 AM 18.31 64.958 0.279 7.81 38.12 8.47
9/13/2021 4:15:00 AM 18.28 64.904 0.279 7.81 22.53 8.45
9/13/2021 4:30:00 AM 18.25 64.85 0.28 7.81 36.03 8.44
9/13/2021 4:45:00 AM 18.22 64.796 0.281 7.8 190.7 8.46
9/13/2021 5:00:00 AM 18.2 64.76 0.28 7.79 279.5 8.45
9/13/2021 5:15:00 AM 18.17 64.706 0.283 7.8 48.95 8.46
9/13/2021 5:30:00 AM 18.14 64.652 0.283 7.79 138 8.44
9/13/2021 5:45:00 AM 18.11 64.598 0.282 7.79 591.9 8.39
9/13/2021 6:00:00 AM 18.08 64.544 0.282 7.78 88.72 8.48
9/13/2021 6:15:00 AM 18.05 64.49 0.28 7.79 128.6 8.51
9/13/2021 6:30:00 AM 18.02 64.436 0.28 7.78 102.7 8.46
9/13/2021 6:45:00 AM 17.99 64.382 0.279 7.78 22.76 8.46
9/13/2021 7:00:00 AM 17.97 64.346 0.279 7.78 26.14 8.52
9/13/2021 7:15:00 AM 17.94 64.292 0.277 7.77 186.5 8.54
9/13/2021 7:30:00 AM 17.93 64.274 0.278 7.78 58.27 8.55
9/13/2021 7:45:00 AM 17.92 64.256 0.279 7.77 28.84 8.53
9/13/2021 8:00:00 AM 17.91 64.238 0.28 7.78 63.24 8.51
9/13/2021 8:15:00 AM 17.91 64.238 0.281 7.77 54.3 8.59
9/13/2021 8:30:00 AM 17.91 64.238 0.281 7.78 58.52 8.59
9/13/2021 8:45:00 AM 17.92 64.256 0.281 7.78 108 8.62
9/13/2021 9:00:00 AM 17.95 64.31 0.28 7.79 364.2 8.69
9/13/2021 9:15:00 AM 18 64.4 0.278 7.79 396.4 8.71
9/13/2021 9:30:00 AM 18.06 64.508 0.278 7.8 131.9 8.78
9/13/2021 9:45:00 AM 18.1 64.58 0.277 7.79 117.9 8.84
9/13/2021 10:00:00 AM 18.13 64.634 0.276 7.81 227.5 8.82
9/13/2021 10:15:00 AM 18.16 64.688 0.276 7.82 306 8.96
9/13/2021 10:30:00 AM 18.22 64.796 0.276 7.83 124.3 9.01
9/13/2021 10:45:00 AM 18.29 64.922 0.279 7.85 20.21 9.07
9/13/2021 11:00:00 AM 18.38 65.084 0.281 7.85 51.6 9.15
9/13/2021 11:15:00 AM 18.47 65.246 0.282 7.87 26.74 9.19
9/13/2021 11:30:00 AM 18.56 65.408 0.282 7.87 375.4 9.22
9/13/2021 11:45:00 AM 18.63 65.534 0.281 7.88 23.85 9.29
9/13/2021 12:00:00 PM 18.72 65.696 0.281 7.9 21.9 9.38
9/13/2021 12:15:00 PM 18.81 65.858 0.281 7.91 26.08 9.4
9/13/2021 12:30:00 PM 18.87 65.966 0.28 7.93 27.77 9.45
9/13/2021 12:45:00 PM 18.9 66.02 0.279 7.95 28.1 9.51
9/13/2021 1:00:00 PM 18.94 66.092 0.279 7.96 669.5 9.51
9/13/2021 1:15:00 PM 18.98 66.164 0.279 7.97 109 9.54
9/13/2021 1:30:00 PM 19.03 66.254 0.28 7.98 125.8 9.5
9/13/2021 1:45:00 PM 19.05 66.29 0.281 7.98 105 9.62
9/13/2021 2:00:00 PM 19.09 66.362 0.281 7.98 485 9.52
9/13/2021 2:15:00 PM 19.12 66.416 0.282 7.99 45.56 9.6
9/13/2021 2:30:00 PM 19.12 66.416 0.282 8 203.6 9.56
9/13/2021 2:45:00 PM 19.12 66.416 0.282 8.01 23.37 9.57
9/13/2021 3:00:00 PM 19.17 66.506 0.282 8.01 28.76 9.63
9/13/2021 3:15:00 PM 19.22 66.596 0.283 8.02 36.29 9.65
9/13/2021 3:30:00 PM 19.26 66.668 0.283 8.02 66.67 9.65
9/13/2021 3:45:00 PM 19.3 66.74 0.283 8.03 34.95 9.71
9/13/2021 4:00:00 PM 19.36 66.848 0.283 8.04 35 9.72
9/13/2021 4:15:00 PM 19.43 66.974 0.283 8.06 50.1 9.7
9/13/2021 4:30:00 PM 19.48 67.064 0.283 8.06 144.4 9.65
9/13/2021 4:45:00 PM 19.52 67.136 0.284 8.06 176.8 9.62
9/13/2021 5:00:00 PM 19.56 67.208 0.285 8.07 63.93 9.64
9/13/2021 5:15:00 PM 19.58 67.244 0.286 8.08 99.86 9.7
9/13/2021 5:30:00 PM 19.6 67.28 0.283 8.07 299.1 9.65
9/13/2021 5:45:00 PM 19.61 67.298 0.284 8.08 26.15 9.65
9/13/2021 6:00:00 PM 19.62 67.316 0.285 8.09 26.11 9.64
9/13/2021 6:15:00 PM 19.62 67.316 0.285 8.09 267.5 9.62
9/13/2021 6:30:00 PM 19.62 67.316 0.285 8.08 417.2 9.57
9/13/2021 6:45:00 PM 19.6 67.28 0.285 8.09 884 9.52
9/13/2021 7:00:00 PM 19.58 67.244 0.284 8.09 360.8 9.46
9/13/2021 7:15:00 PM 19.55 67.19 0.285 8.08 62.72 9.35
9/13/2021 7:30:00 PM 19.52 67.136 0.286 8.07 204.2 9.35
9/13/2021 7:45:00 PM 19.5 67.1 0.285 8.06 41.96 9.25
9/13/2021 8:00:00 PM 19.48 67.064 0.29 8.05 21.77 9.18
9/13/2021 8:15:00 PM 19.47 67.046 0.291 8.04 17.13 9.11
9/13/2021 8:30:00 PM 19.44 66.992 0.293 8.02 412.2 9.04
9/13/2021 8:45:00 PM 19.43 66.974 0.293 8.01 38.62 8.96
9/13/2021 9:00:00 PM 19.41 66.938 0.292 8 109.5 8.92
9/13/2021 9:15:00 PM 19.39 66.902 0.291 7.99 47.06 8.9
9/13/2021 9:30:00 PM 19.37 66.866 0.29 7.98 40.54 8.74
9/13/2021 9:45:00 PM 19.36 66.848 0.289 7.97 483 8.78
9/13/2021 10:00:00 PM 19.34 66.812 0.289 7.96 44.83 8.74
9/13/2021 10:15:00 PM 19.33 66.794 0.288 7.96 82.92 8.65
9/13/2021 10:30:00 PM 19.31 66.758 0.29 7.94 364.5 8.65
9/13/2021 10:45:00 PM 19.3 66.74 0.292 7.94 269.8 8.57
9/13/2021 11:00:00 PM 19.29 66.722 0.294 7.93 110.5 8.58
9/13/2021 11:15:00 PM 19.28 66.704 0.296 7.92 19.52 8.55
9/13/2021 11:30:00 PM 19.27 66.686 0.297 7.91 27.65 8.5
9/13/2021 11:45:00 PM 19.26 66.668 0.297 7.9 109 8.49
9/14/2021 12:00:00 AM 19.24 66.632 0.297 7.89 800 8.43
9/14/2021 12:15:00 AM 19.23 66.614 0.295 7.88 420.4 8.43
9/14/2021 12:30:00 AM 19.21 66.578 0.294 7.88 19 8.42
9/14/2021 12:45:00 AM 19.19 66.542 0.293 7.87 1132 8.45
9/14/2021 1:00:00 AM 19.17 66.506 0.292 7.87 29.03 8.43
9/14/2021 1:15:00 AM 19.16 66.488 0.291 7.87 166.2 8.39
9/14/2021 1:30:00 AM 19.14 66.452 0.291 7.87 39.34 8.39
9/14/2021 1:45:00 AM 19.12 66.416 0.293 7.86 19.93 8.35
9/14/2021 2:00:00 AM 19.1 66.38 0.294 7.86 21.44 8.36
9/14/2021 2:15:00 AM 19.08 66.344 0.295 7.86 27 8.28
9/14/2021 2:30:00 AM 19.06 66.308 0.296 7.85 294.1 8.33
9/14/2021 2:45:00 AM 19.04 66.272 0.296 7.85 21.88 8.33
9/14/2021 3:00:00 AM 19.02 66.236 0.295 7.84 102.3 8.31
9/14/2021 3:15:00 AM 18.99 66.182 0.295 7.84 29.99 8.34
9/14/2021 3:30:00 AM 18.96 66.128 0.294 7.84 29.59 8.38
9/14/2021 3:45:00 AM 18.94 66.092 0.292 7.83 25.39 8.36
9/14/2021 4:00:00 AM 18.9 66.02 0.291 7.83 1437 8.37
9/14/2021 4:15:00 AM 18.87 65.966 0.291 7.82 705.2 8.34
9/14/2021 4:30:00 AM 18.84 65.912 0.292 7.82 1196 8.32
9/14/2021 4:45:00 AM 18.81 65.858 0.293 7.82 80.66 8.34
9/14/2021 5:00:00 AM 18.78 65.804 0.294 7.82 96.77 8.38
9/14/2021 5:15:00 AM 18.75 65.75 0.295 7.82 16.76 8.38
9/14/2021 5:30:00 AM 18.72 65.696 0.296 7.81 28.04 8.37
9/14/2021 5:45:00 AM 18.69 65.642 0.296 7.8 17.43 8.4
9/14/2021 6:00:00 AM 18.65 65.57 0.295 7.8 18.18 8.39
9/14/2021 6:15:00 AM 18.63 65.534 0.294 7.8 57.22 8.4
9/14/2021 6:30:00 AM 18.59 65.462 0.293 7.79 145.8 8.38
9/14/2021 6:45:00 AM 18.55 65.39 0.292 7.8 20.72 8.36
9/14/2021 7:00:00 AM 18.52 65.336 0.291 7.79 113.6 8.39
9/14/2021 7:15:00 AM 18.5 65.3 0.291 7.8 41.63 8.41
9/14/2021 7:30:00 AM 18.47 65.246 0.291 7.79 802.7 8.38
9/14/2021 7:45:00 AM 18.45 65.21 0.292 7.79 2596 8.43
9/14/2021 8:00:00 AM 18.44 65.192 0.294 7.79 132 8.45
9/14/2021 8:15:00 AM 18.44 65.192 0.295 7.79 3114 8.47
9/14/2021 8:30:00 AM 18.44 65.192 0.295 7.8 1502 8.51
9/14/2021 8:45:00 AM 18.44 65.192 0.295 7.79 44.59 8.55
9/14/2021 9:00:00 AM 18.45 65.21 0.294 7.81 54.16 8.63
9/14/2021 9:15:00 AM 18.5 65.3 0.293 7.81 36.45 8.65
9/14/2021 9:30:00 AM 18.55 65.39 0.292 7.81 389.1 8.73
9/14/2021 9:45:00 AM 18.56 65.408 0.291 7.82 136.4 8.77
9/14/2021 10:00:00 AM 18.6 65.48 0.289 7.83 1685 8.81
9/14/2021 10:15:00 AM 18.64 65.552 0.289 7.84 31.51 8.94
9/14/2021 10:30:00 AM 18.69 65.642 0.288 7.85 186.2 9.02
9/14/2021 10:45:00 AM 18.74 65.732 0.288 7.86 31.9 9.07
9/14/2021 11:00:00 AM 18.79 65.82201 0.289 7.86 32.95 9.16
9/14/2021 11:15:00 AM 18.84 65.912 0.289 7.88 30.82 9.21
9/14/2021 11:30:00 AM 18.91 66.038 0.29 7.9 47.64 9.28
9/14/2021 11:45:00 AM 18.98 66.164 0.29 7.91 32.56 9.36
9/14/2021 12:00:00 PM 19.05 66.29 0.29 7.92 3276 9.4
9/14/2021 12:15:00 PM 19.12 66.416 0.289 7.94 49.59 9.49
9/14/2021 12:30:00 PM 19.15 66.47 0.288 7.95 28.72 9.52
9/14/2021 12:45:00 PM 19.22 66.596 0.288 7.96 29.12 9.58
9/14/2021 1:00:00 PM 19.34 66.812 0.286 7.98 28.1 9.67
9/14/2021 1:15:00 PM 19.43 66.974 0.286 8 79.02 9.72
9/14/2021 1:30:00 PM 19.5 67.1 0.285 8.02 34.01 9.61
9/14/2021 1:45:00 PM 19.56 67.208 0.286 8.04 87.62 9.79
9/14/2021 2:00:00 PM 19.65 67.37 0.286 8.05 40.61 9.79
9/14/2021 2:15:00 PM 19.73 67.514 0.286 8.06 94.51 9.88
9/14/2021 2:30:00 PM 19.8 67.64 0.287 8.08 48.77 9.93
9/14/2021 2:45:00 PM 19.87 67.766 0.286 8.09 601.6 9.95
9/14/2021 3:00:00 PM 19.9 67.82 0.287 8.1 774.6 9.96
9/14/2021 3:15:00 PM 19.94 67.892 0.286 8.12 42.48 9.98
9/14/2021 3:30:00 PM 19.99 67.982 0.286 8.13 102.1 10.02
9/14/2021 3:45:00 PM 20.06 68.108 0.285 8.14 128.7 10.01
9/14/2021 4:00:00 PM 20.11 68.198 0.285 8.14 111.2 9.98
9/14/2021 4:15:00 PM 20.14 68.252 0.285 8.15 71.16 9.99
9/14/2021 4:30:00 PM 20.16 68.288 0.285 8.15 62.26 9.97
9/14/2021 4:45:00 PM 20.19 68.342 0.285 8.18 68.01 9.96
9/14/2021 5:00:00 PM 20.2 68.36 0.286 8.18 22.87 9.94
9/14/2021 5:15:00 PM 20.21 68.378 0.286 8.18 36.36 9.89
9/14/2021 5:30:00 PM 20.21 68.378 0.287 8.18 43.21 9.87
9/14/2021 5:45:00 PM 20.21 68.378 0.287 8.18 35.04 9.82
9/14/2021 6:00:00 PM 20.2 68.36 0.287 8.17 36.95 9.75
9/14/2021 6:15:00 PM 20.19 68.342 0.286 8.17 870.5 9.73
9/14/2021 6:30:00 PM 20.18 68.324 0.287 8.18 462.9 9.7
9/14/2021 6:45:00 PM 20.17 68.306 0.286 8.18 41.25 9.64
9/14/2021 7:00:00 PM 20.16 68.288 0.286 8.16 1061 9.52
9/14/2021 7:15:00 PM 20.15 68.27 0.286 8.16 59.07 9.48
9/14/2021 7:30:00 PM 20.14 68.252 0.286 8.15 43.9 9.38
9/14/2021 7:45:00 PM 20.11 68.198 0.288 8.14 50.02 9.33
9/14/2021 8:00:00 PM 20.1 68.18 0.29 8.13 185 9.22
9/14/2021 8:15:00 PM 20.07 68.126 0.292 8.11 231.6 9.12
9/14/2021 8:30:00 PM 20.05 68.09 0.294 8.09 139.1 9.07
9/14/2021 8:45:00 PM 20.04 68.07201 0.295 8.08 28.61 9
9/14/2021 9:00:00 PM 20.02 68.036 0.295 8.07 66.16 8.93
9/14/2021 9:15:00 PM 20 68 0.294 8.05 1083 8.84
9/14/2021 9:30:00 PM 19.99 67.982 0.293 8.04 668.6 8.79
9/14/2021 9:45:00 PM 19.97 67.946 0.292 8.03 201.3 8.71
9/14/2021 10:00:00 PM 19.96 67.92799 0.291 8.03 35.2 8.67
9/14/2021 10:15:00 PM 19.95 67.91 0.291 8.02 82 8.57
9/14/2021 10:30:00 PM 19.94 67.892 0.29 8 123.5 8.56
9/14/2021 10:45:00 PM 19.92 67.856 0.29 7.99 3300 8.37
9/14/2021 11:00:00 PM 19.91 67.838 0.292 7.99 162.2 8.46
9/14/2021 11:15:00 PM 19.89 67.802 0.294 7.97 883.6 8.43
9/14/2021 11:30:00 PM 19.87 67.766 0.295 7.96 292.4 8.41
9/14/2021 11:45:00 PM 19.85 67.73 0.296 7.95 138 8.38
9/15/2021 12:00:00 AM 19.83 67.694 0.296 7.95 327.5 8.28
9/15/2021 12:15:00 AM 19.81 67.658 0.295 7.94 38.34 8.3
9/15/2021 12:30:00 AM 19.79 67.622 0.294 7.93 436.8 8.28
9/15/2021 12:45:00 AM 19.76 67.568 0.293 7.93 489.6 8.18
9/15/2021 1:00:00 AM 19.74 67.532 0.292 7.93 74.98 8.21
9/15/2021 1:15:00 AM 19.72 67.496 0.292 7.92 19.54 8.26
9/15/2021 1:30:00 AM 19.69 67.442 0.292 7.91 21.46 8.24
9/15/2021 1:45:00 AM 19.66 67.388 0.292 7.91 23.78 8.25
9/15/2021 2:00:00 AM 19.63 67.334 0.294 7.9 25.75 8.24
9/15/2021 2:15:00 AM 19.61 67.298 0.295 7.89 44.45 8.2
9/15/2021 2:30:00 AM 19.59 67.262 0.296 7.89 23.42 8.22
9/15/2021 2:45:00 AM 19.55 67.19 0.296 7.89 41.78 8.19
9/15/2021 3:00:00 AM 19.54 67.172 0.296 7.88 1337 8.13
9/15/2021 3:15:00 AM 19.51 67.118 0.295 7.88 362 8.17
9/15/2021 3:30:00 AM 19.48 67.064 0.294 7.87 27.82 8.17
9/15/2021 3:45:00 AM 19.45 67.01 0.294 7.87 42.66 8.16
9/15/2021 4:00:00 AM 19.42 66.956 0.293 7.85 985.5 8.1
9/15/2021 4:15:00 AM 19.39 66.902 0.292 7.86 24.9 8.12
9/15/2021 4:30:00 AM 19.36 66.848 0.292 7.86 26.65 8.13
9/15/2021 4:45:00 AM 19.32 66.776 0.292 7.85 1143 8.12
9/15/2021 5:00:00 AM 19.29 66.722 0.293 7.85 80.61 8.16
9/15/2021 5:15:00 AM 19.25 66.65 0.295 7.85 1862 8.17
9/15/2021 5:30:00 AM 19.22 66.596 0.295 7.83 115.7 8.12
9/15/2021 5:45:00 AM 19.18 66.524 0.296 7.84 27.62 8.16
9/15/2021 6:00:00 AM 19.14 66.452 0.295 7.83 29.02 8.16
9/15/2021 6:15:00 AM 19.1 66.38 0.295 7.83 19.47 8.13
9/15/2021 6:30:00 AM 19.06 66.308 0.294 7.83 25.47 8.06
9/15/2021 6:45:00 AM 19.02 66.236 0.292 7.84 22.41 8.13
9/15/2021 7:00:00 AM 18.99 66.182 0.292 7.83 28.33 8.07
9/15/2021 7:15:00 AM 18.95 66.11 0.29 7.82 99.94 8.16
9/15/2021 7:30:00 AM 18.92 66.056 0.29 7.83 61.35 8.22
9/15/2021 7:45:00 AM 18.89 66.002 0.291 7.82 21.94 8.22
9/15/2021 8:00:00 AM 18.87 65.966 0.292 7.82 18.21 8.2
9/15/2021 8:15:00 AM 18.85 65.93 0.293 7.82 18.47 8.29
9/15/2021 8:30:00 AM 18.84 65.912 0.294 7.82 27.25 8.27
9/15/2021 8:45:00 AM 18.85 65.93 0.294 7.82 31.97 8.38
9/15/2021 9:00:00 AM 18.86 65.948 0.294 7.83 23.14 8.43
9/15/2021 9:15:00 AM 18.92 66.056 0.293 7.84 29.18 8.48
9/15/2021 9:30:00 AM 19 66.2 0.293 7.85 18.91 8.56
9/15/2021 9:45:00 AM 19.05 66.29 0.291 7.85 23.08 8.64
9/15/2021 10:00:00 AM 19.11 66.398 0.29 7.86 24.29 8.71
9/15/2021 10:15:00 AM 19.15 66.47 0.289 7.87 17.76 8.78
9/15/2021 10:30:00 AM 19.25 66.65 0.288 7.89 16.55 8.81
9/15/2021 10:45:00 AM 19.31 66.758 0.289 7.9 17.33 8.86
9/15/2021 11:00:00 AM 19.39 66.902 0.289 7.9 18.85 8.91
9/15/2021 11:15:00 AM 19.43 66.974 0.29 7.92 15.5 9.03
9/15/2021 11:30:00 AM 19.53 67.154 0.291 7.94 14.25 9.14
9/15/2021 11:45:00 AM 19.61 67.298 0.291 7.95 15.48 9.2
9/15/2021 12:00:00 PM 19.68 67.424 0.291 7.96 16.1 9.25
9/15/2021 12:15:00 PM 19.77 67.586 0.291 7.97 14.94 9.25
9/15/2021 12:30:00 PM 19.85 67.73 0.29 8 12.45 9.39
9/15/2021 12:45:00 PM 19.95 67.91 0.29 8 12.6 9.34
9/15/2021 1:00:00 PM 20.05 68.09 0.289 8.02 13.02 9.39
9/15/2021 1:15:00 PM 20.16 68.288 0.288 8.03 13.22 9.48
9/15/2021 1:30:00 PM 20.25 68.45 0.287 8.05 13.04 9.53
9/15/2021 1:45:00 PM 20.35 68.63 0.287 8.07 11.86 9.6
9/15/2021 2:00:00 PM 20.45 68.81 0.287 8.09 12.65 9.66
9/15/2021 2:15:00 PM 20.53 68.954 0.287 8.1 12.53 9.66
9/15/2021 2:30:00 PM 20.61 69.098 0.287 8.11 12.91 9.75
9/15/2021 2:45:00 PM 20.7 69.26 0.288 8.13 13.04 9.79
9/15/2021 3:00:00 PM 20.78 69.404 0.288 8.15 12.84 9.82
9/15/2021 3:15:00 PM 20.85 69.53 0.287 8.16 13.04 9.85
9/15/2021 3:30:00 PM 20.91 69.638 0.287 8.17 13.28 9.84
9/15/2021 3:45:00 PM 20.97 69.746 0.287 8.19 12.68 9.87
9/15/2021 4:00:00 PM 21.01 69.818 0.287 8.19 12.69 9.83
9/15/2021 4:15:00 PM 21.05 69.89 0.286 8.2 13.31 9.8
9/15/2021 4:30:00 PM 21.08 69.944 0.286 8.21 13.17 9.87
9/15/2021 4:45:00 PM 21.12 70.016 0.286 8.23 17.44 9.86
9/15/2021 5:00:00 PM 21.14 70.052 0.286 8.24 17.44 9.86
9/15/2021 5:15:00 PM 21.15 70.07 0.288 8.23 15.52 9.76
9/15/2021 5:30:00 PM 21.16 70.088 0.288 8.24 14.32 9.77
9/15/2021 5:45:00 PM 21.15 70.07 0.289 8.25 21.61 9.71
9/15/2021 6:00:00 PM 21.13 70.034 0.289 8.23 20.04 9.63
9/15/2021 6:15:00 PM 21.09 69.962 0.289 8.23 19.42 9.52
9/15/2021 6:30:00 PM 21.04 69.872 0.289 8.22 19.57 9.44
9/15/2021 6:45:00 PM 21 69.8 0.288 8.21 21.26 9.26
9/15/2021 7:00:00 PM 20.94 69.692 0.287 8.2 13.49 9.15
9/15/2021 7:15:00 PM 20.9 69.62 0.286 8.18 17.47 9
9/15/2021 7:30:00 PM 20.85 69.53 0.284 8.17 17.47 8.9
9/15/2021 7:45:00 PM 20.83 69.494 0.286 8.16 16.73 8.87
9/15/2021 8:00:00 PM 20.81 69.458 0.29 8.13 17.94 8.83
9/15/2021 8:15:00 PM 20.79 69.422 0.292 8.13 20.78 8.72
9/15/2021 8:30:00 PM 20.75 69.35 0.294 8.1 25.24 8.64
9/15/2021 8:45:00 PM 20.73 69.314 0.295 8.08 22 8.56
9/15/2021 9:00:00 PM 20.69 69.242 0.294 8.07 21.17 8.5
9/15/2021 9:15:00 PM 20.67 69.206 0.294 8.05 21.2 8.38
9/15/2021 9:30:00 PM 20.64 69.152 0.292 8.04 19.89 8.38
9/15/2021 9:45:00 PM 20.61 69.098 0.291 8.03 27.5 8.29
9/15/2021 10:00:00 PM 20.6 69.08 0.289 8.02 31.43 8.27
9/15/2021 10:15:00 PM 20.58 69.044 0.287 8.02 25.03 8.22
9/15/2021 10:30:00 PM 20.57 69.026 0.288 8.01 50.12 8.16
9/15/2021 10:45:00 PM 20.56 69.008 0.289 8 41.2 8.18
9/15/2021 11:00:00 PM 20.56 69.008 0.29 8 30.54 8.13
9/15/2021 11:15:00 PM 20.55 68.99 0.291 7.99 44.41 8.1
9/15/2021 11:30:00 PM 20.55 68.99 0.291 7.99 200.9 8.08
9/15/2021 11:45:00 PM 20.54 68.972 0.29 7.98 1242 8.07
9/16/2021 12:00:00 AM 20.52 68.936 0.289 7.97 20.65 7.99
9/16/2021 12:15:00 AM 20.51 68.918 0.287 7.96 28.25 7.99
9/16/2021 12:30:00 AM 20.49 68.882 0.286 7.95 20.14 7.98
9/16/2021 12:45:00 AM 20.46 68.828 0.285 7.95 24.81 7.93
9/16/2021 1:00:00 AM 20.44 68.792 0.284 7.94 24.24 7.95
9/16/2021 1:15:00 AM 20.4 68.72 0.285 7.93 21.67 7.93
9/16/2021 1:30:00 AM 20.37 68.666 0.284 7.91 68.26 7.89
9/16/2021 1:45:00 AM 20.33 68.594 0.284 7.9 46.51 7.89
9/16/2021 2:00:00 AM 20.3 68.54 0.284 7.89 96.1 7.87
9/16/2021 2:15:00 AM 20.25 68.45 0.284 7.88 28.26 7.84
9/16/2021 2:30:00 AM 20.22 68.396 0.283 7.88 14.55 7.81
9/16/2021 2:45:00 AM 20.18 68.324 0.282 7.87 15.14 7.85
9/16/2021 3:00:00 AM 20.15 68.27 0.282 7.86 19.9 7.84
9/16/2021 3:15:00 AM 20.11 68.198 0.281 7.86 22.39 7.82
9/16/2021 3:30:00 AM 20.07 68.126 0.281 7.84 20.1 7.83
9/16/2021 3:45:00 AM 20.04 68.07201 0.28 7.84 35.11 7.65
9/16/2021 4:00:00 AM 20.01 68.018 0.281 7.82 23.03 7.76
9/16/2021 4:15:00 AM 19.98 67.964 0.281 7.82 27.5 7.76
9/16/2021 4:30:00 AM 19.95 67.91 0.281 7.82 46.24 7.79
9/16/2021 4:45:00 AM 19.92 67.856 0.281 7.82 28.07 7.75
9/16/2021 5:00:00 AM 19.88 67.784 0.28 7.82 21.65 7.8
9/16/2021 5:15:00 AM 19.85 67.73 0.279 7.81 22.96 7.81
9/16/2021 5:30:00 AM 19.82 67.676 0.279 7.81 27.34 7.83
9/16/2021 5:45:00 AM 19.79 67.622 0.28 7.82 29.34 7.83
9/16/2021 6:00:00 AM 19.75 67.55 0.281 7.81 29.02 7.87
9/16/2021 6:15:00 AM 19.72 67.496 0.283 7.81 39.92 7.81
9/16/2021 6:30:00 AM 19.68 67.424 0.285 7.8 23.94 7.9
9/16/2021 6:45:00 AM 19.65 67.37 0.286 7.8 32.41 7.87
9/16/2021 7:00:00 AM 19.61 67.298 0.284 7.8 25.63 7.88
9/16/2021 7:15:00 AM 19.58 67.244 0.282 7.81 37.66 7.93
9/16/2021 7:30:00 AM 19.54 67.172 0.277 7.81 36.76 7.93
9/16/2021 7:45:00 AM 19.51 67.118 0.274 7.81 4974 7.97
9/16/2021 8:00:00 AM 19.48 67.064 0.271 7.81 44.67 8.03
9/16/2021 8:15:00 AM 19.46 67.028 0.269 7.81 39.68 8.03
9/16/2021 8:30:00 AM 19.45 67.01 0.267 7.82 38.2 8.06
9/16/2021 8:45:00 AM 19.44 66.992 0.266 7.82 34.64 8.08
9/16/2021 9:00:00 AM 19.44 66.992 0.266 7.82 27.73 8.14
9/16/2021 9:15:00 AM 19.48 67.064 0.266 7.82 29.82 8.17
9/16/2021 9:30:00 AM 19.49 67.082 0.267 7.83 35.9 8.18
9/16/2021 9:45:00 AM 19.52 67.136 0.267 7.83 32.57 8.33
9/16/2021 10:00:00 AM 19.56 67.208 0.267 7.84 26.98 8.35
9/16/2021 10:15:00 AM 19.58 67.244 0.266 7.84 45.83 8.4
9/16/2021 10:30:00 AM 19.6 67.28 0.265 7.85 31.03 8.51
9/16/2021 10:45:00 AM 19.61 67.298 0.264 7.86 26.87 8.55
9/16/2021 11:00:00 AM 19.63 67.334 0.262 7.86 60.2 8.61
9/16/2021 11:15:00 AM 19.66 67.388 0.261 7.88 30.81 8.65
9/16/2021 11:30:00 AM 19.7 67.46 0.259 7.88 31.98 8.73
9/16/2021 11:45:00 AM 19.74 67.532 0.258 7.89 35.51 8.78
9/16/2021 12:00:00 PM 19.78 67.604 0.256 7.9 3702 8.82
9/16/2021 12:15:00 PM 19.85 67.73 0.255 7.9 4974 8.86
9/16/2021 12:30:00 PM 19.9 67.82 0.254 7.91 4052 8.89
9/16/2021 12:45:00 PM 19.96 67.92799 0.254 7.91 34.01 8.89
9/16/2021 1:00:00 PM 20 68 0.253 7.92 36.85 8.94
9/16/2021 1:15:00 PM 20.05 68.09 0.252 7.91 38.83 8.95
9/16/2021 1:30:00 PM 20.07 68.126 0.251 7.92 34.15 8.95
9/16/2021 1:45:00 PM 20.09 68.162 0.25 7.92 45.24 9.02
9/16/2021 2:00:00 PM 20.12 68.216 0.248 7.93 39.41 9.04
9/16/2021 2:15:00 PM 20.18 68.324 0.247 7.93 38.85 9.1
9/16/2021 2:30:00 PM 20.24 68.432 0.246 7.94 43.61 9.12
9/16/2021 2:45:00 PM 20.3 68.54 0.245 7.95 41.6 9.14
9/16/2021 3:00:00 PM 20.37 68.666 0.244 7.95 42.13 9.19
9/16/2021 3:15:00 PM 20.39 68.702 0.244 7.96 39.22 9.17
9/16/2021 3:30:00 PM 20.4 68.72 0.244 7.97 38.93 9.16
9/16/2021 3:45:00 PM 20.41 68.738 0.244 7.96 44.33 9.07
9/16/2021 4:00:00 PM 20.42 68.756 0.244 7.96 48.83 9.12
9/16/2021 4:15:00 PM 20.44 68.792 0.244 7.98 42.55 9.18
9/16/2021 4:30:00 PM 20.46 68.828 0.243 7.97 64.29 9.12
9/16/2021 4:45:00 PM 20.46 68.828 0.242 7.98 149.1 9.14
9/16/2021 5:00:00 PM 20.47 68.846 0.241 7.98 498 9.13
9/16/2021 5:15:00 PM 20.46 68.828 0.239 7.98 31.72 9.07
9/16/2021 5:30:00 PM 20.44 68.792 0.238 7.96 41.65 9.02
9/16/2021 5:45:00 PM 20.41 68.738 0.237 7.96 35.19 9.01
9/16/2021 6:00:00 PM 20.39 68.702 0.236 7.97 49.72 8.97
9/16/2021 6:15:00 PM 20.37 68.666 0.235 7.96 39.8 8.93
9/16/2021 6:30:00 PM 20.36 68.648 0.235 7.95 41.32 8.86
9/16/2021 6:45:00 PM 20.36 68.648 0.237 7.93 38.16 8.84
9/16/2021 7:00:00 PM 20.36 68.648 0.239 7.93 22.85 8.8
9/16/2021 7:15:00 PM 20.35 68.63 0.241 7.92 25.79 8.76
9/16/2021 7:30:00 PM 20.35 68.63 0.241 7.9 29.4 8.7
9/16/2021 7:45:00 PM 20.34 68.612 0.241 7.9 34.02 8.6
9/16/2021 8:00:00 PM 20.33 68.594 0.24 7.89 33.29 8.56
9/16/2021 8:15:00 PM 20.32 68.576 0.239 7.88 29.04 8.53
9/16/2021 8:30:00 PM 20.3 68.54 0.239 7.87 32.09 8.49
9/16/2021 8:45:00 PM 20.28 68.504 0.239 7.87 31.25 8.43
9/16/2021 9:00:00 PM 20.26 68.468 0.238 7.87 32.54 8.42
9/16/2021 9:15:00 PM 20.24 68.432 0.239 7.86 34.47 8.42
9/16/2021 9:30:00 PM 20.23 68.414 0.239 7.86 35.13 8.33
9/16/2021 9:45:00 PM 20.21 68.378 0.242 7.85 30.54 8.32
9/16/2021 10:00:00 PM 20.19 68.342 0.244 7.85 28.48 8.31
9/16/2021 10:15:00 PM 20.17 68.306 0.247 7.84 35.65 8.31
9/16/2021 10:30:00 PM 20.16 68.288 0.248 7.83 36.46 8.31
9/16/2021 10:45:00 PM 20.14 68.252 0.249 7.83 32.99 8.25
9/16/2021 11:00:00 PM 20.12 68.216 0.25 7.83 31.81 8.24
9/16/2021 11:15:00 PM 20.1 68.18 0.249 7.83 35.38 8.22
9/16/2021 11:30:00 PM 20.08 68.144 0.249 7.82 34.31 8.21
9/16/2021 11:45:00 PM 20.05 68.09 0.248 7.83 33.03 8.21
9/17/2021 12:00:00 AM 20.02 68.036 0.248 7.82 31.71 8.2
9/17/2021 12:15:00 AM 20 68 0.248 7.82 34.96 8.2
9/17/2021 12:30:00 AM 19.97 67.946 0.248 7.82 36.17 8.2
9/17/2021 12:45:00 AM 19.94 67.892 0.249 7.82 34.82 8.19
9/17/2021 1:00:00 AM 19.91 67.838 0.251 7.81 32.77 8.19
9/17/2021 1:15:00 AM 19.89 67.802 0.253 7.81 35.72 8.12
9/17/2021 1:30:00 AM 19.86 67.748 0.255 7.81 37.94 8.18
9/17/2021 1:45:00 AM 19.84 67.712 0.255 7.8 36.31 8.17
9/17/2021 2:00:00 AM 19.81 67.658 0.256 7.81 33.1 8.13
9/17/2021 2:15:00 AM 19.79 67.622 0.255 7.81 41.26 8.13
9/17/2021 2:30:00 AM 19.76 67.568 0.254 7.79 37.5 8.13
9/17/2021 2:45:00 AM 19.74 67.532 0.253 7.8 44.7 8.12
9/17/2021 3:00:00 AM 19.71 67.478 0.252 7.8 33.59 8.11
9/17/2021 3:15:00 AM 19.68 67.424 0.251 7.8 28.86 8.11
9/17/2021 3:30:00 AM 19.66 67.388 0.251 7.8 31.25 8.12
9/17/2021 3:45:00 AM 19.63 67.334 0.251 7.79 30.11 8.11
9/17/2021 4:00:00 AM 19.6 67.28 0.252 7.78 30.77 8.14
9/17/2021 4:15:00 AM 19.58 67.244 0.254 7.79 28.85 8.08
9/17/2021 4:30:00 AM 19.55 67.19 0.255 7.78 26.45 8.1
9/17/2021 4:45:00 AM 19.53 67.154 0.256 7.78 29.39 8.08
9/17/2021 5:00:00 AM 19.51 67.118 0.257 7.78 25.78 8
9/17/2021 5:15:00 AM 19.48 67.064 0.257 7.77 30.95 8.06
9/17/2021 5:30:00 AM 19.46 67.028 0.256 7.77 25.53 8.11
9/17/2021 5:45:00 AM 19.43 66.974 0.256 7.79 23.09 8.13
9/17/2021 6:00:00 AM 19.4 66.92 0.255 7.78 21.18 8.06
9/17/2021 6:15:00 AM 19.38 66.884 0.254 7.79 14.15 8.08
9/17/2021 6:30:00 AM 19.36 66.848 0.254 7.79 14.26 8.14
9/17/2021 6:45:00 AM 19.34 66.812 0.254 7.79 14.52 8.15
9/17/2021 7:00:00 AM 19.32 66.776 0.254 7.78 14.66 8.14
9/17/2021 7:15:00 AM 19.3 66.74 0.256 7.78 12.18 8.17
9/17/2021 7:30:00 AM 19.29 66.722 0.258 7.79 13.56 8.17
9/17/2021 7:45:00 AM 19.27 66.686 0.26 7.78 15.23 8.19
9/17/2021 8:00:00 AM 19.27 66.686 0.261 7.79 15.9 8.15
9/17/2021 8:15:00 AM 19.27 66.686 0.262 7.79 14 8.21
9/17/2021 8:30:00 AM 19.27 66.686 0.261 7.8 14.82 8.22
9/17/2021 8:45:00 AM 19.27 66.686 0.261 7.79 19.31 8.24
9/17/2021 9:00:00 AM 19.26 66.668 0.26 7.8 15.75 8.32
9/17/2021 9:15:00 AM 19.26 66.668 0.259 7.8 15.17 8.3
9/17/2021 9:30:00 AM 19.26 66.668 0.259 7.81 12.95 8.35
9/17/2021 9:45:00 AM 19.27 66.686 0.258 7.81 22.89 8.38
9/17/2021 10:00:00 AM 19.29 66.722 0.258 7.82 13.51 8.48
9/17/2021 10:15:00 AM 19.31 66.758 0.258 7.83 13.89 8.51
9/17/2021 10:30:00 AM 19.33 66.794 0.26 7.83 12.07 8.48
9/17/2021 10:45:00 AM 19.35 66.83 0.261 7.84 22.44 8.66
9/17/2021 11:00:00 AM 19.38 66.884 0.262 7.85 13.51 8.69
9/17/2021 11:15:00 AM 19.39 66.902 0.262 7.86 13.79 8.8
9/17/2021 11:30:00 AM 19.41 66.938 0.263 7.88 31.89 8.86
9/17/2021 11:45:00 AM 19.44 66.992 0.262 7.88 197.1 8.93
9/17/2021 12:00:00 PM 19.46 67.028 0.262 7.89 165.7 8.88
9/17/2021 12:15:00 PM 19.51 67.118 0.262 7.9 688.8 8.96
9/17/2021 12:30:00 PM 19.55 67.19 0.261 7.92 11.72 9.04
9/17/2021 12:45:00 PM 19.58 67.244 0.261 7.92 14.31 9.14
9/17/2021 1:00:00 PM 19.62 67.316 0.261 7.96 12.05 9.23
9/17/2021 1:15:00 PM 19.65 67.37 0.261 7.97 12.66 9.32
9/17/2021 1:30:00 PM 19.69 67.442 0.261 7.98 12.7 9.41
9/17/2021 1:45:00 PM 19.72 67.496 0.262 8 11.69 9.41
9/17/2021 2:00:00 PM 19.79 67.622 0.263 8 154 9.49
9/17/2021 2:15:00 PM 19.83 67.694 0.263 8.03 14.61 9.57
9/17/2021 2:30:00 PM 19.89 67.802 0.263 8.04 13.24 9.62
9/17/2021 2:45:00 PM 19.92 67.856 0.263 8.06 13.43 9.62
9/17/2021 3:00:00 PM 19.94 67.892 0.263 8.08 12.64 9.65
9/17/2021 3:15:00 PM 19.96 67.92799 0.262 8.08 12.04 9.62
9/17/2021 3:30:00 PM 19.96 67.92799 0.262 8.09 12.49 9.57
9/17/2021 3:45:00 PM 19.96 67.92799 0.262 8.1 14.25 9.62
9/17/2021 4:00:00 PM 19.96 67.92799 0.262 8.1 12.59 9.65
9/17/2021 4:15:00 PM 19.96 67.92799 0.262 8.11 12.08 9.63
9/17/2021 4:30:00 PM 19.97 67.946 0.263 8.11 12.09 9.61
9/17/2021 4:45:00 PM 20 68 0.263 8.12 13.01 9.59
9/17/2021 5:00:00 PM 20.02 68.036 0.264 8.12 13.2 9.61
9/17/2021 5:15:00 PM 20.03 68.054 0.265 8.13 12.81 9.6
9/17/2021 5:30:00 PM 20.05 68.09 0.264 8.13 12.04 9.59
9/17/2021 5:45:00 PM 20.06 68.108 0.265 8.12 11.19 9.45
9/17/2021 6:00:00 PM 20.05 68.09 0.266 8.12 13.61 9.42
9/17/2021 6:15:00 PM 20.01 68.018 0.265 8.11 11.68 9.39
9/17/2021 6:30:00 PM 19.97 67.946 0.265 8.09 12.84 9.29
9/17/2021 6:45:00 PM 19.92 67.856 0.265 8.09 12.12 9.24
9/17/2021 7:00:00 PM 19.9 67.82 0.265 8.09 12.97 9.24
9/17/2021 7:15:00 PM 19.86 67.748 0.266 8.08 13.52 9.16
9/17/2021 7:30:00 PM 19.85 67.73 0.267 8.07 9.12 9.1
9/17/2021 7:45:00 PM 19.82 67.676 0.269 8.05 8.87 9.03
9/17/2021 8:00:00 PM 19.81 67.658 0.271 8.05 10.68 8.95
9/17/2021 8:15:00 PM 19.79 67.622 0.274 8.03 7.82 8.88
9/17/2021 8:30:00 PM 19.78 67.604 0.275 8.03 10.74 8.75
9/17/2021 8:45:00 PM 19.75 67.55 0.275 8.01 9.78 8.85
9/17/2021 9:00:00 PM 19.72 67.496 0.275 8 8.66 8.81
9/17/2021 9:15:00 PM 19.68 67.424 0.274 8 8.34 8.74
9/17/2021 9:30:00 PM 19.63 67.334 0.274 7.98 8.44 8.66
9/17/2021 9:45:00 PM 19.59 67.262 0.273 7.96 7.6 8.52
9/17/2021 10:00:00 PM 19.54 67.172 0.272 7.95 10.28 8.59
9/17/2021 10:15:00 PM 19.5 67.1 0.272 7.94 9.64 8.58
9/17/2021 10:30:00 PM 19.46 67.028 0.273 7.93 8.1 8.55
9/17/2021 10:45:00 PM 19.42 66.956 0.275 7.93 8.23 8.52
9/17/2021 11:00:00 PM 19.39 66.902 0.277 7.92 7.4 8.46
9/17/2021 11:15:00 PM 19.36 66.848 0.278 7.91 10.18 8.46
9/17/2021 11:30:00 PM 19.33 66.794 0.279 7.9 7.02 8.43
9/17/2021 11:45:00 PM 19.29 66.722 0.279 7.89 7.97 8.41
9/18/2021 12:00:00 AM 19.27 66.686 0.279 7.88 9.29 8.39
9/18/2021 12:15:00 AM 19.24 66.632 0.278 7.88 7.08 8.43
9/18/2021 12:30:00 AM 19.2 66.56 0.277 7.88 8 8.41
9/18/2021 12:45:00 AM 19.18 66.524 0.276 7.88 6.8 8.4
9/18/2021 1:00:00 AM 19.15 66.47 0.276 7.87 8 8.35
9/18/2021 1:15:00 AM 19.13 66.434 0.275 7.87 9.29 8.35
9/18/2021 1:30:00 AM 19.11 66.398 0.276 7.87 10.88 8.35
9/18/2021 1:45:00 AM 19.08 66.344 0.278 7.86 8.7 8.34
9/18/2021 2:00:00 AM 19.06 66.308 0.28 7.86 10.13 8.35
9/18/2021 2:15:00 AM 19.04 66.272 0.282 7.85 10.1 8.29
9/18/2021 2:30:00 AM 19.03 66.254 0.282 7.85 9.43 8.22
9/18/2021 2:45:00 AM 19.01 66.218 0.283 7.84 8.09 8.27
9/18/2021 3:00:00 AM 18.98 66.164 0.282 7.84 9.25 8.29
9/18/2021 3:15:00 AM 18.95 66.11 0.282 7.84 9.36 8.31
9/18/2021 3:30:00 AM 18.92 66.056 0.281 7.84 7.25 8.35
9/18/2021 3:45:00 AM 18.89 66.002 0.28 7.83 7.35 8.33
9/18/2021 4:00:00 AM 18.86 65.948 0.279 7.83 7.97 8.35
9/18/2021 4:15:00 AM 18.83 65.894 0.279 7.83 10.98 8.26
9/18/2021 4:30:00 AM 18.81 65.858 0.279 7.82 8.9 8.31
9/18/2021 4:45:00 AM 18.79 65.82201 0.28 7.83 7.16 8.24
9/18/2021 5:00:00 AM 18.77 65.786 0.282 7.82 8.31 8.34
9/18/2021 5:15:00 AM 18.75 65.75 0.283 7.82 9.27 8.35
9/18/2021 5:30:00 AM 18.73 65.714 0.284 7.82 41.22 8.23
9/18/2021 5:45:00 AM 18.71 65.67799 0.284 7.81 11.52 8.34
9/18/2021 6:00:00 AM 18.69 65.642 0.284 7.82 8.24 8.26
9/18/2021 6:15:00 AM 18.67 65.606 0.283 7.81 9.25 8.31
9/18/2021 6:30:00 AM 18.65 65.57 0.282 7.81 10.03 8.33
9/18/2021 6:45:00 AM 18.63 65.534 0.282 7.81 10.69 8.34
9/18/2021 7:00:00 AM 18.62 65.516 0.281 7.8 7.02 8.31
9/18/2021 7:15:00 AM 18.6 65.48 0.281 7.81 10.2 8.35
9/18/2021 7:30:00 AM 18.59 65.462 0.282 7.8 7.47 8.34
9/18/2021 7:45:00 AM 18.59 65.462 0.282 7.81 7.39 8.39
9/18/2021 8:00:00 AM 18.58 65.444 0.284 7.8 9.1 8.39
9/18/2021 8:15:00 AM 18.57 65.426 0.285 7.8 8.21 8.38
9/18/2021 8:30:00 AM 18.57 65.426 0.286 7.8 8.78 8.42
9/18/2021 8:45:00 AM 18.58 65.444 0.286 7.81 7.43 8.43
9/18/2021 9:00:00 AM 18.6 65.48 0.286 7.81 8.31 8.54
9/18/2021 9:15:00 AM 18.65 65.57 0.286 7.82 8.96 8.59
9/18/2021 9:30:00 AM 18.7 65.66 0.285 7.83 7.56 8.65
9/18/2021 9:45:00 AM 18.73 65.714 0.284 7.84 8.57 8.68
9/18/2021 10:00:00 AM 18.76 65.768 0.284 7.84 9.84 8.83
9/18/2021 10:15:00 AM 18.81 65.858 0.283 7.87 7.12 8.95
9/18/2021 10:30:00 AM 18.87 65.966 0.283 7.88 7.91 9.03
9/18/2021 10:45:00 AM 18.9 66.02 0.284 7.9 6.61 9.1
9/18/2021 11:00:00 AM 18.92 66.056 0.285 7.91 7.53 9.19
9/18/2021 11:15:00 AM 19 66.2 0.286 7.92 7.65 9.31
9/18/2021 11:30:00 AM 19.08 66.344 0.287 7.94 6.93 9.38
9/18/2021 11:45:00 AM 19.15 66.47 0.287 7.97 6.39 9.48
9/18/2021 12:00:00 PM 19.23 66.614 0.286 7.99 7.12 9.54
9/18/2021 12:15:00 PM 19.28 66.704 0.286 8.01 6.61 9.57
9/18/2021 12:30:00 PM 19.33 66.794 0.285 8.02 7.21 9.67
9/18/2021 12:45:00 PM 19.38 66.884 0.285 8.05 6.54 9.71
9/18/2021 1:00:00 PM 19.48 67.064 0.284 8.07 6.22 9.82
9/18/2021 1:15:00 PM 19.53 67.154 0.285 8.07 6.63 9.82
9/18/2021 1:30:00 PM 19.59 67.262 0.284 8.09 6.21 9.89
9/18/2021 1:45:00 PM 19.65 67.37 0.285 8.1 8.01 9.92
9/18/2021 2:00:00 PM 19.74 67.532 0.286 8.11 79.82 9.94
9/18/2021 2:15:00 PM 19.82 67.676 0.286 8.14 6.48 10.01
9/18/2021 2:30:00 PM 19.9 67.82 0.287 8.14 7.45 9.97
9/18/2021 2:45:00 PM 19.97 67.946 0.287 8.18 7.36 10.1
9/18/2021 3:00:00 PM 20.03 68.054 0.287 8.19 6.86 10.14
9/18/2021 3:15:00 PM 20.06 68.108 0.287 8.2 6.54 10.1
9/18/2021 3:30:00 PM 20.05 68.09 0.286 8.2 7.3 10.1
9/18/2021 3:45:00 PM 20.08 68.144 0.286 8.22 7.59 10.09
9/18/2021 4:00:00 PM 20.11 68.198 0.286 8.22 6.83 10.06
9/18/2021 4:15:00 PM 20.16 68.288 0.286 8.22 7.18 10.06
9/18/2021 4:30:00 PM 20.21 68.378 0.286 8.25 7.52 10.03
9/18/2021 4:45:00 PM 20.25 68.45 0.287 8.25 9.1 10.03
9/18/2021 5:00:00 PM 20.31 68.558 0.287 8.26 6.63 10.03
9/18/2021 5:15:00 PM 20.33 68.594 0.288 8.26 7.15 10.01
9/18/2021 5:30:00 PM 20.35 68.63 0.288 8.26 10.64 9.93
9/18/2021 5:45:00 PM 20.35 68.63 0.289 8.27 7.7 9.85
9/18/2021 6:00:00 PM 20.34 68.612 0.289 8.25 6.74 9.75
9/18/2021 6:15:00 PM 20.33 68.594 0.289 8.25 6.74 9.73
9/18/2021 6:30:00 PM 20.3 68.54 0.288 8.24 7.02 9.66
9/18/2021 6:45:00 PM 20.27 68.486 0.288 8.23 7.24 9.48
9/18/2021 7:00:00 PM 20.24 68.432 0.288 8.22 7.51 9.4
9/18/2021 7:15:00 PM 20.21 68.378 0.288 8.21 8.33 9.3
9/18/2021 7:30:00 PM 20.18 68.324 0.288 8.19 7.22 9.21
9/18/2021 7:45:00 PM 20.16 68.288 0.289 8.18 21.37 9.22
9/18/2021 8:00:00 PM 20.14 68.252 0.291 8.17 8.27 9.14
9/18/2021 8:15:00 PM 20.11 68.198 0.292 8.15 7.57 9.06
9/18/2021 8:30:00 PM 20.09 68.162 0.293 8.14 9.86 8.94
9/18/2021 8:45:00 PM 20.07 68.126 0.294 8.12 8.9 8.9
9/18/2021 9:00:00 PM 20.04 68.07201 0.294 8.11 6.86 8.84
9/18/2021 9:15:00 PM 20.03 68.054 0.293 8.09 7.85 8.79
9/18/2021 9:30:00 PM 20.01 68.018 0.293 8.08 7.11 8.71
9/18/2021 9:45:00 PM 19.99 67.982 0.292 8.06 7.96 8.65
9/18/2021 10:00:00 PM 19.98 67.964 0.291 8.05 7.36 8.56
9/18/2021 10:15:00 PM 19.97 67.946 0.291 8.04 6.3 8.52
9/18/2021 10:30:00 PM 19.97 67.946 0.29 8.02 9.5 8.49
9/18/2021 10:45:00 PM 19.96 67.92799 0.292 8.02 13.21 8.37
9/18/2021 11:00:00 PM 19.96 67.92799 0.293 8 7.09 8.39
9/18/2021 11:15:00 PM 19.95 67.91 0.295 7.99 8.26 8.28
9/18/2021 11:30:00 PM 19.95 67.91 0.297 7.99 9.28 8.33
9/18/2021 11:45:00 PM 19.94 67.892 0.297 7.98 10.26 8.31
9/19/2021 12:00:00 AM 19.93 67.874 0.297 7.97 10.61 8.27
9/19/2021 12:15:00 AM 19.91 67.838 0.297 7.96 7.96 8.27
9/19/2021 12:30:00 AM 19.9 67.82 0.296 7.96 10.29 8.25
9/19/2021 12:45:00 AM 19.88 67.784 0.295 7.95 9.01 8.24
9/19/2021 1:00:00 AM 19.85 67.73 0.294 7.95 10.47 8.21
9/19/2021 1:15:00 AM 19.82 67.676 0.293 7.92 9.71 8.19
9/19/2021 1:30:00 AM 19.8 67.64 0.293 7.92 9.61 8.16
9/19/2021 1:45:00 AM 19.76 67.568 0.293 7.92 8.09 8.15
9/19/2021 2:00:00 AM 19.73 67.514 0.295 7.92 6.9 8.1
9/19/2021 2:15:00 AM 19.69 67.442 0.296 7.92 8.2 8.19
9/19/2021 2:30:00 AM 19.65 67.37 0.297 7.91 6.72 8.18
9/19/2021 2:45:00 AM 19.62 67.316 0.298 7.9 5.54 8.15
9/19/2021 3:00:00 AM 19.57 67.226 0.298 7.89 6.84 8.2
9/19/2021 3:15:00 AM 19.53 67.154 0.297 7.89 6.09 8.2
9/19/2021 3:30:00 AM 19.49 67.082 0.297 7.87 5.72 8.16
9/19/2021 3:45:00 AM 19.45 67.01 0.295 7.88 6.68 8.18
9/19/2021 4:00:00 AM 19.4 66.92 0.294 7.87 8.3 8.19
9/19/2021 4:15:00 AM 19.36 66.848 0.294 7.87 6.75 8.19
9/19/2021 4:30:00 AM 19.31 66.758 0.293 7.87 7.23 8.19
9/19/2021 4:45:00 AM 19.26 66.668 0.293 7.86 6.76 8.19
9/19/2021 5:00:00 AM 19.21 66.578 0.294 7.86 6.98 8.18
9/19/2021 5:15:00 AM 19.17 66.506 0.295 7.85 7.64 8.13
9/19/2021 5:30:00 AM 19.12 66.416 0.295 7.86 8.06 8.2
9/19/2021 5:45:00 AM 19.07 66.326 0.296 7.85 6.36 8.21
9/19/2021 6:00:00 AM 19.03 66.254 0.295 7.85 6.78 8.23
9/19/2021 6:15:00 AM 18.98 66.164 0.294 7.84 6.88 8.13
9/19/2021 6:30:00 AM 18.92 66.056 0.294 7.83 5.9 8.21
9/19/2021 6:45:00 AM 18.87 65.966 0.294 7.84 9.98 8.21
9/19/2021 7:00:00 AM 18.81 65.858 0.292 7.84 5.58 8.22
9/19/2021 7:15:00 AM 18.76 65.768 0.291 7.84 7.2 8.28
9/19/2021 7:30:00 AM 18.71 65.67799 0.29 7.84 6.48 8.31
9/19/2021 7:45:00 AM 18.65 65.57 0.291 7.84 7.21 8.34
9/19/2021 8:00:00 AM 18.62 65.516 0.291 7.85 9.58 8.32
9/19/2021 8:15:00 AM 18.58 65.444 0.293 7.84 7.43 8.36
9/19/2021 8:30:00 AM 18.57 65.426 0.293 7.84 34.32 8.42
9/19/2021 8:45:00 AM 18.56 65.408 0.294 7.85 5.9 8.43
9/19/2021 9:00:00 AM 18.57 65.426 0.294 7.86 5.58 8.51
9/19/2021 9:15:00 AM 18.65 65.57 0.294 7.88 5.63 8.61
9/19/2021 9:30:00 AM 18.7 65.66 0.293 7.88 5.94 8.7
9/19/2021 9:45:00 AM 18.73 65.714 0.293 7.9 9.95 8.74
9/19/2021 10:00:00 AM 18.74 65.732 0.292 7.9 9.51 8.88
9/19/2021 10:15:00 AM 18.76 65.768 0.291 7.92 4.98 8.9
9/19/2021 10:30:00 AM 18.78 65.804 0.291 7.93 6.03 8.93
9/19/2021 10:45:00 AM 18.82 65.876 0.291 7.94 5.05 9.07
9/19/2021 11:00:00 AM 18.84 65.912 0.291 7.95 12.91 9.17
9/19/2021 11:15:00 AM 18.91 66.038 0.292 7.97 5.08 9.21
9/19/2021 11:30:00 AM 18.94 66.092 0.293 7.98 5.32 9.3
9/19/2021 11:45:00 AM 19.01 66.218 0.293 8 5.53 9.39
9/19/2021 12:00:00 PM 19.06 66.308 0.293 8.02 5 9.46
9/19/2021 12:15:00 PM 19.12 66.416 0.293 8.04 4.89 9.47
9/19/2021 12:30:00 PM 19.19 66.542 0.293 8.06 4.81 9.6
9/19/2021 12:45:00 PM 19.24 66.632 0.292 8.07 5.3 9.68
9/19/2021 1:00:00 PM 19.31 66.758 0.291 8.08 5 9.74
9/19/2021 1:15:00 PM 19.37 66.866 0.291 8.1 4.68 9.66
9/19/2021 1:30:00 PM 19.45 67.01 0.29 8.11 4.94 9.83
9/19/2021 1:45:00 PM 19.52 67.136 0.29 8.13 4.82 9.86
9/19/2021 2:00:00 PM 19.6 67.28 0.29 8.14 5.11 9.91
9/19/2021 2:15:00 PM 19.64 67.352 0.291 8.16 4.88 9.96
9/19/2021 2:30:00 PM 19.71 67.478 0.291 8.17 4.78 10.06
9/19/2021 2:45:00 PM 19.76 67.568 0.291 8.19 5.11 10.05
9/19/2021 3:00:00 PM 19.82 67.676 0.292 8.2 5.39 10.1
9/19/2021 3:15:00 PM 19.87 67.766 0.292 8.21 4.72 10.09
9/19/2021 3:30:00 PM 19.91 67.838 0.291 8.22 4.87 10.09
9/19/2021 3:45:00 PM 19.96 67.92799 0.291 8.24 5.35 10.14
9/19/2021 4:00:00 PM 19.98 67.964 0.29 8.25 5.12 10.15
9/19/2021 4:15:00 PM 20.01 68.018 0.29 8.25 5.02 10.11
9/19/2021 4:30:00 PM 20.03 68.054 0.29 8.27 5.71 10.1
9/19/2021 4:45:00 PM 20.05 68.09 0.29 8.28 4.93 10.08
9/19/2021 5:00:00 PM 20.06 68.108 0.29 8.28 5.14 10.03
9/19/2021 5:15:00 PM 20.06 68.108 0.291 8.28 208.1 9.97
9/19/2021 5:30:00 PM 20.05 68.09 0.291 8.28 6.11 9.92
9/19/2021 5:45:00 PM 20.04 68.07201 0.292 8.28 6.53 9.9
9/19/2021 6:00:00 PM 20.03 68.054 0.292 8.28 5.52 9.86
9/19/2021 6:15:00 PM 20 68 0.293 8.27 6.23 9.77
9/19/2021 6:30:00 PM 19.97 67.946 0.292 8.26 6.34 9.5
9/19/2021 6:45:00 PM 19.93 67.874 0.292 8.26 6.37 9.53
9/19/2021 7:00:00 PM 19.89 67.802 0.292 8.25 5.67 9.46
9/19/2021 7:15:00 PM 19.84 67.712 0.292 8.24 6.17 9.35
9/19/2021 7:30:00 PM 19.79 67.622 0.292 8.22 6.84 9.25
9/19/2021 7:45:00 PM 19.73 67.514 0.292 8.21 4.8 9.21
9/19/2021 8:00:00 PM 19.68 67.424 0.293 8.18 6.14 9.19
9/19/2021 8:15:00 PM 19.64 67.352 0.294 8.18 5.99 9.14
9/19/2021 8:30:00 PM 19.59 67.262 0.295 8.16 7.05 9.07
9/19/2021 8:45:00 PM 19.55 67.19 0.297 8.15 5.24 9.02
9/19/2021 9:00:00 PM 19.5 67.1 0.297 8.13 6.03 8.95
9/19/2021 9:15:00 PM 19.46 67.028 0.297 8.12 8.23 8.88
9/19/2021 9:30:00 PM 19.42 66.956 0.297 8.11 6.39 8.83
9/19/2021 9:45:00 PM 19.38 66.884 0.296 8.09 8.96 8.74
9/19/2021 10:00:00 PM 19.34 66.812 0.295 8.07 8.76 8.66
9/19/2021 10:15:00 PM 19.3 66.74 0.295 8.06 7.2 8.53
9/19/2021 10:30:00 PM 19.27 66.686 0.294 8.05 6.43 8.62
9/19/2021 10:45:00 PM 19.23 66.614 0.294 8.04 6.17 8.56
9/19/2021 11:00:00 PM 19.19 66.542 0.295 8.03 8.02 8.55
9/19/2021 11:15:00 PM 19.16 66.488 0.297 8.03 7.19 8.53
9/19/2021 11:30:00 PM 19.12 66.416 0.298 8.01 6.47 8.48
9/19/2021 11:45:00 PM 19.1 66.38 0.3 8 7.05 8.4
9/20/2021 12:00:00 AM 19.06 66.308 0.301 8 6 8.44
9/20/2021 12:15:00 AM 19.02 66.236 0.302 7.99 7.7 8.42
9/20/2021 12:30:00 AM 18.99 66.182 0.302 7.98 7.68 8.39
9/20/2021 12:45:00 AM 18.95 66.11 0.301 7.98 6.27 8.45
9/20/2021 1:00:00 AM 18.9 66.02 0.301 7.97 10.81 8.43
9/20/2021 1:15:00 AM 18.85 65.93 0.3 7.97 7.73 8.33
9/20/2021 1:30:00 AM 18.8 65.84 0.299 7.96 7.08 8.4
9/20/2021 1:45:00 AM 18.75 65.75 0.299 7.95 7.78 8.25
9/20/2021 2:00:00 AM 18.7 65.66 0.299 7.95 6.87 8.43
9/20/2021 2:15:00 AM 18.64 65.552 0.301 7.94 6.85 8.41
9/20/2021 2:30:00 AM 18.58 65.444 0.302 7.94 8.67 8.34
9/20/2021 2:45:00 AM 18.53 65.354 0.303 7.93 6.16 8.38
9/20/2021 3:00:00 AM 18.45 65.21 0.304 7.93 7.63 8.39
9/20/2021 3:15:00 AM 18.39 65.102 0.305 7.92 7.35 8.44
9/20/2021 3:30:00 AM 18.34 65.012 0.305 7.92 8.95 8.43
9/20/2021 3:45:00 AM 18.28 64.904 0.304 7.91 7.97 8.44
9/20/2021 4:00:00 AM 18.21 64.778 0.303 7.92 10.54 8.47
9/20/2021 4:15:00 AM 18.14 64.652 0.302 7.91 14.96 8.45
9/20/2021 4:30:00 AM 18.08 64.544 0.301 7.9 10.27 8.48
9/20/2021 4:45:00 AM 18.02 64.436 0.301 7.9 10.08 8.51
9/20/2021 5:00:00 AM 17.94 64.292 0.301 7.9 10.62 8.49
9/20/2021 5:15:00 AM 17.87 64.166 0.302 7.89 11.05 8.52
9/20/2021 5:30:00 AM 17.82 64.076 0.303 7.88 9.13 8.49
9/20/2021 5:45:00 AM 17.76 63.968 0.304 7.88 10.33 8.52
9/20/2021 6:00:00 AM 17.7 63.86 0.305 7.88 10.37 8.51
9/20/2021 6:15:00 AM 17.64 63.752 0.305 7.87 12.86 8.55
9/20/2021 6:30:00 AM 17.57 63.626 0.304 7.87 12.57 8.55
9/20/2021 6:45:00 AM 17.51 63.518 0.304 7.87 9.11 8.57
9/20/2021 7:00:00 AM 17.46 63.428 0.303 7.87 10.35 8.48
9/20/2021 7:15:00 AM 17.39 63.302 0.302 7.86 11.1 8.53
9/20/2021 7:30:00 AM 17.34 63.212 0.301 7.87 10.87 8.59
9/20/2021 7:45:00 AM 17.29 63.122 0.3 7.86 12.05 8.61
9/20/2021 8:00:00 AM 17.24 63.032 0.3 7.86 10.46 8.66
9/20/2021 8:15:00 AM 17.2 62.96 0.301 7.87 10.72 8.7
9/20/2021 8:30:00 AM 17.18 62.924 0.303 7.87 10.97 8.76
9/20/2021 8:45:00 AM 17.17 62.906 0.303 7.87 10.19 8.82
9/20/2021 9:00:00 AM 17.18 62.924 0.304 7.88 10.92 8.86
9/20/2021 9:15:00 AM 17.25 63.05 0.304 7.88 10.76 8.99
9/20/2021 9:30:00 AM 17.31 63.158 0.304 7.89 10.84 9.07
9/20/2021 9:45:00 AM 17.35 63.23 0.303 7.9 12.17 9.12
9/20/2021 10:00:00 AM 17.38 63.284 0.302 7.91 11.68 9.25
9/20/2021 10:15:00 AM 17.42 63.356 0.301 7.92 10.5 9.3
9/20/2021 10:30:00 AM 17.45 63.41 0.299 7.93 14.58 9.42
9/20/2021 10:45:00 AM 17.51 63.518 0.299 7.94 43.11 9.52
9/20/2021 11:00:00 AM 17.54 63.572 0.298 7.96 23.16 9.63
9/20/2021 11:15:00 AM 17.59 63.662 0.297 7.98 9.77 9.72
9/20/2021 11:30:00 AM 17.67 63.806 0.298 7.99 58.21 9.82
9/20/2021 11:45:00 AM 17.72 63.896 0.298 8.01 12.38 9.91
9/20/2021 12:00:00 PM 17.79 64.022 0.298 8.02 10.25 9.98
9/20/2021 12:15:00 PM 17.86 64.148 0.298 8.04 10.24 10.06
9/20/2021 12:30:00 PM 17.93 64.274 0.298 8.06 10.83 10.15
9/20/2021 12:45:00 PM 18 64.4 0.297 8.08 10.02 10.26
9/20/2021 1:00:00 PM 18.07 64.526 0.296 8.1 9.44 10.31
9/20/2021 1:15:00 PM 18.16 64.688 0.295 8.13 10.98 10.37
9/20/2021 1:30:00 PM 18.23 64.814 0.295 8.15 10.23 10.46
9/20/2021 1:45:00 PM 18.3 64.94 0.294 8.17 10.53 10.5
9/20/2021 2:00:00 PM 18.37 65.066 0.294 8.18 9.5 10.51
9/20/2021 2:15:00 PM 18.45 65.21 0.294 8.21 10.21 10.63
9/20/2021 2:30:00 PM 18.51 65.318 0.294 8.22 10.59 10.65
9/20/2021 2:45:00 PM 18.59 65.462 0.294 8.23 11.64 10.47
9/20/2021 3:00:00 PM 18.65 65.57 0.294 8.25 10.37 10.59
9/20/2021 3:15:00 PM 18.7 65.66 0.294 8.27 130.2 10.56
9/20/2021 3:30:00 PM 18.75 65.75 0.295 8.28 9.63 10.56
9/20/2021 3:45:00 PM 18.8 65.84 0.294 8.3 9.44 10.58
9/20/2021 4:00:00 PM 18.84 65.912 0.294 8.32 9.97 10.63
9/20/2021 4:15:00 PM 18.88 65.984 0.294 8.32 10.61 10.56
9/20/2021 4:30:00 PM 18.9 66.02 0.294 8.33 9.78 10.56
9/20/2021 4:45:00 PM 18.9 66.02 0.294 8.33 10.82 10.54
9/20/2021 5:00:00 PM 18.89 66.002 0.294 8.34 11.14 10.74
9/20/2021 5:15:00 PM 18.9 66.02 0.294 8.35 10.99 10.67
9/20/2021 5:30:00 PM 18.9 66.02 0.295 8.35 11.17 10.65
9/20/2021 5:45:00 PM 18.89 66.002 0.296 8.35 10.9 10.58
9/20/2021 6:00:00 PM 18.87 65.966 0.297 8.35 13.31 10.52
9/20/2021 6:15:00 PM 18.86 65.948 0.297 8.34 13.35 10.43
9/20/2021 6:30:00 PM 18.86 65.948 0.298 8.34 13.61 10.32
9/20/2021 6:45:00 PM 18.84 65.912 0.297 8.33 14.33 10.25
9/20/2021 7:00:00 PM 18.81 65.858 0.298 8.32 13.02 10.19
9/20/2021 7:15:00 PM 18.78 65.804 0.298 8.31 13.82 10.06
9/20/2021 7:30:00 PM 18.74 65.732 0.298 8.3 7.26 9.91
9/20/2021 7:45:00 PM 18.7 65.66 0.298 8.27 7.25 9.81
9/20/2021 8:00:00 PM 18.67 65.606 0.298 8.26 8.19 9.67
9/20/2021 8:15:00 PM 18.64 65.552 0.3 8.24 6.33 9.59
9/20/2021 8:30:00 PM 18.6 65.48 0.302 8.23 6.73 9.56
9/20/2021 8:45:00 PM 18.58 65.444 0.304 8.21 7.09 9.47
9/20/2021 9:00:00 PM 18.56 65.408 0.307 8.2 6.7 9.4
9/20/2021 9:15:00 PM 18.54 65.372 0.308 8.16 6.69 9.34
9/20/2021 9:30:00 PM 18.52 65.336 0.309 8.14 6.82 9.24
9/20/2021 9:45:00 PM 18.49 65.282 0.308 8.12 7.13 9.18
9/20/2021 10:00:00 PM 18.47 65.246 0.308 8.11 6.99 9.09
9/20/2021 10:15:00 PM 18.45 65.21 0.307 8.1 7.39 9.03
9/20/2021 10:30:00 PM 18.42 65.156 0.306 8.08 6.19 8.91
9/20/2021 10:45:00 PM 18.4 65.12 0.305 8.08 6.26 8.91
9/20/2021 11:00:00 PM 18.38 65.084 0.304 8.06 6.72 8.87
9/20/2021 11:15:00 PM 18.36 65.048 0.304 8.06 6.98 8.86
9/20/2021 11:30:00 PM 18.34 65.012 0.306 8.05 7.06 8.83
9/20/2021 11:45:00 PM 18.32 64.976 0.307 8.04 6.73 8.77
9/21/2021 12:00:00 AM 18.31 64.958 0.308 8.04 7.31 8.77
9/21/2021 12:15:00 AM 18.29 64.922 0.309 8.03 6.95 8.73
9/21/2021 12:30:00 AM 18.27 64.886 0.309 8.02 7.72 8.71
9/21/2021 12:45:00 AM 18.25 64.85 0.308 8.02 9.39 8.67
9/21/2021 1:00:00 AM 18.23 64.814 0.307 8.01 7.33 8.69
9/21/2021 1:15:00 AM 18.22 64.796 0.307 8 7.26 8.61
9/21/2021 1:30:00 AM 18.2 64.76 0.305 8.01 7.92 8.51
9/21/2021 1:45:00 AM 18.17 64.706 0.305 8 6.8 8.64
9/21/2021 2:00:00 AM 18.14 64.652 0.304 7.99 6.79 8.63
9/21/2021 2:15:00 AM 18.11 64.598 0.304 7.99 7.13 8.63
9/21/2021 2:30:00 AM 18.08 64.544 0.305 7.98 7.02 8.55
9/21/2021 2:45:00 AM 18.05 64.49 0.306 7.97 9.97 8.62
9/21/2021 3:00:00 AM 18 64.4 0.307 7.96 7.33 8.59
9/21/2021 3:15:00 AM 17.97 64.346 0.308 7.97 7.79 8.6
9/21/2021 3:30:00 AM 17.93 64.274 0.308 7.95 7.4 8.59
9/21/2021 3:45:00 AM 17.88 64.184 0.308 7.94 11.07 8.54
9/21/2021 4:00:00 AM 17.84 64.112 0.307 7.94 7.62 8.6
9/21/2021 4:15:00 AM 17.79 64.022 0.306 7.93 6.97 8.58
9/21/2021 4:30:00 AM 17.73 63.914 0.306 7.93 6.83 8.6
9/21/2021 4:45:00 AM 17.68 63.824 0.304 7.93 7.85 8.62
9/21/2021 5:00:00 AM 17.63 63.734 0.304 7.93 8.26 8.61
9/21/2021 5:15:00 AM 17.58 63.644 0.305 7.92 8.61 8.55
9/21/2021 5:30:00 AM 17.54 63.572 0.305 7.91 8.6 8.58
9/21/2021 5:45:00 AM 17.5 63.5 0.306 7.91 7.91 8.63
9/21/2021 6:00:00 AM 17.46 63.428 0.307 7.91 7.17 8.64
9/21/2021 6:15:00 AM 17.43 63.374 0.307 7.9 8.2 8.65
9/21/2021 6:30:00 AM 17.39 63.302 0.307 7.9 8.67 8.65
9/21/2021 6:45:00 AM 17.36 63.248 0.306 7.9 8.29 8.68
9/21/2021 7:00:00 AM 17.32 63.176 0.306 7.9 7.23 8.66
9/21/2021 7:15:00 AM 17.29 63.122 0.305 7.89 7.27 8.68
9/21/2021 7:30:00 AM 17.26 63.068 0.304 7.89 7.64 8.69
9/21/2021 7:45:00 AM 17.24 63.032 0.303 7.88 7.18 8.71
9/21/2021 8:00:00 AM 17.22 62.996 0.303 7.89 8.37 8.77
9/21/2021 8:15:00 AM 17.2 62.96 0.303 7.89 7.34 8.79
9/21/2021 8:30:00 AM 17.2 62.96 0.304 7.89 8.43 8.84
9/21/2021 8:45:00 AM 17.2 62.96 0.305 7.89 8.51 8.91
9/21/2021 9:00:00 AM 17.2 62.96 0.306 7.9 8.27 8.99
9/21/2021 9:15:00 AM 17.22 62.996 0.306 7.9 7.22 9.04
9/21/2021 9:30:00 AM 17.24 63.032 0.306 7.92 7.5 9.19
9/21/2021 9:45:00 AM 17.27 63.086 0.306 7.93 7.88 9.26
9/21/2021 10:00:00 AM 17.32 63.176 0.304 7.94 7.21 9.43
9/21/2021 10:15:00 AM 17.36 63.248 0.303 7.97 6.58 9.59
9/21/2021 10:30:00 AM 17.37 63.266 0.302 7.98 7.46 9.68
9/21/2021 10:45:00 AM 17.41 63.338 0.301 8 6.98 9.78
9/21/2021 11:00:00 AM 17.43 63.374 0.3 8.03 6.88 9.94
9/21/2021 11:15:00 AM 17.46 63.428 0.3 8.05 6.94 10.03
9/21/2021 11:30:00 AM 17.53 63.554 0.3 8.07 7.39 10.13
9/21/2021 11:45:00 AM 17.6 63.68 0.3 8.1 7.07 10.24
9/21/2021 12:00:00 PM 17.62 63.716 0.301 8.1 7.05 10.3
9/21/2021 12:15:00 PM 17.67 63.806 0.301 8.14 6.61 10.39
9/21/2021 12:30:00 PM 17.72 63.896 0.298 8.14 7.13 10.47
9/21/2021 12:45:00 PM 17.78 64.004 0.3 8.17 7.02 10.6
9/21/2021 1:00:00 PM 17.86 64.148 0.299 8.2 7 10.76
9/21/2021 1:15:00 PM 17.95 64.31 0.299 8.22 7.15 10.8
9/21/2021 1:30:00 PM 18.02 64.436 0.298 8.25 6.94 10.9
9/21/2021 1:45:00 PM 18.09 64.562 0.297 8.29 6.73 11.01
9/21/2021 2:00:00 PM 18.11 64.598 0.297 8.3 6.97 11
9/21/2021 2:15:00 PM 18.15 64.67 0.297 8.31 6.82 10.97
9/21/2021 2:30:00 PM 18.2 64.76 0.297 8.31 6.67 10.97
9/21/2021 2:45:00 PM 18.25 64.85 0.297 8.33 6.47 10.99
9/21/2021 3:00:00 PM 18.28 64.904 0.298 8.34 6.58 10.97
9/21/2021 3:15:00 PM 18.27 64.886 0.298 8.34 6.23 10.94
9/21/2021 3:30:00 PM 18.27 64.886 0.298 8.34 6.27 10.92
9/21/2021 3:45:00 PM 18.29 64.922 0.298 8.35 6.38 10.96
9/21/2021 4:00:00 PM 18.33 64.994 0.298 8.36 6.38 10.93
9/21/2021 4:15:00 PM 18.39 65.102 0.298 8.37 6.22 10.94
9/21/2021 4:30:00 PM 18.44 65.192 0.297 8.4 6.27 11.02
9/21/2021 4:45:00 PM 18.48 65.264 0.297 8.4 6.61 11.02
9/21/2021 5:00:00 PM 18.51 65.318 0.298 8.4 6 11.02
9/21/2021 5:15:00 PM 18.54 65.372 0.298 8.42 5.32 11.02
9/21/2021 5:30:00 PM 18.56 65.408 0.298 8.42 5.38 10.98
9/21/2021 5:45:00 PM 18.56 65.408 0.299 8.42 5.31 10.91
9/21/2021 6:00:00 PM 18.54 65.372 0.3 8.42 5.2 10.79
9/21/2021 6:15:00 PM 18.52 65.336 0.3 8.41 7.31 10.73
9/21/2021 6:30:00 PM 18.5 65.3 0.301 8.4 5.8 10.62
9/21/2021 6:45:00 PM 18.48 65.264 0.301 8.39 6.19 10.52
9/21/2021 7:00:00 PM 18.47 65.246 0.301 8.38 5.85 10.37
9/21/2021 7:15:00 PM 18.45 65.21 0.301 8.36 6.95 10.23
9/21/2021 7:30:00 PM 18.43 65.174 0.301 8.34 6.98 10.16
9/21/2021 7:45:00 PM 18.42 65.156 0.301 8.33 5.96 10.05
9/21/2021 8:00:00 PM 18.4 65.12 0.301 8.31 4.83 9.91
9/21/2021 8:15:00 PM 18.37 65.066 0.302 8.29 6.12 9.78
9/21/2021 8:30:00 PM 18.35 65.03 0.303 8.25 5.79 9.66
9/21/2021 8:45:00 PM 18.32 64.976 0.305 8.23 6.69 9.56
9/21/2021 9:00:00 PM 18.29 64.922 0.306 8.21 5.72 9.45
9/21/2021 9:15:00 PM 18.27 64.886 0.307 8.19 5.73 9.38
9/21/2021 9:30:00 PM 18.24 64.832 0.308 8.15 6.93 9.27
9/21/2021 9:45:00 PM 18.22 64.796 0.308 8.13 5.67 9.21
9/21/2021 10:00:00 PM 18.2 64.76 0.308 8.1 5.87 9.14
9/21/2021 10:15:00 PM 18.19 64.742 0.307 8.09 6.46 9.11
9/21/2021 10:30:00 PM 18.17 64.706 0.306 8.08 6.33 9.05
9/21/2021 10:45:00 PM 18.15 64.67 0.306 8.07 6.17 8.99
9/21/2021 11:00:00 PM 18.14 64.652 0.305 8.06 6.9 8.94
9/21/2021 11:15:00 PM 18.13 64.634 0.306 8.05 5.9 8.9
9/21/2021 11:30:00 PM 18.13 64.634 0.307 8.03 5.95 8.87
9/21/2021 11:45:00 PM 18.12 64.616 0.308 8.03 6.14 8.83
9/22/2021 12:00:00 AM 18.11 64.598 0.31 8.02 5.89 8.81
9/22/2021 12:15:00 AM 18.11 64.598 0.31 8.01 6.17 8.78
9/22/2021 12:30:00 AM 18.1 64.58 0.311 8 6.35 8.69
9/22/2021 12:45:00 AM 18.1 64.58 0.311 7.99 5.98 8.74
9/22/2021 1:00:00 AM 18.09 64.562 0.311 7.98 6.38 8.64
9/22/2021 1:15:00 AM 18.08 64.544 0.31 7.98 6.18 8.62
9/22/2021 1:30:00 AM 18.08 64.544 0.309 7.98 5.4 8.67
9/22/2021 1:45:00 AM 18.06 64.508 0.308 7.97 6.1 8.66
9/22/2021 2:00:00 AM 18.05 64.49 0.308 7.96 5.76 8.66
9/22/2021 2:15:00 AM 18.04 64.472 0.308 7.96 6.56 8.65
9/22/2021 2:30:00 AM 18.03 64.454 0.309 7.96 6.74 8.62
9/22/2021 2:45:00 AM 18.02 64.436 0.31 7.95 5.82 8.59
9/22/2021 3:00:00 AM 18.02 64.436 0.311 7.94 6.59 8.61
9/22/2021 3:15:00 AM 18.01 64.418 0.312 7.93 6.06 8.59
9/22/2021 3:30:00 AM 17.99 64.382 0.313 7.93 5.97 8.57
9/22/2021 3:45:00 AM 17.98 64.364 0.313 7.93 5.59 8.52
9/22/2021 4:00:00 AM 17.96 64.328 0.312 7.92 5.14 8.58
9/22/2021 4:15:00 AM 17.95 64.31 0.311 7.92 5.26 8.57
9/22/2021 4:30:00 AM 17.93 64.274 0.311 7.91 5.87 8.54
9/22/2021 4:45:00 AM 17.92 64.256 0.309 7.91 5.44 8.56
9/22/2021 5:00:00 AM 17.9 64.22 0.309 7.9 5.77 8.53
9/22/2021 5:15:00 AM 17.88 64.184 0.309 7.9 6.5 8.54
9/22/2021 5:30:00 AM 17.87 64.166 0.31 7.89 5.86 8.54
9/22/2021 5:45:00 AM 17.85 64.13 0.311 7.89 7.09 8.53
9/22/2021 6:00:00 AM 17.84 64.112 0.312 7.89 6.67 8.53
9/22/2021 6:15:00 AM 17.83 64.094 0.312 7.89 6.51 8.52
9/22/2021 6:30:00 AM 17.82 64.076 0.313 7.88 7.08 8.5
9/22/2021 6:45:00 AM 17.81 64.058 0.312 7.88 6.84 8.52
9/22/2021 7:00:00 AM 17.8 64.04 0.311 7.88 5.77 8.52
9/22/2021 7:15:00 AM 17.79 64.022 0.311 7.87 6.07 8.5
9/22/2021 7:30:00 AM 17.78 64.004 0.31 7.87 6.02 8.51
9/22/2021 7:45:00 AM 17.77 63.986 0.309 7.87 6.16 8.55
9/22/2021 8:00:00 AM 17.76 63.968 0.309 7.87 6.72 8.55
9/22/2021 8:15:00 AM 17.76 63.968 0.309 7.87 6.38 8.55
9/22/2021 8:30:00 AM 17.76 63.968 0.31 7.86 7.03 8.6
9/22/2021 8:45:00 AM 17.77 63.986 0.311 7.87 6.47 8.62
9/22/2021 9:00:00 AM 17.77 63.986 0.312 7.88 6.66 8.67
9/22/2021 9:15:00 AM 17.78 64.004 0.313 7.88 9.07 8.71
9/22/2021 9:30:00 AM 17.81 64.058 0.313 7.88 6.81 8.82
9/22/2021 9:45:00 AM 17.83 64.094 0.313 7.89 6.25 8.92
9/22/2021 10:00:00 AM 17.85 64.13 0.312 7.9 6.16 9.03
9/22/2021 10:15:00 AM 17.87 64.166 0.311 7.91 5.39 9.12
9/22/2021 10:30:00 AM 17.91 64.238 0.309 7.93 5.32 9.26
9/22/2021 10:45:00 AM 17.96 64.328 0.308 7.95 6.05 9.4
9/22/2021 11:00:00 AM 18 64.4 0.307 7.98 6.83 9.54
9/22/2021 11:15:00 AM 18.02 64.436 0.307 7.99 5.23 9.61
9/22/2021 11:30:00 AM 18.07 64.526 0.307 8.01 4.95 9.72
9/22/2021 11:45:00 AM 18.11 64.598 0.307 8.02 4.91 9.82
9/22/2021 12:00:00 PM 18.17 64.706 0.307 8.05 5.39 10
9/22/2021 12:15:00 PM 18.23 64.814 0.308 8.08 4.97 10.11
9/22/2021 12:30:00 PM 18.27 64.886 0.308 8.11 5.43 10.2
9/22/2021 12:45:00 PM 18.28 64.904 0.307 8.12 4.99 10.2
9/22/2021 1:00:00 PM 18.32 64.976 0.307 8.14 5.28 10.27
9/22/2021 1:15:00 PM 18.38 65.084 0.306 8.16 5.28 10.37
9/22/2021 1:30:00 PM 18.44 65.192 0.305 8.19 5.11 10.46
9/22/2021 1:45:00 PM 18.49 65.282 0.305 8.22 5.02 10.51
9/22/2021 2:00:00 PM 18.52 65.336 0.304 8.24 5.86 10.57
9/22/2021 2:15:00 PM 18.53 65.354 0.304 8.25 5.07 10.55
9/22/2021 2:30:00 PM 18.54 65.372 0.304 8.26 5.16 10.5
9/22/2021 2:45:00 PM 18.56 65.408 0.303 8.26 5.83 10.42
9/22/2021 3:00:00 PM 18.58 65.444 0.304 8.27 5.47 10.43
9/22/2021 3:15:00 PM 18.61 65.498 0.304 8.27 4.78 10.39
9/22/2021 3:30:00 PM 18.64 65.552 0.304 8.27 4.95 10.39
9/22/2021 3:45:00 PM 18.64 65.552 0.304 8.28 4.96 10.37
9/22/2021 4:00:00 PM 18.64 65.552 0.303 8.28 4.74 10.36
9/22/2021 4:15:00 PM 18.66 65.588 0.303 8.28 5.09 10.3
9/22/2021 4:30:00 PM 18.66 65.588 0.302 8.29 5.45 10.28
9/22/2021 4:45:00 PM 18.67 65.606 0.302 8.28 5.85 10.18
9/22/2021 5:00:00 PM 18.68 65.624 0.302 8.27 5.44 10.1
9/22/2021 5:15:00 PM 18.68 65.624 0.302 8.25 5.65 10.02
9/22/2021 5:30:00 PM 18.7 65.66 0.301 8.24 6.61 9.91
9/22/2021 5:45:00 PM 18.71 65.67799 0.301 8.23 6.15 9.81
9/22/2021 6:00:00 PM 18.72 65.696 0.301 8.21 6.7 9.73
9/22/2021 6:15:00 PM 18.73 65.714 0.302 8.2 6.03 9.7
9/22/2021 6:30:00 PM 18.74 65.732 0.302 8.18 6.15 9.57
9/22/2021 6:45:00 PM 18.75 65.75 0.301 8.18 6.64 9.52
9/22/2021 7:00:00 PM 18.76 65.768 0.3 8.17 6.77 9.4
9/22/2021 7:15:00 PM 18.78 65.804 0.3 8.15 7.06 9.35
9/22/2021 7:30:00 PM 18.79 65.82201 0.298 8.15 5.84 9.29
9/22/2021 7:45:00 PM 18.8 65.84 0.298 8.13 6.74 9.19
9/22/2021 8:00:00 PM 18.82 65.876 0.298 8.12 5.9 9.11
9/22/2021 8:15:00 PM 18.83 65.894 0.3 8.09 9.27 8.99
9/22/2021 8:30:00 PM 18.83 65.894 0.302 8.07 10.22 8.92
9/22/2021 8:45:00 PM 18.84 65.912 0.303 8.05 7.37 8.8
9/22/2021 9:00:00 PM 18.85 65.93 0.304 8.04 7.04 8.78
9/22/2021 9:15:00 PM 18.85 65.93 0.305 8.03 7.46 8.73
9/22/2021 9:30:00 PM 18.85 65.93 0.305 8.02 6.58 8.69
9/22/2021 9:45:00 PM 18.84 65.912 0.304 8 7.12 8.61
9/22/2021 10:00:00 PM 18.84 65.912 0.303 8 7.64 8.58
9/22/2021 10:15:00 PM 18.85 65.93 0.301 8 10.5 8.55
9/22/2021 10:30:00 PM 18.85 65.93 0.3 7.99 7.63 8.53
9/22/2021 10:45:00 PM 18.85 65.93 0.301 7.98 8.77 8.52
9/22/2021 11:00:00 PM 18.85 65.93 0.303 7.98 8.63 8.47
9/22/2021 11:15:00 PM 18.85 65.93 0.305 7.97 11.12 8.46
9/22/2021 11:30:00 PM 18.86 65.948 0.306 7.96 8.1 8.4
9/22/2021 11:45:00 PM 18.86 65.948 0.307 7.95 8.93 8.41
9/23/2021 12:00:00 AM 18.85 65.93 0.306 7.95 12.33 8.39
9/23/2021 12:15:00 AM 18.85 65.93 0.304 7.95 10.72 8.38
9/23/2021 12:30:00 AM 18.85 65.93 0.303 7.95 12.86 8.36
9/23/2021 12:45:00 AM 18.85 65.93 0.301 7.95 10.6 8.35
9/23/2021 1:00:00 AM 18.85 65.93 0.301 7.94 15.21 8.33
9/23/2021 1:15:00 AM 18.84 65.912 0.301 7.93 10.39 8.29
9/23/2021 1:30:00 AM 18.84 65.912 0.303 7.93 8.94 8.3
9/23/2021 1:45:00 AM 18.84 65.912 0.305 7.91 9.56 8.27
9/23/2021 2:00:00 AM 18.83 65.894 0.306 7.91 50.83 8.26
9/23/2021 2:15:00 AM 18.83 65.894 0.306 7.9 10.34 8.23
9/23/2021 2:30:00 AM 18.84 65.912 0.305 7.91 9.97 8.21
9/23/2021 2:45:00 AM 18.83 65.894 0.304 7.9 10.85 8.21
9/23/2021 3:00:00 AM 18.85 65.93 0.302 7.9 10.74 8.2
9/23/2021 3:15:00 AM 18.86 65.948 0.301 7.89 9.36 8.17
9/23/2021 3:30:00 AM 18.88 65.984 0.3 7.89 9.27 8.12
9/23/2021 3:45:00 AM 18.9 66.02 0.3 7.88 10.79 8.08
9/23/2021 4:00:00 AM 18.92 66.056 0.302 7.87 10.3 8.11
9/23/2021 4:15:00 AM 18.94 66.092 0.305 7.87 9.23 8.09
9/23/2021 4:30:00 AM 18.96 66.128 0.308 7.86 9.46 8.07
9/23/2021 4:45:00 AM 18.97 66.146 0.309 7.86 10.55 8.09
9/23/2021 5:00:00 AM 18.96 66.128 0.307 7.86 10.76 8.08
9/23/2021 5:15:00 AM 18.89 66.002 0.3 7.86 15.69 8.17
9/23/2021 5:30:00 AM 18.83 65.894 0.295 7.86 14.99 8.27
9/23/2021 5:45:00 AM 18.78 65.804 0.285 7.86 34.19 8.29
9/23/2021 6:00:00 AM 18.73 65.714 0.27 7.84 83.96 8.33
9/23/2021 6:15:00 AM 18.67 65.606 0.245 7.82 189.3 8.38
9/23/2021 6:30:00 AM 18.53 65.354 0.222 7.79 145.1 8.46
9/23/2021 6:45:00 AM 18.43 65.174 0.194 7.72 349 8.47
9/23/2021 7:00:00 AM 18.27 64.886 0.168 7.62 679 8.51
9/23/2021 7:15:00 AM 18.22 64.796 0.157 7.58 627.1 8.57
9/23/2021 7:30:00 AM 18.11 64.598 0.146 7.58 630.5 8.56
9/23/2021 7:45:00 AM 18.03 64.454 0.136 7.55 616.5 8.59
9/23/2021 8:00:00 AM 18.01 64.418 0.134 7.52 400.4 8.57
9/23/2021 8:15:00 AM 18.03 64.454 0.142 7.52 338.7 8.55
9/23/2021 8:30:00 AM 18.07 64.526 0.155 7.52 594.1 8.52
9/23/2021 8:45:00 AM 18.1 64.58 0.164 7.53 181.5 8.47
9/23/2021 9:00:00 AM 18.11 64.598 0.17 7.54 108.4 8.4
9/23/2021 9:15:00 AM 18.11 64.598 0.175 7.55 170.5 8.41
9/23/2021 9:30:00 AM 18.09 64.562 0.179 7.57 237.1 8.42
9/23/2021 9:45:00 AM 18.08 64.544 0.18 7.6 619.7 8.42
9/23/2021 10:00:00 AM 18.06 64.508 0.181 7.6 170.9 8.42
9/23/2021 10:15:00 AM 18.06 64.508 0.181 7.6 205.3 8.43
9/23/2021 10:30:00 AM 18.09 64.562 0.179 7.6 112.8 8.43
9/23/2021 10:45:00 AM 18.1 64.58 0.173 7.6 174.9 8.42
9/23/2021 11:00:00 AM 18.09 64.562 0.167 7.58 151.3 8.41
9/23/2021 11:15:00 AM 18.09 64.562 0.163 7.56 141.2 8.41
9/23/2021 11:30:00 AM 18.1 64.58 0.16 7.55 131 8.39
9/23/2021 11:45:00 AM 18.13 64.634 0.157 7.54 194.4 8.35
9/23/2021 12:00:00 PM 18.15 64.67 0.154 7.54 211.7 8.36
9/23/2021 12:15:00 PM 18.16 64.688 0.153 7.51 130.2 8.29
9/23/2021 12:30:00 PM 18.18 64.724 0.153 7.51 108.2 8.34
9/23/2021 12:45:00 PM 18.2 64.76 0.156 7.5 132 8.33
9/23/2021 1:00:00 PM 18.23 64.814 0.159 7.51 142.4 8.33
9/23/2021 1:15:00 PM 18.26 64.868 0.16 7.5 129.9 8.31
9/23/2021 1:30:00 PM 18.28 64.904 0.161 7.51 1034 8.32
9/23/2021 1:45:00 PM 18.31 64.958 0.161 7.51 95.64 8.32
9/23/2021 2:00:00 PM 18.35 65.03 0.161 7.51 82.37 8.29
9/23/2021 2:15:00 PM 18.37 65.066 0.16 7.51 77.66 8.25
9/23/2021 2:30:00 PM 18.39 65.102 0.158 7.52 88.76 8.26
9/23/2021 2:45:00 PM 18.41 65.138 0.155 7.51 77.86 8.26
9/23/2021 3:00:00 PM 18.43 65.174 0.153 7.5 81.52 8.23
9/23/2021 3:15:00 PM 18.44 65.192 0.15 7.5 81.03 8.21
9/23/2021 3:30:00 PM 18.46 65.228 0.15 7.5 91.91 8.22
9/23/2021 3:45:00 PM 18.48 65.264 0.15 7.48 88.21 8.11
9/23/2021 4:00:00 PM 18.49 65.282 0.148 7.48 88.05 8.18
9/23/2021 4:15:00 PM 18.48 65.264 0.145 7.46 145.2 8.2
9/23/2021 4:30:00 PM 18.49 65.282 0.142 7.45 80.4 8.18
9/23/2021 4:45:00 PM 18.52 65.336 0.139 7.45 109.5 8.11
9/23/2021 5:00:00 PM 18.54 65.372 0.137 7.44 108.1 8.12
9/23/2021 5:15:00 PM 18.56 65.408 0.135 7.42 91.79 8.06
9/23/2021 5:30:00 PM 18.58 65.444 0.133 7.42 508.5 8.09
9/23/2021 5:45:00 PM 18.58 65.444 0.133 7.41 268.5 8.04
9/23/2021 6:00:00 PM 18.58 65.444 0.13 7.38 4066 8.08
9/23/2021 6:15:00 PM 18.57 65.426 0.128 7.39 336.5 8.09
9/23/2021 6:30:00 PM 18.57 65.426 0.127 7.37 4974 8.13
9/23/2021 6:45:00 PM 18.58 65.444 0.128 7.36 63.05 8.08
9/23/2021 7:00:00 PM 18.58 65.444 0.128 7.32 56.21 7.91
9/23/2021 7:15:00 PM 18.59 65.462 0.125 7.3 84.15 8.06
9/23/2021 7:30:00 PM 18.57 65.426 0.122 7.26 95.96 7.95
9/23/2021 7:45:00 PM 18.58 65.444 0.121 7.27 115.5 8.06
9/23/2021 8:00:00 PM 18.57 65.426 0.12 7.26 95.23 8.07
9/23/2021 8:15:00 PM 18.59 65.462 0.119 7.23 338.7 8.07
9/23/2021 8:30:00 PM 18.6 65.48 0.119 7.23 767.3 8
9/23/2021 8:45:00 PM 18.6 65.48 0.122 7.22 68.82 8.07
9/23/2021 9:00:00 PM 18.63 65.534 0.12 7.19 143.6 8.08
9/23/2021 9:15:00 PM 18.66 65.588 0.119 7.2 328.9 8.05
9/23/2021 9:30:00 PM 18.68 65.624 0.126 7.18 1070 8.01
9/23/2021 9:45:00 PM 18.7 65.66 0.123 7.16 131.3 7.99
9/23/2021 10:00:00 PM 18.72 65.696 0.13 7.13 143.3 7.94
9/23/2021 10:15:00 PM 18.72 65.696 0.121 7.13 94.08 7.88
9/23/2021 10:30:00 PM 18.73 65.714 0.12 7.15 72.5 7.9
9/23/2021 10:45:00 PM 18.72 65.696 0.12 7.15 1010 7.81
9/23/2021 11:00:00 PM 18.71 65.67799 0.117 7.15 180.1 7.86
9/23/2021 11:15:00 PM 18.7 65.66 0.116 7.16 4974 7.87
9/23/2021 11:30:00 PM 18.67 65.606 0.116 7.14 1531 7.79
9/23/2021 11:45:00 PM 18.65 65.57 0.113 7.12 66.95 7.85
9/24/2021 12:00:00 AM 18.63 65.534 0.112 7.16 69.71 7.91
9/24/2021 12:15:00 AM 18.6 65.48 0.112 7.14 265.7 7.93
9/24/2021 12:30:00 AM 18.57 65.426 0.113 7.15 62.53 7.95
9/24/2021 12:45:00 AM 18.53 65.354 0.114 7.13 257.8 7.95
9/24/2021 1:00:00 AM 18.48 65.264 0.111 7.12 159.6 7.97
9/24/2021 1:15:00 AM 18.44 65.192 0.109 7.12 73.47 7.97
9/24/2021 1:30:00 AM 18.39 65.102 0.11 7.15 83.97 7.89
9/24/2021 1:45:00 AM 18.33 64.994 0.107 7.14 114.6 7.98
9/24/2021 2:00:00 AM 18.28 64.904 0.108 7.15 56.22 7.97
9/24/2021 2:15:00 AM 18.22 64.796 0.107 7.14 71.29 7.97
9/24/2021 2:30:00 AM 18.15 64.67 0.108 7.15 324.4 7.99
9/24/2021 2:45:00 AM 18.09 64.562 0.108 7.14 306.8 8
9/24/2021 3:00:00 AM 18.03 64.454 0.108 7.14 52.43 8.02
9/24/2021 3:15:00 AM 17.96 64.328 0.108 7.13 54.72 8
9/24/2021 3:30:00 AM 17.9 64.22 0.11 7.14 40.51 8
9/24/2021 3:45:00 AM 17.82 64.076 0.11 7.13 1913 8.04
9/24/2021 4:00:00 AM 17.75 63.95 0.11 7.13 195.5 8.05
9/24/2021 4:15:00 AM 17.67 63.806 0.111 7.13 35.5 8.04
9/24/2021 4:30:00 AM 17.59 63.662 0.112 7.14 932.4 8.1
9/24/2021 4:45:00 AM 17.52 63.536 0.113 7.13 68.1 8.11
9/24/2021 5:00:00 AM 17.44 63.392 0.114 7.12 83.71 8.17
9/24/2021 5:15:00 AM 17.37 63.266 0.115 7.13 49.81 8.2
9/24/2021 5:30:00 AM 17.3 63.14 0.116 7.13 42.69 8.22
9/24/2021 5:45:00 AM 17.23 63.014 0.118 7.14 33.9 8.23
9/24/2021 6:00:00 AM 17.17 62.906 0.119 7.13 641.2 8.24
9/24/2021 6:15:00 AM 17.09 62.762 0.118 7.14 125.5 8.27
9/24/2021 6:30:00 AM 17.03 62.654 0.114 7.14 45.92 8.28
9/24/2021 6:45:00 AM 16.96 62.528 0.116 7.15 4974 8.28
9/24/2021 7:00:00 AM 16.9 62.42 0.116 7.17 31.94 8.3
9/24/2021 7:15:00 AM 16.83 62.294 0.116 7.19 391.7 8.27
9/24/2021 7:30:00 AM 16.77 62.186 0.117 7.19 39.27 8.3
9/24/2021 7:45:00 AM 16.7 62.06 0.118 7.2 32.59 8.35
9/24/2021 8:00:00 AM 16.65 61.97 0.119 7.21 31.2 8.35
9/24/2021 8:15:00 AM 16.59 61.862 0.12 7.22 49.17 8.38
9/24/2021 8:30:00 AM 16.54 61.772 0.12 7.23 555.7 8.42
9/24/2021 8:45:00 AM 16.5 61.7 0.121 7.24 40.87 8.42
9/24/2021 9:00:00 AM 16.46 61.628 0.122 7.24 30.6 8.44
9/24/2021 9:15:00 AM 16.43 61.574 0.123 7.23 29.95 8.46
9/24/2021 9:30:00 AM 16.4 61.52 0.124 7.25 32.19 8.4
9/24/2021 9:45:00 AM 16.38 61.484 0.126 7.26 36.53 8.48
9/24/2021 10:00:00 AM 16.36 61.448 0.127 7.26 29.26 8.5
9/24/2021 10:15:00 AM 16.34 61.412 0.128 7.26 27.62 8.54
9/24/2021 10:30:00 AM 16.32 61.376 0.128 7.26 26.77 8.58
9/24/2021 10:45:00 AM 16.31 61.358 0.128 7.27 32.62 8.61
9/24/2021 11:00:00 AM 16.3 61.34 0.129 7.27 36.69 8.61
9/24/2021 11:15:00 AM 16.29 61.322 0.129 7.28 23.57 8.59
9/24/2021 11:30:00 AM 16.28 61.304 0.13 7.28 67.13 8.68
9/24/2021 11:45:00 AM 16.28 61.304 0.131 7.27 76.69 8.68
9/24/2021 12:00:00 PM 16.28 61.304 0.132 7.27 25.94 8.64
9/24/2021 12:15:00 PM 16.29 61.322 0.133 7.28 43.14 8.6
9/24/2021 12:30:00 PM 16.3 61.34 0.133 7.28 28.21 8.69
9/24/2021 12:45:00 PM 16.32 61.376 0.133 7.29 27.1 8.75
9/24/2021 1:00:00 PM 16.34 61.412 0.135 7.3 23.97 8.76
9/24/2021 1:15:00 PM 16.36 61.448 0.136 7.3 25.37 8.76
9/24/2021 1:30:00 PM 16.38 61.484 0.136 7.29 33.41 8.77
9/24/2021 1:45:00 PM 16.4 61.52 0.136 7.3 21.9 8.78
9/24/2021 2:00:00 PM 16.41 61.538 0.136 7.29 25.89 8.78
9/24/2021 2:15:00 PM 16.42 61.556 0.136 7.3 23.6 8.82
9/24/2021 2:30:00 PM 16.44 61.592 0.136 7.3 23.06 8.84
9/24/2021 2:45:00 PM 16.46 61.628 0.138 7.31 26.11 8.83
9/24/2021 3:00:00 PM 16.47 61.646 0.137 7.31 28.19 8.84
9/24/2021 3:15:00 PM 16.48 61.664 0.138 7.32 17.78 8.78
9/24/2021 3:30:00 PM 16.49 61.682 0.137 7.32 20.62 8.86
9/24/2021 3:45:00 PM 16.51 61.718 0.139 7.32 19.63 8.85
9/24/2021 4:00:00 PM 16.54 61.772 0.139 7.32 24.95 8.87
9/24/2021 4:15:00 PM 16.57 61.826 0.142 7.31 22.54 8.88
9/24/2021 4:30:00 PM 16.6 61.88 0.144 7.32 21.21 8.85
9/24/2021 4:45:00 PM 16.61 61.898 0.145 7.33 18.74 8.84
9/24/2021 5:00:00 PM 16.61 61.898 0.143 7.31 20.63 8.83
9/24/2021 5:15:00 PM 16.61 61.898 0.143 7.3 16.69 8.84
9/24/2021 5:30:00 PM 16.61 61.898 0.142 7.29 20.02 8.79
9/24/2021 5:45:00 PM 16.6 61.88 0.142 7.3 33.88 8.76
9/24/2021 6:00:00 PM 16.59 61.862 0.143 7.32 21.55 8.8
9/24/2021 6:15:00 PM 16.58 61.844 0.141 7.31 24.17 8.77
9/24/2021 6:30:00 PM 16.57 61.826 0.142 7.33 20.78 8.81
9/24/2021 6:45:00 PM 16.56 61.808 0.143 7.32 55.23 8.81
9/24/2021 7:00:00 PM 16.55 61.79 0.145 7.32 19.7 8.71
9/24/2021 7:15:00 PM 16.55 61.79 0.145 7.32 15.84 8.71
9/24/2021 7:30:00 PM 16.56 61.808 0.147 7.32 22.11 8.78
9/24/2021 7:45:00 PM 16.55 61.79 0.147 7.32 22.85 8.85
9/24/2021 8:00:00 PM 16.55 61.79 0.146 7.34 16.73 8.84
9/24/2021 8:15:00 PM 16.54 61.772 0.147 7.34 20.85 8.77
9/24/2021 8:30:00 PM 16.54 61.772 0.145 7.33 19.71 8.76
9/24/2021 8:45:00 PM 16.53 61.754 0.146 7.33 25.49 8.69
9/24/2021 9:00:00 PM 16.53 61.754 0.145 7.33 42.76 8.72
9/24/2021 9:15:00 PM 16.52 61.736 0.147 7.33 15.76 8.6
9/24/2021 9:30:00 PM 16.52 61.736 0.146 7.33 20.18 8.78
9/24/2021 9:45:00 PM 16.52 61.736 0.146 7.34 21.25 8.85
9/24/2021 10:00:00 PM 16.51 61.718 0.146 7.33 20.17 8.86
9/24/2021 10:15:00 PM 16.51 61.718 0.147 7.34 21.4 8.82
9/24/2021 10:30:00 PM 16.51 61.718 0.15 7.33 24.48 8.87
9/24/2021 10:45:00 PM 16.51 61.718 0.151 7.32 20.04 8.81
9/24/2021 11:00:00 PM 16.51 61.718 0.15 7.32 2894 8.83
9/24/2021 11:15:00 PM 16.5 61.7 0.15 7.31 15.81 8.82
9/24/2021 11:30:00 PM 16.48 61.664 0.149 7.31 26.86 8.86
9/24/2021 11:45:00 PM 16.47 61.646 0.149 7.31 22.48 8.87
9/25/2021 12:00:00 AM 16.46 61.628 0.149 7.31 24.38 8.85
9/25/2021 12:15:00 AM 16.45 61.61 0.149 7.29 23.53 8.86
9/25/2021 12:30:00 AM 16.44 61.592 0.15 7.3 21.54 8.85
9/25/2021 12:45:00 AM 16.42 61.556 0.15 7.29 25.86 8.84
9/25/2021 1:00:00 AM 16.4 61.52 0.15 7.3 21.05 8.85
9/25/2021 1:15:00 AM 16.39 61.502 0.151 7.3 20.25 8.85
9/25/2021 1:30:00 AM 16.38 61.484 0.153 7.29 23.19 8.85
9/25/2021 1:45:00 AM 16.36 61.448 0.155 7.28 949.3 8.69
9/25/2021 2:00:00 AM 16.35 61.43 0.156 7.26 148.1 8.8
9/25/2021 2:15:00 AM 16.32 61.376 0.156 7.24 47.61 8.79
9/25/2021 2:30:00 AM 16.29 61.322 0.158 7.24 14.42 8.83
9/25/2021 2:45:00 AM 16.26 61.268 0.158 7.24 15.54 8.82
9/25/2021 3:00:00 AM 16.23 61.214 0.158 7.24 11.73 8.78
9/25/2021 3:15:00 AM 16.19 61.142 0.156 7.24 12.66 8.83
9/25/2021 3:30:00 AM 16.18 61.124 0.159 7.25 12.8 8.85
9/25/2021 3:45:00 AM 16.15 61.07 0.159 7.25 11.47 8.82
9/25/2021 4:00:00 AM 16.09 60.962 0.157 7.25 7.8 8.72
9/25/2021 4:15:00 AM 16.05 60.89 0.157 7.26 11.68 8.76
9/25/2021 4:30:00 AM 16.02 60.836 0.158 7.26 9.95 8.83
9/25/2021 4:45:00 AM 15.99 60.782 0.16 7.25 10.32 8.82
9/25/2021 5:00:00 AM 15.96 60.728 0.161 7.26 10.95 8.66
9/25/2021 5:15:00 AM 15.93 60.674 0.163 7.25 11.41 8.79
9/25/2021 5:30:00 AM 15.87 60.566 0.163 7.23 10.52 8.79
9/25/2021 5:45:00 AM 15.82 60.476 0.16 7.25 8.69 8.86
9/25/2021 6:00:00 AM 15.78 60.404 0.16 7.26 10.24 8.91
9/25/2021 6:15:00 AM 15.73 60.314 0.161 7.26 21.74 8.89
9/25/2021 6:30:00 AM 15.7 60.26 0.162 7.26 6.3 8.9
9/25/2021 6:45:00 AM 15.68 60.224 0.163 7.27 9.34 8.87
9/25/2021 7:00:00 AM 15.62 60.116 0.166 7.26 11.13 8.68
9/25/2021 7:15:00 AM 15.58 60.044 0.168 7.25 10.04 8.78
9/25/2021 7:30:00 AM 15.56 60.008 0.169 7.24 7 8.68
9/25/2021 7:45:00 AM 15.54 59.972 0.178 7.23 12.7 8.82
9/25/2021 8:00:00 AM 15.56 60.008 0.176 7.22 11 8.69
9/25/2021 8:15:00 AM 15.48 59.864 0.179 7.22 9.07 8.9
9/25/2021 8:30:00 AM 15.45 59.81 0.179 7.17 7.45 8.86
9/25/2021 8:45:00 AM 15.43 59.774 0.189 7.17 45.98 8.78
9/25/2021 9:00:00 AM 15.45 59.81 0.189 7.16 8.1 8.95
9/25/2021 9:15:00 AM 15.45 59.81 0.184 7.19 6.03 8.92
9/25/2021 9:30:00 AM 15.43 59.774 0.181 7.19 7.04 8.99
9/25/2021 9:45:00 AM 15.41 59.738 0.176 7.2 14.14 8.87
9/25/2021 10:00:00 AM 15.43 59.774 0.178 7.19 6.64 8.88
9/25/2021 10:15:00 AM 15.44 59.792 0.18 7.21 7.3 8.97
9/25/2021 10:30:00 AM 15.56 60.008 0.179 7.22 5.59 8.99
9/25/2021 10:45:00 AM 15.45 59.81 0.187 7.2 7.43 8.65
9/25/2021 11:00:00 AM 15.5 59.9 0.178 7.21 7.68 8.71
9/25/2021 11:15:00 AM 15.56 60.008 0.184 7.21 7.89 9.04
9/25/2021 11:30:00 AM 15.62 60.116 0.189 7.22 7.14 9.03
9/25/2021 11:45:00 AM 15.66 60.188 0.187 7.22 6.41 9.02
9/25/2021 12:00:00 PM 15.62 60.116 0.19 7.22 8.07 9.15
9/25/2021 12:15:00 PM 15.65 60.17 0.187 7.22 6.8 9.15
9/25/2021 12:30:00 PM 15.7 60.26 0.189 7.23 6.46 9.09
9/25/2021 12:45:00 PM 15.69 60.242 0.183 7.22 53.59 9.09
9/25/2021 1:00:00 PM 15.72 60.296 0.185 7.21 11.88 8.99
9/25/2021 1:15:00 PM 15.79 60.422 0.181 7.21 20.45 9.07
9/25/2021 1:30:00 PM 15.82 60.476 0.181 7.19 6.12 9.15
9/25/2021 1:45:00 PM 15.88 60.584 0.184 7.21 5.49 9.14
9/25/2021 2:00:00 PM 15.91 60.638 0.184 7.23 8.09 9.22
9/25/2021 2:15:00 PM 15.95 60.71 0.179 7.22 306.1 9.1
9/25/2021 2:30:00 PM 15.99 60.782 0.182 7.23 6.63 9.27
9/25/2021 2:45:00 PM 16.03 60.854 0.179 7.25 32.92 9.21
9/25/2021 3:00:00 PM 16.08 60.944 0.178 7.24 5.77 9.32
9/25/2021 3:15:00 PM 16.08 60.944 0.178 7.25 5.05 9.28
9/25/2021 3:30:00 PM 16.12 61.016 0.176 7.27 10.23 9.22
9/25/2021 3:45:00 PM 16.14 61.052 0.184 7.26 5 9.23
9/25/2021 4:00:00 PM 16.16 61.088 0.181 7.24 3.65 9.25
9/25/2021 4:15:00 PM 16.19 61.142 0.179 7.28 5.04 9.27
9/25/2021 4:30:00 PM 16.21 61.178 0.181 7.28 5.09 9.26
9/25/2021 4:45:00 PM 16.22 61.196 0.179 7.28 6.31 9.14
9/25/2021 5:00:00 PM 16.23 61.214 0.18 7.28 14.35 9.17
9/25/2021 5:15:00 PM 16.25 61.25 0.181 7.3 20.47 9.21
9/25/2021 5:30:00 PM 16.25 61.25 0.183 7.28 17.91 9.16
9/25/2021 5:45:00 PM 16.26 61.268 0.19 7.26 22.78 9.27
9/25/2021 6:00:00 PM 16.25 61.25 0.189 7.27 7.69 9.21
9/25/2021 6:15:00 PM 16.25 61.25 0.185 7.28 9.42 9.21
9/25/2021 6:30:00 PM 16.26 61.268 0.182 7.29 3.83 9.18
9/25/2021 6:45:00 PM 16.25 61.25 0.182 7.29 57.56 9.14
9/25/2021 7:00:00 PM 16.24 61.232 0.187 7.27 9.63 9.21
9/25/2021 7:15:00 PM 16.23 61.214 0.182 7.29 7.24 9.13
9/25/2021 7:30:00 PM 16.22 61.196 0.184 7.28 37.12 9.12
9/25/2021 7:45:00 PM 16.2 61.16 0.187 7.28 22.08 9.17
9/25/2021 8:00:00 PM 16.18 61.124 0.188 7.27 5.54 8.94
9/25/2021 8:15:00 PM 16.2 61.16 0.191 7.24 4.21 8.83
9/25/2021 8:30:00 PM 16.19 61.142 0.197 7.25 13.61 8.8
9/25/2021 8:45:00 PM 16.16 61.088 0.199 7.27 13.27 8.73
9/25/2021 9:00:00 PM 16.14 61.052 0.199 7.28 22.8 8.58
9/25/2021 9:15:00 PM 16.09 60.962 0.204 7.22 23.37 8.72
9/25/2021 9:30:00 PM 16.09 60.962 0.202 7.23 26.92 8.65
9/25/2021 9:45:00 PM 16.04 60.872 0.198 7.23 92.98 8.62
9/25/2021 10:00:00 PM 16.04 60.872 0.194 7.26 81.94 8.52
9/25/2021 10:15:00 PM 16.01 60.818 0.193 7.26 10.06 8.64
9/25/2021 10:30:00 PM 16 60.8 0.192 7.23 58.85 8.66
9/25/2021 10:45:00 PM 15.99 60.782 0.192 7.28 19.98 8.5
9/25/2021 11:00:00 PM 15.97 60.746 0.196 7.23 7.62 8.48
9/25/2021 11:15:00 PM 15.98 60.764 0.196 7.22 4.3 8.66
9/25/2021 11:30:00 PM 15.98 60.764 0.197 7.22 5.97 8.5
9/25/2021 11:45:00 PM 15.95 60.71 0.201 7.21 5.38 8.71
9/26/2021 12:00:00 AM 15.93 60.674 0.202 7.2 6.48 8.73
9/26/2021 12:15:00 AM 15.94 60.692 0.202 7.21 31.76 8.41
9/26/2021 12:30:00 AM 15.93 60.674 0.197 7.23 33.83 8.6
9/26/2021 12:45:00 AM 15.93 60.674 0.197 7.21 9.25 8.35
9/26/2021 1:00:00 AM 15.89 60.602 0.198 7.24 9.96 8.64
9/26/2021 1:15:00 AM 15.9 60.62 0.2 7.21 7.49 8.61
9/26/2021 1:30:00 AM 15.91 60.638 0.197 7.25 4.79 8.52
9/26/2021 1:45:00 AM 15.88 60.584 0.201 7.22 7.82 8.58
9/26/2021 2:00:00 AM 15.87 60.566 0.199 7.23 7.55 8.77
9/26/2021 2:15:00 AM 15.88 60.584 0.194 7.25 5.2 8.64
9/26/2021 2:30:00 AM 15.86 60.548 0.198 7.21 17.89 8.71
9/26/2021 2:45:00 AM 15.88 60.584 0.199 7.22 1128 8.86
9/26/2021 3:00:00 AM 15.86 60.548 0.2 7.22 992.5 8.77
9/26/2021 3:15:00 AM 15.85 60.53 0.201 7.21 21.24 8.69
9/26/2021 3:30:00 AM 15.82 60.476 0.2 7.2 31.36 8.59
9/26/2021 3:45:00 AM 15.78 60.404 0.2 7.22 2429 8.62
9/26/2021 4:00:00 AM 15.79 60.422 0.198 7.23 49.49 8.75
9/26/2021 4:15:00 AM 15.8 60.44 0.197 7.25 26.06 8.72
9/26/2021 4:30:00 AM 15.77 60.386 0.196 7.26 8.34 8.62
9/26/2021 4:45:00 AM 15.74 60.332 0.198 7.24 15.42 8.79
9/26/2021 5:00:00 AM 15.69 60.242 0.199 7.27 22.07 8.86
9/26/2021 5:15:00 AM 15.69 60.242 0.198 7.27 17.33 8.85
9/26/2021 5:30:00 AM 15.67 60.206 0.199 7.26 9.41 8.77
9/26/2021 5:45:00 AM 15.66 60.188 0.199 7.27 40.68 8.82
9/26/2021 6:00:00 AM 15.66 60.188 0.197 7.31 122 8.79
9/26/2021 6:15:00 AM 15.64 60.152 0.196 7.33 98.76 8.88
9/26/2021 6:30:00 AM 15.54 59.972 0.197 7.33 78.41 8.82
9/26/2021 6:45:00 AM 15.51 59.918 0.194 7.35 52.48 8.91
9/26/2021 7:00:00 AM 15.46 59.828 0.19 7.35 147.5 8.87
9/26/2021 7:15:00 AM 15.51 59.918 0.188 7.37 27.23 8.83
9/26/2021 7:30:00 AM 15.47 59.846 0.192 7.33 24.6 8.93
9/26/2021 7:45:00 AM 15.42 59.756 0.194 7.33 12.95 8.98
9/26/2021 8:00:00 AM 15.38 59.684 0.194 7.32 85.67 8.86
9/26/2021 8:15:00 AM 15.36 59.648 0.199 7.32 8.03 8.78
9/26/2021 8:30:00 AM 15.37 59.666 0.2 7.32 4.6 8.8
9/26/2021 8:45:00 AM 15.35 59.63 0.2 7.31 4.83 8.96
9/26/2021 9:00:00 AM 15.39 59.702 0.198 7.32 8.08 8.86
9/26/2021 9:15:00 AM 15.41 59.738 0.198 7.32 5.69 8.95
9/26/2021 9:30:00 AM 15.43 59.774 0.199 7.29 5.97 8.97
9/26/2021 9:45:00 AM 15.43 59.774 0.198 7.29 4.84 8.95
9/26/2021 10:00:00 AM 15.43 59.774 0.198 7.27 4.97 9.06
9/26/2021 10:15:00 AM 15.44 59.792 0.197 7.29 5.1 9.1
9/26/2021 10:30:00 AM 15.45 59.81 0.197 7.29 8.87 9.05
9/26/2021 10:45:00 AM 15.46 59.828 0.196 7.28 2.82 9.02
9/26/2021 11:00:00 AM 15.49 59.882 0.197 7.23 6.66 9.05
9/26/2021 11:15:00 AM 15.53 59.954 0.197 7.24 2.99 9.2
9/26/2021 11:30:00 AM 15.54 59.972 0.196 7.23 6.71 9.13
9/26/2021 11:45:00 AM 15.58 60.044 0.196 7.24 5.98 9.22
9/26/2021 12:00:00 PM 15.61 60.098 0.198 7.21 3.79 9.21
9/26/2021 12:15:00 PM 15.63 60.134 0.197 7.24 4.33 9.36
9/26/2021 12:30:00 PM 15.67 60.206 0.195 7.25 4 9.27
9/26/2021 12:45:00 PM 15.73 60.314 0.196 7.26 3.97 9.23
9/26/2021 1:00:00 PM 15.77 60.386 0.196 7.28 5.01 9.33
9/26/2021 1:15:00 PM 15.81 60.458 0.198 7.3 4.74 9.32
9/26/2021 1:30:00 PM 15.86 60.548 0.198 7.33 4.26 9.27
9/26/2021 1:45:00 PM 15.92 60.656 0.199 7.34 5.28 9.33
9/26/2021 2:00:00 PM 15.98 60.764 0.198 7.35 2.74 9.23
9/26/2021 2:15:00 PM 16.03 60.854 0.197 7.36 3.83 9.4
9/26/2021 2:30:00 PM 16.07 60.926 0.197 7.36 3.13 9.24
9/26/2021 2:45:00 PM 16.12 61.016 0.198 7.36 2.54 9.45
9/26/2021 3:00:00 PM 16.15 61.07 0.198 7.36 3.05 9.4
9/26/2021 3:15:00 PM 16.19 61.142 0.198 7.37 2.73 9.35
9/26/2021 3:30:00 PM 16.23 61.214 0.196 7.37 143 9.37
9/26/2021 3:45:00 PM 16.25 61.25 0.195 7.38 93.68 9.42
9/26/2021 4:00:00 PM 16.3 61.34 0.194 7.39 2019 9.41
9/26/2021 4:15:00 PM 16.32 61.376 0.194 7.42 555.5 9.45
9/26/2021 4:30:00 PM 16.34 61.412 0.196 7.39 86.92 9.22
9/26/2021 4:45:00 PM 16.35 61.43 0.197 7.41 4974 9.38
9/26/2021 5:00:00 PM 16.36 61.448 0.197 7.42 4.73 9.33
9/26/2021 5:15:00 PM 16.37 61.466 0.197 7.37 2.92 9.23
9/26/2021 5:30:00 PM 16.38 61.484 0.198 7.36 4.06 9.14
9/26/2021 5:45:00 PM 16.39 61.502 0.198 7.35 4.34 9.25
9/26/2021 6:00:00 PM 16.4 61.52 0.199 7.34 4.02 9.3
9/26/2021 6:15:00 PM 16.4 61.52 0.201 7.34 4.45 9.22
9/26/2021 6:30:00 PM 16.4 61.52 0.201 7.28 2.47 9.24
9/26/2021 6:45:00 PM 16.39 61.502 0.201 7.3 2.55 9.21
9/26/2021 7:00:00 PM 16.38 61.484 0.201 7.27 3.76 9.19
9/26/2021 7:15:00 PM 16.37 61.466 0.199 7.24 2.27 9.18
9/26/2021 7:30:00 PM 16.35 61.43 0.202 7.24 2.99 9.17
9/26/2021 7:45:00 PM 16.33 61.394 0.205 7.24 4.13 9.09
9/26/2021 8:00:00 PM 16.31 61.358 0.205 7.29 5.62 9.15
9/26/2021 8:15:00 PM 16.29 61.322 0.206 7.3 4.28 9.12
9/26/2021 8:30:00 PM 16.27 61.286 0.206 7.29 5.16 9
9/26/2021 8:45:00 PM 16.24 61.232 0.208 7.31 5.93 9.08
9/26/2021 9:00:00 PM 16.22 61.196 0.208 7.3 5.96 8.92
9/26/2021 9:15:00 PM 16.21 61.178 0.208 7.33 195.7 8.43
9/26/2021 9:30:00 PM 16.2 61.16 0.208 7.36 62.71 9.01
9/26/2021 9:45:00 PM 16.17 61.106 0.209 7.34 3077 9.06
9/26/2021 10:00:00 PM 16.13 61.034 0.21 7.34 4.69 8.97
9/26/2021 10:15:00 PM 16.12 61.016 0.211 7.3 2.96 8.87
9/26/2021 10:30:00 PM 16.09 60.962 0.211 7.31 6.51 8.9
9/26/2021 10:45:00 PM 16.05 60.89 0.213 7.31 3.84 8.97
9/26/2021 11:00:00 PM 15.99 60.782 0.214 7.3 4.87 8.84
9/26/2021 11:15:00 PM 15.96 60.728 0.214 7.28 4.17 8.95
9/26/2021 11:30:00 PM 15.92 60.656 0.215 7.28 18.84 8.72
9/26/2021 11:45:00 PM 15.89 60.602 0.214 7.32 5.64 8.86
9/27/2021 12:00:00 AM 15.86 60.548 0.215 7.28 4.69 8.96
9/27/2021 12:15:00 AM 15.82 60.476 0.215 7.28 4.43 8.93
9/27/2021 12:30:00 AM 15.79 60.422 0.217 7.27 7.18 8.89
9/27/2021 12:45:00 AM 15.73 60.314 0.217 7.26 3.28 8.9
9/27/2021 1:00:00 AM 15.7 60.26 0.217 7.28 5.7 8.82
9/27/2021 1:15:00 AM 15.66 60.188 0.216 7.29 4.5 8.94
9/27/2021 1:30:00 AM 15.67 60.206 0.216 7.27 7.49 8.78
9/27/2021 1:45:00 AM 15.59 60.062 0.217 7.27 5.86 8.99
9/27/2021 2:00:00 AM 15.58 60.044 0.216 7.28 4.25 8.92
9/27/2021 2:15:00 AM 15.55 59.99 0.216 7.29 6.53 8.9
9/27/2021 2:30:00 AM 15.53 59.954 0.216 7.27 6.78 8.85
9/27/2021 2:45:00 AM 15.53 59.954 0.216 7.27 3.56 8.96
9/27/2021 3:00:00 AM 15.49 59.882 0.216 7.26 5.58 8.93
9/27/2021 3:15:00 AM 15.5 59.9 0.217 7.28 3.91 8.73
9/27/2021 3:30:00 AM 15.46 59.828 0.217 7.31 3.29 8.78
9/27/2021 3:45:00 AM 15.48 59.864 0.217 7.31 3.33 8.71
9/27/2021 4:00:00 AM 15.4 59.72 0.219 7.26 5.78 8.88
9/27/2021 4:15:00 AM 15.39 59.702 0.219 7.27 4.12 8.89
9/27/2021 4:30:00 AM 15.38 59.684 0.216 7.3 4.42 9.07
9/27/2021 4:45:00 AM 15.35 59.63 0.211 7.32 2388 8.87
9/27/2021 5:00:00 AM 15.33 59.594 0.213 7.34 5.68 9.01
9/27/2021 5:15:00 AM 15.29 59.522 0.214 7.35 4.14 9.09
9/27/2021 5:30:00 AM 15.28 59.504 0.214 7.35 6.35 9.05
9/27/2021 5:45:00 AM 15.24 59.432 0.214 7.36 4.35 9.04
9/27/2021 6:00:00 AM 15.22 59.396 0.208 7.39 83.97 9.09
9/27/2021 6:15:00 AM 15.21 59.378 0.207 7.41 243.8 9.1
9/27/2021 6:30:00 AM 15.22 59.396 0.206 7.41 4.62 9.03
9/27/2021 6:45:00 AM 15.15 59.27 0.208 7.4 12.8 9.1
9/27/2021 7:00:00 AM 15.13 59.234 0.21 7.4 5.3 9.03
9/27/2021 7:15:00 AM 15.11 59.198 0.21 7.39 5.54 9.06
9/27/2021 7:30:00 AM 15.05 59.09 0.212 7.4 5.55 9.12
9/27/2021 7:45:00 AM 15.01 59.018 0.21 7.4 8.24 9.13
9/27/2021 8:00:00 AM 14.99 58.982 0.21 7.41 6.14 9.16
9/27/2021 8:15:00 AM 14.98 58.964 0.209 7.39 6.2 9.05
9/27/2021 8:30:00 AM 14.97 58.946 0.208 7.42 5.27 9.13
9/27/2021 8:45:00 AM 14.97 58.946 0.207 7.42 4.19 9.14
9/27/2021 9:00:00 AM 14.98 58.964 0.207 7.42 6.07 9.13
9/27/2021 9:15:00 AM 14.97 58.946 0.208 7.44 4.07 9.26
9/27/2021 9:30:00 AM 15.01 59.018 0.207 7.44 3.28 9.29
9/27/2021 9:45:00 AM 15.04 59.072 0.206 7.46 4.15 9.25
9/27/2021 10:00:00 AM 15.05 59.09 0.206 7.45 4.11 9.28
9/27/2021 10:15:00 AM 15.09 59.162 0.207 7.44 3.71 9.31
9/27/2021 10:30:00 AM 15.06 59.108 0.208 7.45 5.69 9.43
9/27/2021 10:45:00 AM 15.09 59.162 0.208 7.46 21.87 9.46
9/27/2021 11:00:00 AM 15.13 59.234 0.207 7.46 8.26 9.48
9/27/2021 11:15:00 AM 15.16 59.288 0.206 7.46 6.01 9.5
9/27/2021 11:30:00 AM 15.19 59.342 0.208 7.47 4.02 9.53
9/27/2021 11:45:00 AM 15.27 59.486 0.204 7.49 3.81 9.31
9/27/2021 12:00:00 PM 15.3 59.54 0.204 7.49 3.54 9.48
9/27/2021 12:15:00 PM 15.35 59.63 0.205 7.5 2.59 9.52
9/27/2021 12:30:00 PM 15.4 59.72 0.205 7.51 49.54 9.5
9/27/2021 12:45:00 PM 15.45 59.81 0.206 7.51 5.63 9.59
9/27/2021 1:00:00 PM 15.51 59.918 0.206 7.52 3.76 9.58
9/27/2021 1:15:00 PM 15.57 60.026 0.206 7.53 2.77 9.62
9/27/2021 1:30:00 PM 15.62 60.116 0.205 7.55 2.42 9.56
9/27/2021 1:45:00 PM 15.68 60.224 0.205 7.54 2.76 9.62
9/27/2021 2:00:00 PM 15.74 60.332 0.206 7.55 5.87 9.66
9/27/2021 2:15:00 PM 15.8 60.44 0.208 7.55 3.46 9.74
9/27/2021 2:30:00 PM 15.86 60.548 0.209 7.53 3 9.76
9/27/2021 2:45:00 PM 15.9 60.62 0.208 7.54 4.79 9.72
9/27/2021 3:00:00 PM 15.98 60.764 0.207 7.54 4974 9.73
9/27/2021 3:15:00 PM 16.05 60.89 0.208 7.57 4296 9.76
9/27/2021 3:30:00 PM 16.09 60.962 0.208 7.58 2.71 9.77
9/27/2021 3:45:00 PM 16.12 61.016 0.208 7.6 4.12 9.66
9/27/2021 4:00:00 PM 16.17 61.106 0.208 7.6 2.7 9.74
9/27/2021 4:15:00 PM 16.22 61.196 0.207 7.61 3.79 9.8
9/27/2021 4:30:00 PM 16.24 61.232 0.207 7.61 3.05 9.61
9/27/2021 4:45:00 PM 16.28 61.304 0.207 7.62 2.79 9.77
9/27/2021 5:00:00 PM 16.31 61.358 0.207 7.62 3.71 9.73
9/27/2021 5:15:00 PM 16.33 61.394 0.207 7.62 5.63 9.62
9/27/2021 5:30:00 PM 16.34 61.412 0.207 7.63 2.61 9.71
9/27/2021 5:45:00 PM 16.36 61.448 0.208 7.61 3.91 9.59
9/27/2021 6:00:00 PM 16.39 61.502 0.208 7.61 13.53 9.49
9/27/2021 6:15:00 PM 16.41 61.538 0.21 7.61 5.8 9.41
9/27/2021 6:30:00 PM 16.42 61.556 0.211 7.62 4.71 9.58
9/27/2021 6:45:00 PM 16.42 61.556 0.211 7.62 3.13 9.51
9/27/2021 7:00:00 PM 16.43 61.574 0.212 7.63 3.71 9.41
9/27/2021 7:15:00 PM 16.42 61.556 0.211 7.64 3.3 9.48
9/27/2021 7:30:00 PM 16.43 61.574 0.211 7.64 2.82 9.37
9/27/2021 7:45:00 PM 16.43 61.574 0.21 7.64 3 9.37
9/27/2021 8:00:00 PM 16.43 61.574 0.209 7.65 3.61 9.31
9/27/2021 8:15:00 PM 16.44 61.592 0.208 7.62 2.82 9.3
9/27/2021 8:30:00 PM 16.43 61.574 0.209 7.61 3.88 9.29
9/27/2021 8:45:00 PM 16.43 61.574 0.21 7.6 4.13 9.29
9/27/2021 9:00:00 PM 16.43 61.574 0.211 7.6 3.21 9.28
9/27/2021 9:15:00 PM 16.43 61.574 0.212 7.6 3.4 9.22
9/27/2021 9:30:00 PM 16.43 61.574 0.214 7.61 2.73 9.21
9/27/2021 9:45:00 PM 16.42 61.556 0.214 7.6 4.57 9.17
9/27/2021 10:00:00 PM 16.4 61.52 0.215 7.59 3.51 9.15
9/27/2021 10:15:00 PM 16.39 61.502 0.215 7.59 5.4 9.15
9/27/2021 10:30:00 PM 16.37 61.466 0.213 7.58 4.81 9.16
9/27/2021 10:45:00 PM 16.34 61.412 0.214 7.57 5.17 9
9/27/2021 11:00:00 PM 16.32 61.376 0.213 7.55 3.61 9.09
9/27/2021 11:15:00 PM 16.29 61.322 0.213 7.56 321.4 9.06
9/27/2021 11:30:00 PM 16.27 61.286 0.211 7.58 3.86 9.09
9/27/2021 11:45:00 PM 16.24 61.232 0.211 7.58 4.7 9.1
9/28/2021 12:00:00 AM 16.21 61.178 0.211 7.58 6.61 9.01
9/28/2021 12:15:00 AM 16.2 61.16 0.213 7.58 5.11 9.08
9/28/2021 12:30:00 AM 16.19 61.142 0.214 7.57 4.39 9.03
9/28/2021 12:45:00 AM 16.16 61.088 0.219 7.54 4.68 9.02
9/28/2021 1:00:00 AM 16.12 61.016 0.222 7.55 3.87 9.02
9/28/2021 1:15:00 AM 16.09 60.962 0.219 7.56 3.92 9.03
9/28/2021 1:30:00 AM 16.08 60.944 0.216 7.57 4.64 8.95
9/28/2021 1:45:00 AM 16.05 60.89 0.216 7.57 3.75 8.98
9/28/2021 2:00:00 AM 16.02 60.836 0.214 7.57 4.64 9.02
9/28/2021 2:15:00 AM 16.01 60.818 0.214 7.57 4.78 8.99
9/28/2021 2:30:00 AM 15.99 60.782 0.214 7.55 4.36 8.96
9/28/2021 2:45:00 AM 15.97 60.746 0.212 7.56 3.38 8.97
9/28/2021 3:00:00 AM 15.95 60.71 0.213 7.56 4.69 8.99
9/28/2021 3:15:00 AM 15.93 60.674 0.215 7.54 4.56 8.94
9/28/2021 3:30:00 AM 15.91 60.638 0.216 7.54 4.41 9.01
9/28/2021 3:45:00 AM 15.92 60.656 0.216 7.54 3.94 9
9/28/2021 4:00:00 AM 15.92 60.656 0.216 7.52 10.71 8.95
9/28/2021 4:15:00 AM 15.94 60.692 0.217 7.51 3.97 8.88
9/28/2021 4:30:00 AM 15.87 60.566 0.216 7.51 5.47 8.91
9/28/2021 4:45:00 AM 15.86 60.548 0.215 7.55 3.6 8.94
9/28/2021 5:00:00 AM 15.86 60.548 0.215 7.55 4.45 8.92
9/28/2021 5:15:00 AM 15.84 60.512 0.215 7.53 5.33 8.98
9/28/2021 5:30:00 AM 15.86 60.548 0.215 7.52 3.78 8.92
9/28/2021 5:45:00 AM 15.83 60.494 0.215 7.53 7.16 8.91
9/28/2021 6:00:00 AM 15.85 60.53 0.215 7.53 3.7 8.92
9/28/2021 6:15:00 AM 15.86 60.548 0.216 7.53 4.36 8.96
9/28/2021 6:30:00 AM 15.84 60.512 0.225 7.53 6.25 8.93
9/28/2021 6:45:00 AM 15.85 60.53 0.225 7.53 45.54 8.96
9/28/2021 7:00:00 AM 15.83 60.494 0.227 7.54 3.3 8.99
9/28/2021 7:15:00 AM 15.84 60.512 0.225 7.54 3.93 8.94
9/28/2021 7:30:00 AM 15.82 60.476 0.225 7.54 4.18 9
9/28/2021 7:45:00 AM 15.82 60.476 0.225 7.53 4.23 8.99
9/28/2021 8:00:00 AM 15.83 60.494 0.226 7.53 4.17 8.95
9/28/2021 8:15:00 AM 15.82 60.476 0.228 7.53 5.34 8.96
9/28/2021 8:30:00 AM 15.82 60.476 0.226 7.52 6.45 8.92
9/28/2021 8:45:00 AM 15.83 60.494 0.226 7.52 3.92 8.94
9/28/2021 9:00:00 AM 15.81 60.458 0.229 7.53 4.31 8.98
9/28/2021 9:15:00 AM 15.81 60.458 0.229 7.53 3.65 8.95
9/28/2021 9:30:00 AM 15.82 60.476 0.229 7.53 4.14 9
9/28/2021 9:45:00 AM 15.82 60.476 0.227 7.54 3.76 9
9/28/2021 10:00:00 AM 15.82 60.476 0.228 7.53 6.12 8.94
9/28/2021 10:15:00 AM 15.83 60.494 0.228 7.53 3.16 8.98
9/28/2021 10:30:00 AM 15.83 60.494 0.23 7.54 3.95 9.05
9/28/2021 10:45:00 AM 15.84 60.512 0.23 7.55 3.55 9.11
9/28/2021 11:00:00 AM 15.87 60.566 0.229 7.55 3.93 9.05
9/28/2021 11:15:00 AM 15.91 60.638 0.227 7.56 4.6 9.16
9/28/2021 11:30:00 AM 15.93 60.674 0.227 7.56 3.35 9.08
9/28/2021 11:45:00 AM 15.96 60.728 0.225 7.57 2.98 9.17
9/28/2021 12:00:00 PM 15.98 60.764 0.223 7.58 3.54 9.26
9/28/2021 12:15:00 PM 16.01 60.818 0.223 7.58 3.28 9.29
9/28/2021 12:30:00 PM 16.03 60.854 0.223 7.58 3.18 9.22
9/28/2021 12:45:00 PM 16.06 60.908 0.225 7.57 3.37 9.35
9/28/2021 1:00:00 PM 16.08 60.944 0.227 7.6 4.38 9.36
9/28/2021 1:15:00 PM 16.1 60.98 0.227 7.61 2.37 9.34
9/28/2021 1:30:00 PM 16.12 61.016 0.226 7.61 3.58 9.45
9/28/2021 1:45:00 PM 16.14 61.052 0.225 7.63 4.25 9.43
9/28/2021 2:00:00 PM 16.15 61.07 0.224 7.62 3.27 9.39
9/28/2021 2:15:00 PM 16.15 61.07 0.225 7.63 4.38 9.42
9/28/2021 2:30:00 PM 16.16 61.088 0.225 7.63 2.4 9.31
9/28/2021 2:45:00 PM 16.17 61.106 0.224 7.65 2.68 9.2
9/28/2021 3:00:00 PM 16.2 61.16 0.224 7.65 3.56 8.92
9/28/2021 3:15:00 PM 16.24 61.232 0.224 7.66 2.75 9.09
9/28/2021 3:30:00 PM 16.28 61.304 0.224 7.65 3.24 9.34
9/28/2021 3:45:00 PM 16.35 61.43 0.225 7.67 2.71 9.2
9/28/2021 4:00:00 PM 16.42 61.556 0.226 7.68 3.21 9.52
9/28/2021 4:15:00 PM 16.45 61.61 0.227 7.65 3.69 9.48
9/28/2021 4:30:00 PM 16.48 61.664 0.227 7.69 2.65 9.3
9/28/2021 4:45:00 PM 16.51 61.718 0.227 7.68 2.84 9.48
9/28/2021 5:00:00 PM 16.51 61.718 0.224 7.69 2.17 9.56
9/28/2021 5:15:00 PM 16.53 61.754 0.226 7.69 2.69 9.58
9/28/2021 5:30:00 PM 16.53 61.754 0.225 7.69 2.21 9.58
9/28/2021 5:45:00 PM 16.54 61.772 0.225 7.7 2.23 9.58
9/28/2021 6:00:00 PM 16.55 61.79 0.226 7.7 2.19 9.64
9/28/2021 6:15:00 PM 16.56 61.808 0.228 7.7 2.65 9.59
9/28/2021 6:30:00 PM 16.57 61.826 0.228 7.7 2.46 9.55
9/28/2021 6:45:00 PM 16.58 61.844 0.232 7.69 2.69 9.46
9/28/2021 7:00:00 PM 16.57 61.826 0.233 7.7 2.5 9.41
9/28/2021 7:15:00 PM 16.56 61.808 0.233 7.69 3.25 9.43
9/28/2021 7:30:00 PM 16.55 61.79 0.234 7.69 2.87 9.4
9/28/2021 7:45:00 PM 16.53 61.754 0.234 7.69 3.01 9.39
9/28/2021 8:00:00 PM 16.52 61.736 0.232 7.7 2.37 9.35
9/28/2021 8:15:00 PM 16.5 61.7 0.229 7.69 2.74 9.25
9/28/2021 8:30:00 PM 16.49 61.682 0.231 7.68 3.76 9.3
9/28/2021 8:45:00 PM 16.48 61.664 0.231 7.68 3.44 9.26
9/28/2021 9:00:00 PM 16.48 61.664 0.23 7.68 2.81 9.16
9/28/2021 9:15:00 PM 16.47 61.646 0.23 7.68 3.84 9.21
9/28/2021 9:30:00 PM 16.47 61.646 0.232 7.67 2.72 8.86
9/28/2021 9:45:00 PM 16.47 61.646 0.233 7.66 2.98 9.13
9/28/2021 10:00:00 PM 16.46 61.628 0.234 7.66 3.02 9.13
9/28/2021 10:15:00 PM 16.45 61.61 0.235 7.66 4.46 9.13
9/28/2021 10:30:00 PM 16.44 61.592 0.234 7.66 3.51 9.12
9/28/2021 10:45:00 PM 16.42 61.556 0.234 7.66 2.72 9.09
9/28/2021 11:00:00 PM 16.41 61.538 0.233 7.66 15.01 9.1
9/28/2021 11:15:00 PM 16.39 61.502 0.234 7.66 5.21 9.06
9/28/2021 11:30:00 PM 16.36 61.448 0.233 7.64 6.11 8.15
9/28/2021 11:45:00 PM 16.34 61.412 0.237 7.65 4.34 9.07
9/29/2021 12:00:00 AM 16.32 61.376 0.235 7.64 4.5 9.05
9/29/2021 12:15:00 AM 16.3 61.34 0.234 7.63 4.76 9
9/29/2021 12:30:00 AM 16.26 61.268 0.234 7.62 5.88 8.96
9/29/2021 12:45:00 AM 16.24 61.232 0.234 7.62 5.73 9.03
9/29/2021 1:00:00 AM 16.22 61.196 0.235 7.61 4.98 8.48
9/29/2021 1:15:00 AM 16.18 61.124 0.238 7.62 3.31 8.92
9/29/2021 1:30:00 AM 16.14 61.052 0.237 7.6 3.35 8.84
9/29/2021 1:45:00 AM 16.12 61.016 0.235 7.59 4.5 8.98
9/29/2021 2:00:00 AM 16.09 60.962 0.233 7.59 3.33 8.07
9/29/2021 2:15:00 AM 16.05 60.89 0.232 7.61 4.02 8.39
9/29/2021 2:30:00 AM 16.02 60.836 0.232 7.62 3.52 8.92
9/29/2021 2:45:00 AM 15.95 60.71 0.231 7.62 4.16 8.85
9/29/2021 3:00:00 AM 15.91 60.638 0.231 7.61 5.04 8.98
9/29/2021 3:15:00 AM 15.87 60.566 0.23 7.6 4.5 9.05
9/29/2021 3:30:00 AM 15.85 60.53 0.231 7.61 4.01 9.09
9/29/2021 3:45:00 AM 15.81 60.458 0.232 7.61 4.97 9.06
9/29/2021 4:00:00 AM 15.78 60.404 0.232 7.61 9.6 9.05
9/29/2021 4:15:00 AM 15.75 60.35 0.233 7.61 5.16 9.01
9/29/2021 4:30:00 AM 15.71 60.278 0.234 7.6 3.97 9.09
9/29/2021 4:45:00 AM 15.67 60.206 0.234 7.59 7.76 8.91
9/29/2021 5:00:00 AM 15.63 60.134 0.234 7.6 8 8.98
9/29/2021 5:15:00 AM 15.61 60.098 0.235 7.59 7.95 9.05
9/29/2021 5:30:00 AM 15.58 60.044 0.235 7.58 5.46 9.1
9/29/2021 5:45:00 AM 15.52 59.936 0.236 7.58 5.55 9.15
9/29/2021 6:00:00 AM 15.47 59.846 0.234 7.59 7.46 8.98
9/29/2021 6:15:00 AM 15.48 59.864 0.234 7.6 5.22 9.11
9/29/2021 6:30:00 AM 15.44 59.792 0.237 7.6 6.4 9.11
9/29/2021 6:45:00 AM 15.43 59.774 0.237 7.59 5.68 9.15
9/29/2021 7:00:00 AM 15.4 59.72 0.239 7.59 5.96 9.12
9/29/2021 7:15:00 AM 15.35 59.63 0.241 7.59 4.38 9.19
9/29/2021 7:30:00 AM 15.3 59.54 0.242 7.6 9.17 9.15
9/29/2021 7:45:00 AM 15.26 59.468 0.24 7.6 5.18 9.22
9/29/2021 8:00:00 AM 15.25 59.45 0.239 7.6 4.86 9.25
9/29/2021 8:15:00 AM 15.22 59.396 0.237 7.59 5.94 9.24
9/29/2021 8:30:00 AM 15.19 59.342 0.237 7.59 7.36 9.3
9/29/2021 8:45:00 AM 15.16 59.288 0.235 7.58 5.58 9.31
9/29/2021 9:00:00 AM 15.2 59.36 0.234 7.59 5.52 9.28
9/29/2021 9:15:00 AM 15.17 59.306 0.235 7.6 6.75 9.36
9/29/2021 9:30:00 AM 15.18 59.324 0.232 7.6 6.18 9.38
9/29/2021 9:45:00 AM 15.22 59.396 0.234 7.59 6.16 9.28
9/29/2021 10:00:00 AM 15.23 59.414 0.235 7.61 6.21 9.42
9/29/2021 10:15:00 AM 15.28 59.504 0.236 7.61 6.37 9.49
9/29/2021 10:30:00 AM 15.3 59.54 0.236 7.61 9.36 9.43
9/29/2021 10:45:00 AM 15.32 59.576 0.237 7.62 8.06 9.55
9/29/2021 11:00:00 AM 15.32 59.576 0.236 7.61 7.28 9.63
9/29/2021 11:15:00 AM 15.35 59.63 0.236 7.63 6.98 9.68
9/29/2021 11:30:00 AM 15.38 59.684 0.236 7.62 7.99 9.7
9/29/2021 11:45:00 AM 15.42 59.756 0.236 7.62 7.53 9.71
9/29/2021 12:00:00 PM 15.46 59.828 0.236 7.63 8.13 9.75
9/29/2021 12:15:00 PM 15.51 59.918 0.237 7.64 8.23 9.77
9/29/2021 12:30:00 PM 15.54 59.972 0.237 7.63 9.38 9.81
9/29/2021 12:45:00 PM 15.59 60.062 0.236 7.65 8.38 9.79
9/29/2021 1:00:00 PM 15.63 60.134 0.238 7.65 9.5 9.66
9/29/2021 1:15:00 PM 15.68 60.224 0.238 7.66 8.28 9.88
9/29/2021 1:30:00 PM 15.72 60.296 0.236 7.67 8.37 9.89
9/29/2021 1:45:00 PM 15.76 60.368 0.235 7.68 8.66 9.92
9/29/2021 2:00:00 PM 15.82 60.476 0.237 7.66 7.7 9.9
9/29/2021 2:15:00 PM 15.85 60.53 0.236 7.68 8.09 9.98
9/29/2021 2:30:00 PM 15.9 60.62 0.233 7.73 8.55 10.01
9/29/2021 2:45:00 PM 15.94 60.692 0.234 7.71 8.12 10.03
9/29/2021 3:00:00 PM 16 60.8 0.234 7.74 7.74 10.04
9/29/2021 3:15:00 PM 16.03 60.854 0.233 7.67 8.23 9.95
9/29/2021 3:30:00 PM 16.07 60.926 0.234 7.7 9.41 9.95
9/29/2021 3:45:00 PM 16.11 60.998 0.235 7.72 7.93 10.05
9/29/2021 4:00:00 PM 16.16 61.088 0.235 7.71 8.67 10.05
9/29/2021 4:15:00 PM 16.18 61.124 0.236 7.73 8.26 10.08
9/29/2021 4:30:00 PM 16.21 61.178 0.235 7.74 8.56 10.03
9/29/2021 4:45:00 PM 16.23 61.214 0.234 7.75 7.78 10.06
9/29/2021 5:00:00 PM 16.23 61.214 0.234 7.76 8.89 10.05
9/29/2021 5:15:00 PM 16.24 61.232 0.234 7.77 7.93 10.01
9/29/2021 5:30:00 PM 16.23 61.214 0.233 7.77 10.25 9.93
9/29/2021 5:45:00 PM 16.23 61.214 0.233 7.79 7.87 9.97
9/29/2021 6:00:00 PM 16.22 61.196 0.233 7.77 8.96 9.95
9/29/2021 6:15:00 PM 16.22 61.196 0.234 7.78 6.66 9.87
9/29/2021 6:30:00 PM 16.22 61.196 0.234 7.78 7.74 9.86
9/29/2021 6:45:00 PM 16.21 61.178 0.235 7.76 17.44 9.77
9/29/2021 7:00:00 PM 16.2 61.16 0.237 7.71 7.65 9.73
9/29/2021 7:15:00 PM 16.19 61.142 0.238 7.72 6.76 9.69
9/29/2021 7:30:00 PM 16.17 61.106 0.24 7.72 6.97 9.67
9/29/2021 7:45:00 PM 16.15 61.07 0.24 7.74 7.31 9.64
9/29/2021 8:00:00 PM 16.13 61.034 0.24 7.74 8.83 9.58
9/29/2021 8:15:00 PM 16.11 60.998 0.24 7.74 4.82 9.59
9/29/2021 8:30:00 PM 16.09 60.962 0.241 7.75 5.4 9.48
9/29/2021 8:45:00 PM 16.06 60.908 0.242 7.75 5.54 9.5
9/29/2021 9:00:00 PM 16.05 60.89 0.238 7.72 8.05 9.3
9/29/2021 9:15:00 PM 16.02 60.836 0.237 7.72 7.24 9.44
9/29/2021 9:30:00 PM 16.01 60.818 0.237 7.72 9.21 9.4
9/29/2021 9:45:00 PM 15.99 60.782 0.238 7.7 9.17 9.37
9/29/2021 10:00:00 PM 15.97 60.746 0.241 7.69 7.4 9.37
9/29/2021 10:15:00 PM 15.94 60.692 0.239 7.7 70.63 9.33
9/29/2021 10:30:00 PM 15.92 60.656 0.242 7.72 6.47 9.3
9/29/2021 10:45:00 PM 15.89 60.602 0.242 7.7 7.46 9.31
9/29/2021 11:00:00 PM 15.86 60.548 0.241 7.71 5.88 9.32
9/29/2021 11:15:00 PM 15.82 60.476 0.24 7.7 1112 9.22
9/29/2021 11:30:00 PM 15.81 60.458 0.24 7.7 7.58 9.31
9/29/2021 11:45:00 PM 15.78 60.404 0.24 7.71 7.97 9.32
9/30/2021 12:00:00 AM 15.74 60.332 0.24 7.71 7.03 9.28
9/30/2021 12:15:00 AM 15.7 60.26 0.24 7.71 6.68 9.3
9/30/2021 12:30:00 AM 15.67 60.206 0.24 7.69 9.13 9.27
9/30/2021 12:45:00 AM 15.63 60.134 0.24 7.69 7.13 9.22
9/30/2021 1:00:00 AM 15.57 60.026 0.243 7.68 7.5 9.3
9/30/2021 1:15:00 AM 15.55 59.99 0.243 7.67 6.84 9.27
9/30/2021 1:30:00 AM 15.49 59.882 0.244 7.67 6.91 9.25
9/30/2021 1:45:00 AM 15.47 59.846 0.245 7.67 6.06 9.27
9/30/2021 2:00:00 AM 15.38 59.684 0.246 7.67 7.5 9.28
9/30/2021 2:15:00 AM 15.36 59.648 0.243 7.66 6.36 9.27
9/30/2021 2:30:00 AM 15.26 59.468 0.243 7.65 9.34 9.23
9/30/2021 2:45:00 AM 15.22 59.396 0.242 7.67 9.46 9.27
9/30/2021 3:00:00 AM 15.22 59.396 0.241 7.65 9.32 9.25
9/30/2021 3:15:00 AM 15.13 59.234 0.24 7.66 12.76 9.3
9/30/2021 3:30:00 AM 15.09 59.162 0.239 7.67 8.39 9.28
9/30/2021 3:45:00 AM 15.05 59.09 0.243 7.66 8.6 9.3
9/30/2021 4:00:00 AM 15.02 59.036 0.245 7.65 10.85 9.29
9/30/2021 4:15:00 AM 14.98 58.964 0.245 7.65 12.99 9.31
9/30/2021 4:30:00 AM 14.94 58.892 0.244 7.65 9.69 9.32
9/30/2021 4:45:00 AM 14.92 58.856 0.245 7.65 10.76 9.33
9/30/2021 5:00:00 AM 14.82 58.676 0.243 7.65 9.84 9.32
9/30/2021 5:15:00 AM 14.82 58.676 0.242 7.64 12.48 9.33
9/30/2021 5:30:00 AM 14.74 58.532 0.243 7.63 10.26 9.36
9/30/2021 5:45:00 AM 14.76 58.568 0.243 7.64 11.5 9.34
9/30/2021 6:00:00 AM 14.66 58.388 0.244 7.64 11.22 9.37
9/30/2021 6:15:00 AM 14.64 58.352 0.242 7.63 12.74 9.31
9/30/2021 6:30:00 AM 14.59 58.262 0.242 7.64 13.44 9.37
9/30/2021 6:45:00 AM 14.57 58.226 0.242 7.62 15.37 9.37
9/30/2021 7:00:00 AM 14.55 58.19 0.243 7.61 23.98 9.33
9/30/2021 7:15:00 AM 14.52 58.136 0.245 7.62 20.78 9.35
9/30/2021 7:30:00 AM 14.49 58.082 0.245 7.61 19.75 9.37
9/30/2021 7:45:00 AM 14.4 57.92 0.245 7.62 24.97 9.45
9/30/2021 8:00:00 AM 14.38 57.884 0.245 7.62 23.12 9.48
9/30/2021 8:15:00 AM 14.33 57.794 0.244 7.62 26.69 9.51
9/30/2021 8:30:00 AM 14.34 57.812 0.242 7.63 24.51 9.51
9/30/2021 8:45:00 AM 14.3 57.74 0.242 7.62 27.81 9.57
9/30/2021 9:00:00 AM 14.33 57.794 0.241 7.63 26.32 9.6
9/30/2021 9:15:00 AM 14.38 57.884 0.242 7.63 27.21 9.65
9/30/2021 9:30:00 AM 14.41 57.938 0.242 7.63 26.64 9.7
9/30/2021 9:45:00 AM 14.46 58.028 0.243 7.64